<?xml version="1.0" encoding="UTF-8" standalone="no" ?>
<gpx xmlns="http://www.topografix.com/GPX/1/1" xmlns:xsi="http://www.w3.org/2001/XMLSchema-instance" xsi:schemaLocation="http://www.topografix.com/GPX/1/1 http://www.topografix.com/GPX/1/1/gpx.xsd" version="1.1" creator="VisuGPX - https://www.visugpx.com">
  <metadata>
    <name>RANDO FREYCENET ST JEURES 24 KM</name>
    <desc><![CDATA[RANDO FREYCENET ST JEURES 24 KM.DEPART ARRIVEE FREYCENET.CHIRAUD.BRONAC.LES BISES.LES HOSTES.LES MOULINS.ST JEURES.PELINAC.LE FRAISSE.VAREILLE.LA ROCHETTE.ST JEURES]]></desc>
  </metadata>
  <trk>
    <name><![CDATA[18-MARS-23 16:55:50]]></name>
    <extensions>
      <line xmlns="http://www.topografix.com/GPX/gpx_style/0/2">
        <color>0000FF</color>
        <width>4</width>
      </line>
    </extensions>
    <trkseg>
      <trkpt lat="45.07814" lon="4.21881">
        <ele>1036.44</ele>
        <time>2023-03-18T09:16:32Z</time>
      </trkpt>
      <trkpt lat="45.07813" lon="4.21884">
        <ele>1038.84</ele>
        <time>2023-03-18T09:16:34Z</time>
      </trkpt>
      <trkpt lat="45.07815" lon="4.21884">
        <ele>1035.48</ele>
        <time>2023-03-18T09:16:44Z</time>
      </trkpt>
      <trkpt lat="45.07816" lon="4.21877">
        <ele>1029.71</ele>
        <time>2023-03-18T09:16:59Z</time>
      </trkpt>
      <trkpt lat="45.07813" lon="4.21859">
        <ele>1023.94</ele>
        <time>2023-03-18T09:17:16Z</time>
      </trkpt>
      <trkpt lat="45.07811" lon="4.21853">
        <ele>1022.5</ele>
        <time>2023-03-18T09:17:21Z</time>
      </trkpt>
      <trkpt lat="45.07801" lon="4.21831">
        <ele>1019.13</ele>
        <time>2023-03-18T09:17:38Z</time>
      </trkpt>
      <trkpt lat="45.07792" lon="4.21811">
        <ele>1016.73</ele>
        <time>2023-03-18T09:17:54Z</time>
      </trkpt>
      <trkpt lat="45.07781" lon="4.21789">
        <ele>1016.25</ele>
        <time>2023-03-18T09:18:14Z</time>
      </trkpt>
      <trkpt lat="45.07769" lon="4.21773">
        <ele>1016.73</ele>
        <time>2023-03-18T09:18:30Z</time>
      </trkpt>
      <trkpt lat="45.07768" lon="4.21768">
        <ele>1027.31</ele>
        <time>2023-03-18T09:18:39Z</time>
      </trkpt>
      <trkpt lat="45.07752" lon="4.2175">
        <ele>1035.96</ele>
        <time>2023-03-18T09:18:54Z</time>
      </trkpt>
      <trkpt lat="45.07751" lon="4.21748">
        <ele>1036.44</ele>
        <time>2023-03-18T09:18:56Z</time>
      </trkpt>
      <trkpt lat="45.07745" lon="4.21724">
        <ele>1034.52</ele>
        <time>2023-03-18T09:19:10Z</time>
      </trkpt>
      <trkpt lat="45.07739" lon="4.21704">
        <ele>1033.07</ele>
        <time>2023-03-18T09:19:25Z</time>
      </trkpt>
      <trkpt lat="45.07735" lon="4.21686">
        <ele>1032.11</ele>
        <time>2023-03-18T09:19:39Z</time>
      </trkpt>
      <trkpt lat="45.07719" lon="4.21686">
        <ele>1032.11</ele>
        <time>2023-03-18T09:19:56Z</time>
      </trkpt>
      <trkpt lat="45.07705" lon="4.217">
        <ele>1032.59</ele>
        <time>2023-03-18T09:20:16Z</time>
      </trkpt>
      <trkpt lat="45.07683" lon="4.21711">
        <ele>1032.59</ele>
        <time>2023-03-18T09:20:37Z</time>
      </trkpt>
      <trkpt lat="45.07684" lon="4.21712">
        <ele>1030.19</ele>
        <time>2023-03-18T09:20:56Z</time>
      </trkpt>
      <trkpt lat="45.07662" lon="4.21731">
        <ele>1027.31</ele>
        <time>2023-03-18T09:21:15Z</time>
      </trkpt>
      <trkpt lat="45.07622" lon="4.21745">
        <ele>1025.86</ele>
        <time>2023-03-18T09:21:36Z</time>
      </trkpt>
      <trkpt lat="45.07604" lon="4.21758">
        <ele>1022.98</ele>
        <time>2023-03-18T09:21:54Z</time>
      </trkpt>
      <trkpt lat="45.07565" lon="4.21764">
        <ele>1024.42</ele>
        <time>2023-03-18T09:22:13Z</time>
      </trkpt>
      <trkpt lat="45.07546" lon="4.2178">
        <ele>1021.06</ele>
        <time>2023-03-18T09:22:35Z</time>
      </trkpt>
      <trkpt lat="45.07544" lon="4.21793">
        <ele>1014.81</ele>
        <time>2023-03-18T09:22:57Z</time>
      </trkpt>
      <trkpt lat="45.07528" lon="4.21809">
        <ele>1006.16</ele>
        <time>2023-03-18T09:23:17Z</time>
      </trkpt>
      <trkpt lat="45.07503" lon="4.21798">
        <ele>1001.83</ele>
        <time>2023-03-18T09:23:34Z</time>
      </trkpt>
      <trkpt lat="45.0748" lon="4.21786">
        <ele>994.14</ele>
        <time>2023-03-18T09:23:53Z</time>
      </trkpt>
      <trkpt lat="45.07443" lon="4.21772">
        <ele>984.53</ele>
        <time>2023-03-18T09:24:18Z</time>
      </trkpt>
      <trkpt lat="45.07401" lon="4.21758">
        <ele>981.64</ele>
        <time>2023-03-18T09:24:40Z</time>
      </trkpt>
      <trkpt lat="45.07374" lon="4.21752">
        <ele>979.24</ele>
        <time>2023-03-18T09:24:57Z</time>
      </trkpt>
      <trkpt lat="45.07339" lon="4.21748">
        <ele>980.2</ele>
        <time>2023-03-18T09:25:19Z</time>
      </trkpt>
      <trkpt lat="45.07304" lon="4.21738">
        <ele>1011.44</ele>
        <time>2023-03-18T09:25:34Z</time>
      </trkpt>
      <trkpt lat="45.07301" lon="4.21736">
        <ele>1015.77</ele>
        <time>2023-03-18T09:25:37Z</time>
      </trkpt>
      <trkpt lat="45.07281" lon="4.21722">
        <ele>1033.07</ele>
        <time>2023-03-18T09:25:50Z</time>
      </trkpt>
      <trkpt lat="45.07269" lon="4.21711">
        <ele>1046.53</ele>
        <time>2023-03-18T09:26:01Z</time>
      </trkpt>
      <trkpt lat="45.07258" lon="4.21702">
        <ele>1055.18</ele>
        <time>2023-03-18T09:26:12Z</time>
      </trkpt>
      <trkpt lat="45.07251" lon="4.21703">
        <ele>1059.99</ele>
        <time>2023-03-18T09:26:20Z</time>
      </trkpt>
      <trkpt lat="45.07233" lon="4.21712">
        <ele>1065.28</ele>
        <time>2023-03-18T09:26:35Z</time>
      </trkpt>
      <trkpt lat="45.07223" lon="4.2172">
        <ele>1067.2</ele>
        <time>2023-03-18T09:26:47Z</time>
      </trkpt>
      <trkpt lat="45.07207" lon="4.21726">
        <ele>1068.64</ele>
        <time>2023-03-18T09:27:02Z</time>
      </trkpt>
      <trkpt lat="45.07196" lon="4.21733">
        <ele>1067.68</ele>
        <time>2023-03-18T09:27:14Z</time>
      </trkpt>
      <trkpt lat="45.0718" lon="4.21734">
        <ele>1066.72</ele>
        <time>2023-03-18T09:27:30Z</time>
      </trkpt>
      <trkpt lat="45.07165" lon="4.21735">
        <ele>1066.24</ele>
        <time>2023-03-18T09:27:42Z</time>
      </trkpt>
      <trkpt lat="45.07158" lon="4.21739">
        <ele>1065.76</ele>
        <time>2023-03-18T09:27:49Z</time>
      </trkpt>
      <trkpt lat="45.07147" lon="4.21747">
        <ele>1066.72</ele>
        <time>2023-03-18T09:27:59Z</time>
      </trkpt>
      <trkpt lat="45.07146" lon="4.21752">
        <ele>1071.53</ele>
        <time>2023-03-18T09:28:04Z</time>
      </trkpt>
      <trkpt lat="45.07143" lon="4.21752">
        <ele>1072.01</ele>
        <time>2023-03-18T09:28:08Z</time>
      </trkpt>
      <trkpt lat="45.07134" lon="4.21758">
        <ele>1071.05</ele>
        <time>2023-03-18T09:28:17Z</time>
      </trkpt>
      <trkpt lat="45.07132" lon="4.21763">
        <ele>1070.57</ele>
        <time>2023-03-18T09:28:26Z</time>
      </trkpt>
      <trkpt lat="45.07127" lon="4.21772">
        <ele>1068.16</ele>
        <time>2023-03-18T09:28:33Z</time>
      </trkpt>
      <trkpt lat="45.07114" lon="4.2178">
        <ele>1071.53</ele>
        <time>2023-03-18T09:28:46Z</time>
      </trkpt>
      <trkpt lat="45.07112" lon="4.21781">
        <ele>1072.01</ele>
        <time>2023-03-18T09:28:48Z</time>
      </trkpt>
      <trkpt lat="45.07107" lon="4.21784">
        <ele>1072.49</ele>
        <time>2023-03-18T09:28:54Z</time>
      </trkpt>
      <trkpt lat="45.07101" lon="4.21785">
        <ele>1073.93</ele>
        <time>2023-03-18T09:28:59Z</time>
      </trkpt>
      <trkpt lat="45.07096" lon="4.21787">
        <ele>1074.89</ele>
        <time>2023-03-18T09:29:04Z</time>
      </trkpt>
      <trkpt lat="45.07085" lon="4.21794">
        <ele>1077.78</ele>
        <time>2023-03-18T09:29:17Z</time>
      </trkpt>
      <trkpt lat="45.07071" lon="4.21801">
        <ele>1079.22</ele>
        <time>2023-03-18T09:29:32Z</time>
      </trkpt>
      <trkpt lat="45.07058" lon="4.21809">
        <ele>1077.78</ele>
        <time>2023-03-18T09:29:43Z</time>
      </trkpt>
      <trkpt lat="45.07049" lon="4.21818">
        <ele>1074.41</ele>
        <time>2023-03-18T09:29:56Z</time>
      </trkpt>
      <trkpt lat="45.07037" lon="4.21824">
        <ele>1071.05</ele>
        <time>2023-03-18T09:30:12Z</time>
      </trkpt>
      <trkpt lat="45.07024" lon="4.21839">
        <ele>1065.76</ele>
        <time>2023-03-18T09:30:30Z</time>
      </trkpt>
      <trkpt lat="45.06996" lon="4.21848">
        <ele>1058.55</ele>
        <time>2023-03-18T09:30:52Z</time>
      </trkpt>
      <trkpt lat="45.0698" lon="4.21848">
        <ele>1055.67</ele>
        <time>2023-03-18T09:31:05Z</time>
      </trkpt>
      <trkpt lat="45.06972" lon="4.21841">
        <ele>1055.18</ele>
        <time>2023-03-18T09:31:09Z</time>
      </trkpt>
      <trkpt lat="45.06942" lon="4.21822">
        <ele>1053.26</ele>
        <time>2023-03-18T09:31:29Z</time>
      </trkpt>
      <trkpt lat="45.06928" lon="4.21814">
        <ele>1056.63</ele>
        <time>2023-03-18T09:31:47Z</time>
      </trkpt>
      <trkpt lat="45.06914" lon="4.21817">
        <ele>1058.07</ele>
        <time>2023-03-18T09:31:58Z</time>
      </trkpt>
      <trkpt lat="45.06883" lon="4.2183">
        <ele>1061.91</ele>
        <time>2023-03-18T09:32:17Z</time>
      </trkpt>
      <trkpt lat="45.06868" lon="4.21861">
        <ele>1071.05</ele>
        <time>2023-03-18T09:32:40Z</time>
      </trkpt>
      <trkpt lat="45.06862" lon="4.21883">
        <ele>1076.81</ele>
        <time>2023-03-18T09:32:58Z</time>
      </trkpt>
      <trkpt lat="45.06844" lon="4.21898">
        <ele>1084.02</ele>
        <time>2023-03-18T09:33:17Z</time>
      </trkpt>
      <trkpt lat="45.06844" lon="4.21899">
        <ele>1084.99</ele>
        <time>2023-03-18T09:33:18Z</time>
      </trkpt>
      <trkpt lat="45.06826" lon="4.2191">
        <ele>1086.91</ele>
        <time>2023-03-18T09:33:32Z</time>
      </trkpt>
      <trkpt lat="45.06824" lon="4.21913">
        <ele>1086.91</ele>
        <time>2023-03-18T09:33:35Z</time>
      </trkpt>
      <trkpt lat="45.06814" lon="4.21932">
        <ele>1089.31</ele>
        <time>2023-03-18T09:33:48Z</time>
      </trkpt>
      <trkpt lat="45.06813" lon="4.21933">
        <ele>1089.31</ele>
        <time>2023-03-18T09:33:49Z</time>
      </trkpt>
      <trkpt lat="45.068" lon="4.21949">
        <ele>1091.71</ele>
        <time>2023-03-18T09:34:01Z</time>
      </trkpt>
      <trkpt lat="45.06791" lon="4.21964">
        <ele>1094.6</ele>
        <time>2023-03-18T09:34:12Z</time>
      </trkpt>
      <trkpt lat="45.06786" lon="4.2197">
        <ele>1096.52</ele>
        <time>2023-03-18T09:34:18Z</time>
      </trkpt>
      <trkpt lat="45.06776" lon="4.21975">
        <ele>1100.37</ele>
        <time>2023-03-18T09:34:29Z</time>
      </trkpt>
      <trkpt lat="45.06774" lon="4.21976">
        <ele>1100.37</ele>
        <time>2023-03-18T09:34:31Z</time>
      </trkpt>
      <trkpt lat="45.06766" lon="4.21984">
        <ele>1101.81</ele>
        <time>2023-03-18T09:34:39Z</time>
      </trkpt>
      <trkpt lat="45.06754" lon="4.21999">
        <ele>1104.69</ele>
        <time>2023-03-18T09:34:50Z</time>
      </trkpt>
      <trkpt lat="45.06747" lon="4.22016">
        <ele>1105.65</ele>
        <time>2023-03-18T09:35:00Z</time>
      </trkpt>
      <trkpt lat="45.06735" lon="4.22031">
        <ele>1108.06</ele>
        <time>2023-03-18T09:35:11Z</time>
      </trkpt>
      <trkpt lat="45.06721" lon="4.22039">
        <ele>1108.54</ele>
        <time>2023-03-18T09:35:23Z</time>
      </trkpt>
      <trkpt lat="45.06718" lon="4.22042">
        <ele>1108.06</ele>
        <time>2023-03-18T09:35:27Z</time>
      </trkpt>
      <trkpt lat="45.06705" lon="4.22055">
        <ele>1107.1</ele>
        <time>2023-03-18T09:35:40Z</time>
      </trkpt>
      <trkpt lat="45.06699" lon="4.22059">
        <ele>1106.13</ele>
        <time>2023-03-18T09:35:47Z</time>
      </trkpt>
      <trkpt lat="45.06691" lon="4.22072">
        <ele>1102.29</ele>
        <time>2023-03-18T09:35:58Z</time>
      </trkpt>
      <trkpt lat="45.06678" lon="4.22084">
        <ele>1101.81</ele>
        <time>2023-03-18T09:36:06Z</time>
      </trkpt>
      <trkpt lat="45.06667" lon="4.22095">
        <ele>1101.33</ele>
        <time>2023-03-18T09:36:16Z</time>
      </trkpt>
      <trkpt lat="45.06664" lon="4.22108">
        <ele>1102.29</ele>
        <time>2023-03-18T09:36:26Z</time>
      </trkpt>
      <trkpt lat="45.06662" lon="4.22112">
        <ele>1105.17</ele>
        <time>2023-03-18T09:36:40Z</time>
      </trkpt>
      <trkpt lat="45.06661" lon="4.22113">
        <ele>1107.58</ele>
        <time>2023-03-18T09:36:51Z</time>
      </trkpt>
      <trkpt lat="45.06661" lon="4.22114">
        <ele>1107.58</ele>
        <time>2023-03-18T09:37:10Z</time>
      </trkpt>
      <trkpt lat="45.06657" lon="4.22098">
        <ele>1107.1</ele>
        <time>2023-03-18T09:37:28Z</time>
      </trkpt>
      <trkpt lat="45.06651" lon="4.22092">
        <ele>1107.58</ele>
        <time>2023-03-18T09:37:35Z</time>
      </trkpt>
      <trkpt lat="45.0664" lon="4.22068">
        <ele>1109.98</ele>
        <time>2023-03-18T09:37:51Z</time>
      </trkpt>
      <trkpt lat="45.0663" lon="4.22035">
        <ele>1113.34</ele>
        <time>2023-03-18T09:38:11Z</time>
      </trkpt>
      <trkpt lat="45.06624" lon="4.22005">
        <ele>1112.86</ele>
        <time>2023-03-18T09:38:27Z</time>
      </trkpt>
      <trkpt lat="45.06622" lon="4.21977">
        <ele>1112.38</ele>
        <time>2023-03-18T09:38:41Z</time>
      </trkpt>
      <trkpt lat="45.06621" lon="4.21959">
        <ele>1111.9</ele>
        <time>2023-03-18T09:38:55Z</time>
      </trkpt>
      <trkpt lat="45.06616" lon="4.21935">
        <ele>1112.38</ele>
        <time>2023-03-18T09:39:10Z</time>
      </trkpt>
      <trkpt lat="45.06613" lon="4.21891">
        <ele>1114.31</ele>
        <time>2023-03-18T09:39:30Z</time>
      </trkpt>
      <trkpt lat="45.06605" lon="4.21864">
        <ele>1121.03</ele>
        <time>2023-03-18T09:39:42Z</time>
      </trkpt>
      <trkpt lat="45.066" lon="4.2184">
        <ele>1126.8</ele>
        <time>2023-03-18T09:39:54Z</time>
      </trkpt>
      <trkpt lat="45.06602" lon="4.21828">
        <ele>1133.53</ele>
        <time>2023-03-18T09:40:09Z</time>
      </trkpt>
      <trkpt lat="45.06603" lon="4.21823">
        <ele>1135.45</ele>
        <time>2023-03-18T09:40:13Z</time>
      </trkpt>
      <trkpt lat="45.06601" lon="4.21817">
        <ele>1137.38</ele>
        <time>2023-03-18T09:40:16Z</time>
      </trkpt>
      <trkpt lat="45.06601" lon="4.21787">
        <ele>1142.18</ele>
        <time>2023-03-18T09:40:30Z</time>
      </trkpt>
      <trkpt lat="45.06605" lon="4.21761">
        <ele>1143.63</ele>
        <time>2023-03-18T09:40:44Z</time>
      </trkpt>
      <trkpt lat="45.06606" lon="4.21736">
        <ele>1143.63</ele>
        <time>2023-03-18T09:40:58Z</time>
      </trkpt>
      <trkpt lat="45.06605" lon="4.21731">
        <ele>1143.14</ele>
        <time>2023-03-18T09:41:00Z</time>
      </trkpt>
      <trkpt lat="45.06608" lon="4.21717">
        <ele>1141.22</ele>
        <time>2023-03-18T09:41:06Z</time>
      </trkpt>
      <trkpt lat="45.066" lon="4.21688">
        <ele>1140.74</ele>
        <time>2023-03-18T09:41:24Z</time>
      </trkpt>
      <trkpt lat="45.06598" lon="4.21685">
        <ele>1140.26</ele>
        <time>2023-03-18T09:41:29Z</time>
      </trkpt>
      <trkpt lat="45.06588" lon="4.21674">
        <ele>1130.17</ele>
        <time>2023-03-18T09:41:34Z</time>
      </trkpt>
      <trkpt lat="45.06586" lon="4.2167">
        <ele>1128.73</ele>
        <time>2023-03-18T09:41:36Z</time>
      </trkpt>
      <trkpt lat="45.06579" lon="4.21666">
        <ele>1126.8</ele>
        <time>2023-03-18T09:41:40Z</time>
      </trkpt>
      <trkpt lat="45.06574" lon="4.21651">
        <ele>1122.48</ele>
        <time>2023-03-18T09:41:52Z</time>
      </trkpt>
      <trkpt lat="45.06566" lon="4.21635">
        <ele>1118.15</ele>
        <time>2023-03-18T09:42:06Z</time>
      </trkpt>
      <trkpt lat="45.06565" lon="4.21634">
        <ele>1118.15</ele>
        <time>2023-03-18T09:42:11Z</time>
      </trkpt>
      <trkpt lat="45.0656" lon="4.21632">
        <ele>1118.63</ele>
        <time>2023-03-18T09:42:17Z</time>
      </trkpt>
      <trkpt lat="45.06532" lon="4.21619">
        <ele>1123.44</ele>
        <time>2023-03-18T09:42:46Z</time>
      </trkpt>
      <trkpt lat="45.06507" lon="4.21613">
        <ele>1125.84</ele>
        <time>2023-03-18T09:43:06Z</time>
      </trkpt>
      <trkpt lat="45.06505" lon="4.21614">
        <ele>1125.84</ele>
        <time>2023-03-18T09:43:07Z</time>
      </trkpt>
      <trkpt lat="45.06499" lon="4.21619">
        <ele>1126.8</ele>
        <time>2023-03-18T09:43:11Z</time>
      </trkpt>
      <trkpt lat="45.06488" lon="4.21652">
        <ele>1128.73</ele>
        <time>2023-03-18T09:43:31Z</time>
      </trkpt>
      <trkpt lat="45.06476" lon="4.21685">
        <ele>1130.65</ele>
        <time>2023-03-18T09:43:54Z</time>
      </trkpt>
      <trkpt lat="45.06476" lon="4.21687">
        <ele>1130.65</ele>
        <time>2023-03-18T09:43:55Z</time>
      </trkpt>
      <trkpt lat="45.06471" lon="4.21705">
        <ele>1131.61</ele>
        <time>2023-03-18T09:44:07Z</time>
      </trkpt>
      <trkpt lat="45.06457" lon="4.2174">
        <ele>1132.09</ele>
        <time>2023-03-18T09:44:30Z</time>
      </trkpt>
      <trkpt lat="45.06442" lon="4.21766">
        <ele>1131.13</ele>
        <time>2023-03-18T09:44:48Z</time>
      </trkpt>
      <trkpt lat="45.06433" lon="4.21794">
        <ele>1131.13</ele>
        <time>2023-03-18T09:45:05Z</time>
      </trkpt>
      <trkpt lat="45.06414" lon="4.2183">
        <ele>1130.65</ele>
        <time>2023-03-18T09:45:29Z</time>
      </trkpt>
      <trkpt lat="45.06408" lon="4.21836">
        <ele>1130.65</ele>
        <time>2023-03-18T09:45:35Z</time>
      </trkpt>
      <trkpt lat="45.06383" lon="4.21858">
        <ele>1129.69</ele>
        <time>2023-03-18T09:45:54Z</time>
      </trkpt>
      <trkpt lat="45.06359" lon="4.21882">
        <ele>1129.21</ele>
        <time>2023-03-18T09:46:16Z</time>
      </trkpt>
      <trkpt lat="45.06338" lon="4.21901">
        <ele>1128.24</ele>
        <time>2023-03-18T09:46:36Z</time>
      </trkpt>
      <trkpt lat="45.06323" lon="4.21941">
        <ele>1128.24</ele>
        <time>2023-03-18T09:46:59Z</time>
      </trkpt>
      <trkpt lat="45.06311" lon="4.21979">
        <ele>1127.28</ele>
        <time>2023-03-18T09:47:20Z</time>
      </trkpt>
      <trkpt lat="45.06481" lon="4.22088">
        <ele>1125.84</ele>
        <time>2023-03-18T09:48:53Z</time>
      </trkpt>
      <trkpt lat="45.06505" lon="4.22115">
        <ele>1120.07</ele>
        <time>2023-03-18T09:49:17Z</time>
      </trkpt>
      <trkpt lat="45.06526" lon="4.22145">
        <ele>1116.71</ele>
        <time>2023-03-18T09:49:39Z</time>
      </trkpt>
      <trkpt lat="45.06537" lon="4.22177">
        <ele>1111.9</ele>
        <time>2023-03-18T09:49:57Z</time>
      </trkpt>
      <trkpt lat="45.06553" lon="4.22206">
        <ele>1110.94</ele>
        <time>2023-03-18T09:50:17Z</time>
      </trkpt>
      <trkpt lat="45.06574" lon="4.22232">
        <ele>1109.98</ele>
        <time>2023-03-18T09:50:36Z</time>
      </trkpt>
      <trkpt lat="45.06589" lon="4.22257">
        <ele>1111.42</ele>
        <time>2023-03-18T09:50:54Z</time>
      </trkpt>
      <trkpt lat="45.06594" lon="4.22267">
        <ele>1112.86</ele>
        <time>2023-03-18T09:51:16Z</time>
      </trkpt>
      <trkpt lat="45.06592" lon="4.22257">
        <ele>1112.38</ele>
        <time>2023-03-18T09:51:27Z</time>
      </trkpt>
      <trkpt lat="45.0659" lon="4.2225">
        <ele>1112.38</ele>
        <time>2023-03-18T09:51:31Z</time>
      </trkpt>
      <trkpt lat="45.06566" lon="4.22233">
        <ele>1110.94</ele>
        <time>2023-03-18T09:51:51Z</time>
      </trkpt>
      <trkpt lat="45.06566" lon="4.22268">
        <ele>1109.5</ele>
        <time>2023-03-18T09:52:12Z</time>
      </trkpt>
      <trkpt lat="45.06573" lon="4.2231">
        <ele>1108.06</ele>
        <time>2023-03-18T09:52:36Z</time>
      </trkpt>
      <trkpt lat="45.06572" lon="4.22314">
        <ele>1108.06</ele>
        <time>2023-03-18T09:52:38Z</time>
      </trkpt>
      <trkpt lat="45.06578" lon="4.22369">
        <ele>1106.61</ele>
        <time>2023-03-18T09:53:04Z</time>
      </trkpt>
      <trkpt lat="45.06587" lon="4.22399">
        <ele>1106.13</ele>
        <time>2023-03-18T09:53:20Z</time>
      </trkpt>
      <trkpt lat="45.06593" lon="4.22451">
        <ele>1105.17</ele>
        <time>2023-03-18T09:53:46Z</time>
      </trkpt>
      <trkpt lat="45.06599" lon="4.22463">
        <ele>1104.69</ele>
        <time>2023-03-18T09:53:53Z</time>
      </trkpt>
      <trkpt lat="45.06628" lon="4.22486">
        <ele>1099.89</ele>
        <time>2023-03-18T09:54:14Z</time>
      </trkpt>
      <trkpt lat="45.06649" lon="4.22503">
        <ele>1098.44</ele>
        <time>2023-03-18T09:54:33Z</time>
      </trkpt>
      <trkpt lat="45.06668" lon="4.22522">
        <ele>1096.52</ele>
        <time>2023-03-18T09:54:53Z</time>
      </trkpt>
      <trkpt lat="45.06695" lon="4.22545">
        <ele>1095.56</ele>
        <time>2023-03-18T09:55:13Z</time>
      </trkpt>
      <trkpt lat="45.06709" lon="4.22565">
        <ele>1094.12</ele>
        <time>2023-03-18T09:55:30Z</time>
      </trkpt>
      <trkpt lat="45.06729" lon="4.22603">
        <ele>1093.16</ele>
        <time>2023-03-18T09:55:53Z</time>
      </trkpt>
      <trkpt lat="45.06733" lon="4.2263">
        <ele>1092.68</ele>
        <time>2023-03-18T09:56:09Z</time>
      </trkpt>
      <trkpt lat="45.06737" lon="4.22661">
        <ele>1093.16</ele>
        <time>2023-03-18T09:56:26Z</time>
      </trkpt>
      <trkpt lat="45.06742" lon="4.22685">
        <ele>1095.08</ele>
        <time>2023-03-18T09:56:41Z</time>
      </trkpt>
      <trkpt lat="45.06754" lon="4.22719">
        <ele>1097.96</ele>
        <time>2023-03-18T09:57:01Z</time>
      </trkpt>
      <trkpt lat="45.06756" lon="4.22752">
        <ele>1103.73</ele>
        <time>2023-03-18T09:57:24Z</time>
      </trkpt>
      <trkpt lat="45.06757" lon="4.22763">
        <ele>1105.17</ele>
        <time>2023-03-18T09:57:32Z</time>
      </trkpt>
      <trkpt lat="45.06751" lon="4.22794">
        <ele>1109.02</ele>
        <time>2023-03-18T09:57:53Z</time>
      </trkpt>
      <trkpt lat="45.06747" lon="4.22831">
        <ele>1112.86</ele>
        <time>2023-03-18T09:58:17Z</time>
      </trkpt>
      <trkpt lat="45.06733" lon="4.22855">
        <ele>1116.23</ele>
        <time>2023-03-18T09:58:41Z</time>
      </trkpt>
      <trkpt lat="45.06733" lon="4.22857">
        <ele>1116.23</ele>
        <time>2023-03-18T09:58:42Z</time>
      </trkpt>
      <trkpt lat="45.06724" lon="4.22884">
        <ele>1116.71</ele>
        <time>2023-03-18T09:59:04Z</time>
      </trkpt>
      <trkpt lat="45.06715" lon="4.2292">
        <ele>1116.71</ele>
        <time>2023-03-18T09:59:26Z</time>
      </trkpt>
      <trkpt lat="45.0671" lon="4.22957">
        <ele>1116.71</ele>
        <time>2023-03-18T09:59:47Z</time>
      </trkpt>
      <trkpt lat="45.06713" lon="4.22986">
        <ele>1113.34</ele>
        <time>2023-03-18T10:00:07Z</time>
      </trkpt>
      <trkpt lat="45.06713" lon="4.22993">
        <ele>1113.34</ele>
        <time>2023-03-18T10:00:13Z</time>
      </trkpt>
      <trkpt lat="45.06719" lon="4.23028">
        <ele>1109.02</ele>
        <time>2023-03-18T10:00:37Z</time>
      </trkpt>
      <trkpt lat="45.0673" lon="4.23039">
        <ele>1105.17</ele>
        <time>2023-03-18T10:00:49Z</time>
      </trkpt>
      <trkpt lat="45.06746" lon="4.23055">
        <ele>1100.37</ele>
        <time>2023-03-18T10:01:02Z</time>
      </trkpt>
      <trkpt lat="45.06756" lon="4.23072">
        <ele>1093.16</ele>
        <time>2023-03-18T10:01:15Z</time>
      </trkpt>
      <trkpt lat="45.06783" lon="4.23101">
        <ele>1091.23</ele>
        <time>2023-03-18T10:01:38Z</time>
      </trkpt>
      <trkpt lat="45.06801" lon="4.23134">
        <ele>1085.47</ele>
        <time>2023-03-18T10:01:58Z</time>
      </trkpt>
      <trkpt lat="45.06811" lon="4.23162">
        <ele>1078.26</ele>
        <time>2023-03-18T10:02:18Z</time>
      </trkpt>
      <trkpt lat="45.06823" lon="4.2318">
        <ele>1070.08</ele>
        <time>2023-03-18T10:02:28Z</time>
      </trkpt>
      <trkpt lat="45.06837" lon="4.2321">
        <ele>1064.32</ele>
        <time>2023-03-18T10:02:44Z</time>
      </trkpt>
      <trkpt lat="45.06842" lon="4.2322">
        <ele>1062.39</ele>
        <time>2023-03-18T10:02:51Z</time>
      </trkpt>
      <trkpt lat="45.06843" lon="4.23223">
        <ele>1061.91</ele>
        <time>2023-03-18T10:02:53Z</time>
      </trkpt>
      <trkpt lat="45.06847" lon="4.23236">
        <ele>1060.95</ele>
        <time>2023-03-18T10:02:59Z</time>
      </trkpt>
      <trkpt lat="45.06859" lon="4.23261">
        <ele>1059.51</ele>
        <time>2023-03-18T10:03:17Z</time>
      </trkpt>
      <trkpt lat="45.06872" lon="4.23292">
        <ele>1057.11</ele>
        <time>2023-03-18T10:03:40Z</time>
      </trkpt>
      <trkpt lat="45.06869" lon="4.233">
        <ele>1056.63</ele>
        <time>2023-03-18T10:03:44Z</time>
      </trkpt>
      <trkpt lat="45.06848" lon="4.23342">
        <ele>1055.67</ele>
        <time>2023-03-18T10:04:07Z</time>
      </trkpt>
      <trkpt lat="45.06827" lon="4.23361">
        <ele>1055.67</ele>
        <time>2023-03-18T10:04:26Z</time>
      </trkpt>
      <trkpt lat="45.06805" lon="4.23389">
        <ele>1055.18</ele>
        <time>2023-03-18T10:04:49Z</time>
      </trkpt>
      <trkpt lat="45.06792" lon="4.23412">
        <ele>1054.7</ele>
        <time>2023-03-18T10:05:08Z</time>
      </trkpt>
      <trkpt lat="45.06782" lon="4.23414">
        <ele>1054.22</ele>
        <time>2023-03-18T10:05:17Z</time>
      </trkpt>
      <trkpt lat="45.06784" lon="4.23431">
        <ele>1051.82</ele>
        <time>2023-03-18T10:05:31Z</time>
      </trkpt>
      <trkpt lat="45.06805" lon="4.23465">
        <ele>1048.94</ele>
        <time>2023-03-18T10:05:52Z</time>
      </trkpt>
      <trkpt lat="45.0683" lon="4.23503">
        <ele>1048.94</ele>
        <time>2023-03-18T10:06:16Z</time>
      </trkpt>
      <trkpt lat="45.06846" lon="4.23546">
        <ele>1047.49</ele>
        <time>2023-03-18T10:06:40Z</time>
      </trkpt>
      <trkpt lat="45.0687" lon="4.23571">
        <ele>1047.49</ele>
        <time>2023-03-18T10:07:01Z</time>
      </trkpt>
      <trkpt lat="45.06891" lon="4.23593">
        <ele>1047.01</ele>
        <time>2023-03-18T10:07:24Z</time>
      </trkpt>
      <trkpt lat="45.06912" lon="4.2361">
        <ele>1048.45</ele>
        <time>2023-03-18T10:07:44Z</time>
      </trkpt>
      <trkpt lat="45.0693" lon="4.23634">
        <ele>1048.45</ele>
        <time>2023-03-18T10:08:02Z</time>
      </trkpt>
      <trkpt lat="45.06935" lon="4.23651">
        <ele>1047.01</ele>
        <time>2023-03-18T10:08:13Z</time>
      </trkpt>
      <trkpt lat="45.06938" lon="4.23685">
        <ele>1044.13</ele>
        <time>2023-03-18T10:08:31Z</time>
      </trkpt>
      <trkpt lat="45.06943" lon="4.23717">
        <ele>1040.28</ele>
        <time>2023-03-18T10:08:52Z</time>
      </trkpt>
      <trkpt lat="45.0694" lon="4.23759">
        <ele>1043.17</ele>
        <time>2023-03-18T10:09:09Z</time>
      </trkpt>
      <trkpt lat="45.06939" lon="4.23761">
        <ele>1043.17</ele>
        <time>2023-03-18T10:09:10Z</time>
      </trkpt>
      <trkpt lat="45.0694" lon="4.23772">
        <ele>1042.69</ele>
        <time>2023-03-18T10:09:15Z</time>
      </trkpt>
      <trkpt lat="45.06935" lon="4.23805">
        <ele>1041.25</ele>
        <time>2023-03-18T10:09:33Z</time>
      </trkpt>
      <trkpt lat="45.06933" lon="4.23831">
        <ele>1038.36</ele>
        <time>2023-03-18T10:09:48Z</time>
      </trkpt>
      <trkpt lat="45.06932" lon="4.23839">
        <ele>1037.88</ele>
        <time>2023-03-18T10:09:52Z</time>
      </trkpt>
      <trkpt lat="45.06932" lon="4.23843">
        <ele>1037.88</ele>
        <time>2023-03-18T10:09:54Z</time>
      </trkpt>
      <trkpt lat="45.06935" lon="4.23847">
        <ele>1038.84</ele>
        <time>2023-03-18T10:10:00Z</time>
      </trkpt>
      <trkpt lat="45.06954" lon="4.23851">
        <ele>1039.8</ele>
        <time>2023-03-18T10:10:16Z</time>
      </trkpt>
      <trkpt lat="45.06979" lon="4.23851">
        <ele>1040.28</ele>
        <time>2023-03-18T10:10:33Z</time>
      </trkpt>
      <trkpt lat="45.07008" lon="4.23848">
        <ele>1040.76</ele>
        <time>2023-03-18T10:10:53Z</time>
      </trkpt>
      <trkpt lat="45.07027" lon="4.23849">
        <ele>1041.25</ele>
        <time>2023-03-18T10:11:09Z</time>
      </trkpt>
      <trkpt lat="45.07044" lon="4.23852">
        <ele>1042.69</ele>
        <time>2023-03-18T10:11:25Z</time>
      </trkpt>
      <trkpt lat="45.07052" lon="4.23856">
        <ele>1043.17</ele>
        <time>2023-03-18T10:11:33Z</time>
      </trkpt>
      <trkpt lat="45.07085" lon="4.2387">
        <ele>1043.17</ele>
        <time>2023-03-18T10:11:55Z</time>
      </trkpt>
      <trkpt lat="45.07107" lon="4.23877">
        <ele>1044.61</ele>
        <time>2023-03-18T10:12:14Z</time>
      </trkpt>
      <trkpt lat="45.07126" lon="4.23886">
        <ele>1044.61</ele>
        <time>2023-03-18T10:12:31Z</time>
      </trkpt>
      <trkpt lat="45.07146" lon="4.23889">
        <ele>1047.49</ele>
        <time>2023-03-18T10:12:47Z</time>
      </trkpt>
      <trkpt lat="45.0716" lon="4.23883">
        <ele>1048.94</ele>
        <time>2023-03-18T10:13:04Z</time>
      </trkpt>
      <trkpt lat="45.07163" lon="4.2387">
        <ele>1048.45</ele>
        <time>2023-03-18T10:13:14Z</time>
      </trkpt>
      <trkpt lat="45.07163" lon="4.23836">
        <ele>1048.45</ele>
        <time>2023-03-18T10:13:34Z</time>
      </trkpt>
      <trkpt lat="45.07168" lon="4.23815">
        <ele>1047.01</ele>
        <time>2023-03-18T10:13:49Z</time>
      </trkpt>
      <trkpt lat="45.07179" lon="4.23794">
        <ele>1047.49</ele>
        <time>2023-03-18T10:14:03Z</time>
      </trkpt>
      <trkpt lat="45.07181" lon="4.23788">
        <ele>1046.53</ele>
        <time>2023-03-18T10:14:06Z</time>
      </trkpt>
      <trkpt lat="45.0719" lon="4.23761">
        <ele>1044.13</ele>
        <time>2023-03-18T10:14:21Z</time>
      </trkpt>
      <trkpt lat="45.07195" lon="4.23748">
        <ele>1043.65</ele>
        <time>2023-03-18T10:14:29Z</time>
      </trkpt>
      <trkpt lat="45.07208" lon="4.23724">
        <ele>1042.69</ele>
        <time>2023-03-18T10:14:44Z</time>
      </trkpt>
      <trkpt lat="45.07215" lon="4.23698">
        <ele>1041.73</ele>
        <time>2023-03-18T10:14:57Z</time>
      </trkpt>
      <trkpt lat="45.07217" lon="4.23689">
        <ele>1041.73</ele>
        <time>2023-03-18T10:15:02Z</time>
      </trkpt>
      <trkpt lat="45.0722" lon="4.23668">
        <ele>1040.76</ele>
        <time>2023-03-18T10:15:13Z</time>
      </trkpt>
      <trkpt lat="45.07219" lon="4.23655">
        <ele>1038.84</ele>
        <time>2023-03-18T10:15:20Z</time>
      </trkpt>
      <trkpt lat="45.07222" lon="4.2363">
        <ele>1039.32</ele>
        <time>2023-03-18T10:15:34Z</time>
      </trkpt>
      <trkpt lat="45.07223" lon="4.23605">
        <ele>1040.76</ele>
        <time>2023-03-18T10:15:47Z</time>
      </trkpt>
      <trkpt lat="45.07224" lon="4.23583">
        <ele>1041.25</ele>
        <time>2023-03-18T10:16:00Z</time>
      </trkpt>
      <trkpt lat="45.07225" lon="4.23579">
        <ele>1041.25</ele>
        <time>2023-03-18T10:16:03Z</time>
      </trkpt>
      <trkpt lat="45.07225" lon="4.23565">
        <ele>1041.73</ele>
        <time>2023-03-18T10:16:10Z</time>
      </trkpt>
      <trkpt lat="45.07228" lon="4.23538">
        <ele>1041.73</ele>
        <time>2023-03-18T10:16:25Z</time>
      </trkpt>
      <trkpt lat="45.07228" lon="4.23537">
        <ele>1041.73</ele>
        <time>2023-03-18T10:16:26Z</time>
      </trkpt>
      <trkpt lat="45.0723" lon="4.23528">
        <ele>1041.25</ele>
        <time>2023-03-18T10:16:32Z</time>
      </trkpt>
      <trkpt lat="45.07232" lon="4.23503">
        <ele>1039.8</ele>
        <time>2023-03-18T10:16:46Z</time>
      </trkpt>
      <trkpt lat="45.07234" lon="4.23481">
        <ele>1038.84</ele>
        <time>2023-03-18T10:16:59Z</time>
      </trkpt>
      <trkpt lat="45.07238" lon="4.23463">
        <ele>1038.84</ele>
        <time>2023-03-18T10:17:11Z</time>
      </trkpt>
      <trkpt lat="45.07239" lon="4.23438">
        <ele>1037.4</ele>
        <time>2023-03-18T10:17:25Z</time>
      </trkpt>
      <trkpt lat="45.07239" lon="4.23434">
        <ele>1036.44</ele>
        <time>2023-03-18T10:17:28Z</time>
      </trkpt>
      <trkpt lat="45.0724" lon="4.2341">
        <ele>1035</ele>
        <time>2023-03-18T10:17:41Z</time>
      </trkpt>
      <trkpt lat="45.07244" lon="4.23401">
        <ele>1034.52</ele>
        <time>2023-03-18T10:17:46Z</time>
      </trkpt>
      <trkpt lat="45.07248" lon="4.2338">
        <ele>1034.04</ele>
        <time>2023-03-18T10:17:58Z</time>
      </trkpt>
      <trkpt lat="45.0725" lon="4.23378">
        <ele>1034.04</ele>
        <time>2023-03-18T10:18:00Z</time>
      </trkpt>
      <trkpt lat="45.07251" lon="4.2337">
        <ele>1033.07</ele>
        <time>2023-03-18T10:18:05Z</time>
      </trkpt>
      <trkpt lat="45.07257" lon="4.23364">
        <ele>1032.59</ele>
        <time>2023-03-18T10:18:10Z</time>
      </trkpt>
      <trkpt lat="45.07267" lon="4.23341">
        <ele>1029.71</ele>
        <time>2023-03-18T10:18:25Z</time>
      </trkpt>
      <trkpt lat="45.0728" lon="4.23323">
        <ele>1027.79</ele>
        <time>2023-03-18T10:18:39Z</time>
      </trkpt>
      <trkpt lat="45.07289" lon="4.23308">
        <ele>1025.86</ele>
        <time>2023-03-18T10:18:50Z</time>
      </trkpt>
      <trkpt lat="45.07305" lon="4.23291">
        <ele>1024.9</ele>
        <time>2023-03-18T10:19:05Z</time>
      </trkpt>
      <trkpt lat="45.07312" lon="4.23284">
        <ele>1024.42</ele>
        <time>2023-03-18T10:19:12Z</time>
      </trkpt>
      <trkpt lat="45.07316" lon="4.23278">
        <ele>1023.94</ele>
        <time>2023-03-18T10:19:16Z</time>
      </trkpt>
      <trkpt lat="45.07321" lon="4.23271">
        <ele>1022.5</ele>
        <time>2023-03-18T10:19:23Z</time>
      </trkpt>
      <trkpt lat="45.07324" lon="4.23266">
        <ele>1021.54</ele>
        <time>2023-03-18T10:19:27Z</time>
      </trkpt>
      <trkpt lat="45.07336" lon="4.23258">
        <ele>1019.62</ele>
        <time>2023-03-18T10:19:37Z</time>
      </trkpt>
      <trkpt lat="45.07343" lon="4.23249">
        <ele>1019.62</ele>
        <time>2023-03-18T10:19:43Z</time>
      </trkpt>
      <trkpt lat="45.07345" lon="4.23248">
        <ele>1019.62</ele>
        <time>2023-03-18T10:19:45Z</time>
      </trkpt>
      <trkpt lat="45.0735" lon="4.23245">
        <ele>1019.62</ele>
        <time>2023-03-18T10:19:49Z</time>
      </trkpt>
      <trkpt lat="45.07353" lon="4.2324">
        <ele>1020.1</ele>
        <time>2023-03-18T10:19:52Z</time>
      </trkpt>
      <trkpt lat="45.07368" lon="4.23227">
        <ele>1020.58</ele>
        <time>2023-03-18T10:20:05Z</time>
      </trkpt>
      <trkpt lat="45.07369" lon="4.23226">
        <ele>1020.58</ele>
        <time>2023-03-18T10:20:06Z</time>
      </trkpt>
      <trkpt lat="45.07375" lon="4.23201">
        <ele>1021.06</ele>
        <time>2023-03-18T10:20:20Z</time>
      </trkpt>
      <trkpt lat="45.07382" lon="4.23182">
        <ele>1022.02</ele>
        <time>2023-03-18T10:20:33Z</time>
      </trkpt>
      <trkpt lat="45.07391" lon="4.2316">
        <ele>1021.54</ele>
        <time>2023-03-18T10:20:47Z</time>
      </trkpt>
      <trkpt lat="45.07394" lon="4.23158">
        <ele>1021.54</ele>
        <time>2023-03-18T10:20:50Z</time>
      </trkpt>
      <trkpt lat="45.07409" lon="4.23151">
        <ele>1021.54</ele>
        <time>2023-03-18T10:21:01Z</time>
      </trkpt>
      <trkpt lat="45.07422" lon="4.23148">
        <ele>1019.62</ele>
        <time>2023-03-18T10:21:12Z</time>
      </trkpt>
      <trkpt lat="45.07424" lon="4.23148">
        <ele>1019.62</ele>
        <time>2023-03-18T10:21:14Z</time>
      </trkpt>
      <trkpt lat="45.07439" lon="4.23143">
        <ele>1017.21</ele>
        <time>2023-03-18T10:21:28Z</time>
      </trkpt>
      <trkpt lat="45.07437" lon="4.23143">
        <ele>1016.73</ele>
        <time>2023-03-18T10:21:30Z</time>
      </trkpt>
      <trkpt lat="45.07424" lon="4.23138">
        <ele>1016.25</ele>
        <time>2023-03-18T10:21:51Z</time>
      </trkpt>
      <trkpt lat="45.07432" lon="4.23137">
        <ele>1015.77</ele>
        <time>2023-03-18T10:22:05Z</time>
      </trkpt>
      <trkpt lat="45.07453" lon="4.23133">
        <ele>1015.77</ele>
        <time>2023-03-18T10:22:23Z</time>
      </trkpt>
      <trkpt lat="45.07462" lon="4.23128">
        <ele>1017.21</ele>
        <time>2023-03-18T10:22:29Z</time>
      </trkpt>
      <trkpt lat="45.07474" lon="4.23111">
        <ele>1017.69</ele>
        <time>2023-03-18T10:22:37Z</time>
      </trkpt>
      <trkpt lat="45.07504" lon="4.2307">
        <ele>1014.81</ele>
        <time>2023-03-18T10:22:57Z</time>
      </trkpt>
      <trkpt lat="45.07543" lon="4.23047">
        <ele>1014.81</ele>
        <time>2023-03-18T10:23:16Z</time>
      </trkpt>
      <trkpt lat="45.0757" lon="4.23024">
        <ele>1017.69</ele>
        <time>2023-03-18T10:23:36Z</time>
      </trkpt>
      <trkpt lat="45.07592" lon="4.22992">
        <ele>1018.65</ele>
        <time>2023-03-18T10:23:54Z</time>
      </trkpt>
      <trkpt lat="45.07599" lon="4.22957">
        <ele>1021.06</ele>
        <time>2023-03-18T10:24:12Z</time>
      </trkpt>
      <trkpt lat="45.07604" lon="4.22925">
        <ele>1022.5</ele>
        <time>2023-03-18T10:24:28Z</time>
      </trkpt>
      <trkpt lat="45.07611" lon="4.22892">
        <ele>1023.46</ele>
        <time>2023-03-18T10:24:45Z</time>
      </trkpt>
      <trkpt lat="45.07628" lon="4.22865">
        <ele>1023.94</ele>
        <time>2023-03-18T10:25:02Z</time>
      </trkpt>
      <trkpt lat="45.07648" lon="4.22845">
        <ele>1024.9</ele>
        <time>2023-03-18T10:25:20Z</time>
      </trkpt>
      <trkpt lat="45.07667" lon="4.2283">
        <ele>1026.34</ele>
        <time>2023-03-18T10:25:34Z</time>
      </trkpt>
      <trkpt lat="45.07686" lon="4.22816">
        <ele>1027.79</ele>
        <time>2023-03-18T10:25:49Z</time>
      </trkpt>
      <trkpt lat="45.07704" lon="4.22806">
        <ele>1028.27</ele>
        <time>2023-03-18T10:26:03Z</time>
      </trkpt>
      <trkpt lat="45.07729" lon="4.22793">
        <ele>1025.86</ele>
        <time>2023-03-18T10:26:21Z</time>
      </trkpt>
      <trkpt lat="45.0775" lon="4.22777">
        <ele>1027.31</ele>
        <time>2023-03-18T10:26:38Z</time>
      </trkpt>
      <trkpt lat="45.07775" lon="4.22751">
        <ele>1028.75</ele>
        <time>2023-03-18T10:26:59Z</time>
      </trkpt>
      <trkpt lat="45.07784" lon="4.22728">
        <ele>1027.79</ele>
        <time>2023-03-18T10:27:14Z</time>
      </trkpt>
      <trkpt lat="45.07791" lon="4.22721">
        <ele>1026.34</ele>
        <time>2023-03-18T10:27:29Z</time>
      </trkpt>
      <trkpt lat="45.07795" lon="4.22721">
        <ele>1025.38</ele>
        <time>2023-03-18T10:27:43Z</time>
      </trkpt>
      <trkpt lat="45.07795" lon="4.22719">
        <ele>1025.38</ele>
        <time>2023-03-18T10:27:45Z</time>
      </trkpt>
      <trkpt lat="45.07799" lon="4.2271">
        <ele>1024.42</ele>
        <time>2023-03-18T10:27:59Z</time>
      </trkpt>
      <trkpt lat="45.07798" lon="4.2271">
        <ele>1023.46</ele>
        <time>2023-03-18T10:28:21Z</time>
      </trkpt>
      <trkpt lat="45.07797" lon="4.2271">
        <ele>1023.46</ele>
        <time>2023-03-18T10:28:42Z</time>
      </trkpt>
      <trkpt lat="45.07798" lon="4.2271">
        <ele>1023.46</ele>
        <time>2023-03-18T10:29:01Z</time>
      </trkpt>
      <trkpt lat="45.07798" lon="4.2271">
        <ele>1022.98</ele>
        <time>2023-03-18T10:29:25Z</time>
      </trkpt>
      <trkpt lat="45.07799" lon="4.22708">
        <ele>1022.5</ele>
        <time>2023-03-18T10:29:40Z</time>
      </trkpt>
      <trkpt lat="45.07799" lon="4.2271">
        <ele>1022.02</ele>
        <time>2023-03-18T10:30:01Z</time>
      </trkpt>
      <trkpt lat="45.078" lon="4.22709">
        <ele>1022.5</ele>
        <time>2023-03-18T10:30:27Z</time>
      </trkpt>
      <trkpt lat="45.078" lon="4.22709">
        <ele>1023.46</ele>
        <time>2023-03-18T10:30:51Z</time>
      </trkpt>
      <trkpt lat="45.078" lon="4.22709">
        <ele>1023.46</ele>
        <time>2023-03-18T10:31:12Z</time>
      </trkpt>
      <trkpt lat="45.078" lon="4.22709">
        <ele>1023.46</ele>
        <time>2023-03-18T10:31:37Z</time>
      </trkpt>
      <trkpt lat="45.07801" lon="4.22709">
        <ele>1023.94</ele>
        <time>2023-03-18T10:32:04Z</time>
      </trkpt>
      <trkpt lat="45.07801" lon="4.22708">
        <ele>1023.94</ele>
        <time>2023-03-18T10:32:34Z</time>
      </trkpt>
      <trkpt lat="45.078" lon="4.22708">
        <ele>1023.94</ele>
        <time>2023-03-18T10:32:54Z</time>
      </trkpt>
      <trkpt lat="45.078" lon="4.22709">
        <ele>1024.42</ele>
        <time>2023-03-18T10:33:23Z</time>
      </trkpt>
      <trkpt lat="45.078" lon="4.22709">
        <ele>1024.42</ele>
        <time>2023-03-18T10:33:50Z</time>
      </trkpt>
      <trkpt lat="45.07801" lon="4.22709">
        <ele>1025.38</ele>
        <time>2023-03-18T10:34:19Z</time>
      </trkpt>
      <trkpt lat="45.07801" lon="4.22708">
        <ele>1025.86</ele>
        <time>2023-03-18T10:34:44Z</time>
      </trkpt>
      <trkpt lat="45.07801" lon="4.22709">
        <ele>1026.34</ele>
        <time>2023-03-18T10:35:10Z</time>
      </trkpt>
      <trkpt lat="45.07801" lon="4.22709">
        <ele>1026.34</ele>
        <time>2023-03-18T10:35:38Z</time>
      </trkpt>
      <trkpt lat="45.07803" lon="4.22708">
        <ele>1025.38</ele>
        <time>2023-03-18T10:35:58Z</time>
      </trkpt>
      <trkpt lat="45.07804" lon="4.22708">
        <ele>1025.38</ele>
        <time>2023-03-18T10:35:59Z</time>
      </trkpt>
      <trkpt lat="45.07821" lon="4.22701">
        <ele>1024.42</ele>
        <time>2023-03-18T10:36:14Z</time>
      </trkpt>
      <trkpt lat="45.07838" lon="4.22697">
        <ele>1024.42</ele>
        <time>2023-03-18T10:36:32Z</time>
      </trkpt>
      <trkpt lat="45.07852" lon="4.22694">
        <ele>1024.9</ele>
        <time>2023-03-18T10:36:45Z</time>
      </trkpt>
      <trkpt lat="45.07869" lon="4.22689">
        <ele>1021.54</ele>
        <time>2023-03-18T10:37:01Z</time>
      </trkpt>
      <trkpt lat="45.07889" lon="4.22683">
        <ele>1022.02</ele>
        <time>2023-03-18T10:37:18Z</time>
      </trkpt>
      <trkpt lat="45.07908" lon="4.22674">
        <ele>1022.5</ele>
        <time>2023-03-18T10:37:35Z</time>
      </trkpt>
      <trkpt lat="45.07918" lon="4.22663">
        <ele>1022.98</ele>
        <time>2023-03-18T10:37:47Z</time>
      </trkpt>
      <trkpt lat="45.07932" lon="4.2265">
        <ele>1025.38</ele>
        <time>2023-03-18T10:38:02Z</time>
      </trkpt>
      <trkpt lat="45.07936" lon="4.22646">
        <ele>1025.86</ele>
        <time>2023-03-18T10:38:06Z</time>
      </trkpt>
      <trkpt lat="45.07952" lon="4.22628">
        <ele>1027.79</ele>
        <time>2023-03-18T10:38:24Z</time>
      </trkpt>
      <trkpt lat="45.07968" lon="4.2262">
        <ele>1030.67</ele>
        <time>2023-03-18T10:38:37Z</time>
      </trkpt>
      <trkpt lat="45.07979" lon="4.22617">
        <ele>1032.11</ele>
        <time>2023-03-18T10:38:46Z</time>
      </trkpt>
      <trkpt lat="45.07996" lon="4.22612">
        <ele>1033.07</ele>
        <time>2023-03-18T10:39:01Z</time>
      </trkpt>
      <trkpt lat="45.08013" lon="4.22609">
        <ele>1034.04</ele>
        <time>2023-03-18T10:39:17Z</time>
      </trkpt>
      <trkpt lat="45.08028" lon="4.22602">
        <ele>1034.04</ele>
        <time>2023-03-18T10:39:32Z</time>
      </trkpt>
      <trkpt lat="45.08038" lon="4.22597">
        <ele>1035</ele>
        <time>2023-03-18T10:39:43Z</time>
      </trkpt>
      <trkpt lat="45.08062" lon="4.22588">
        <ele>1037.88</ele>
        <time>2023-03-18T10:40:02Z</time>
      </trkpt>
      <trkpt lat="45.08086" lon="4.22572">
        <ele>1043.17</ele>
        <time>2023-03-18T10:40:23Z</time>
      </trkpt>
      <trkpt lat="45.08106" lon="4.2255">
        <ele>1047.01</ele>
        <time>2023-03-18T10:40:45Z</time>
      </trkpt>
      <trkpt lat="45.08125" lon="4.22519">
        <ele>1046.05</ele>
        <time>2023-03-18T10:41:09Z</time>
      </trkpt>
      <trkpt lat="45.08134" lon="4.2249">
        <ele>1045.09</ele>
        <time>2023-03-18T10:41:27Z</time>
      </trkpt>
      <trkpt lat="45.08141" lon="4.22456">
        <ele>1041.73</ele>
        <time>2023-03-18T10:41:47Z</time>
      </trkpt>
      <trkpt lat="45.08145" lon="4.22441">
        <ele>1040.28</ele>
        <time>2023-03-18T10:41:57Z</time>
      </trkpt>
      <trkpt lat="45.0817" lon="4.22419">
        <ele>1037.88</ele>
        <time>2023-03-18T10:42:18Z</time>
      </trkpt>
      <trkpt lat="45.08184" lon="4.22394">
        <ele>1038.84</ele>
        <time>2023-03-18T10:42:38Z</time>
      </trkpt>
      <trkpt lat="45.08202" lon="4.22367">
        <ele>1037.4</ele>
        <time>2023-03-18T10:42:58Z</time>
      </trkpt>
      <trkpt lat="45.08219" lon="4.22345">
        <ele>1038.36</ele>
        <time>2023-03-18T10:43:15Z</time>
      </trkpt>
      <trkpt lat="45.08244" lon="4.22335">
        <ele>1037.88</ele>
        <time>2023-03-18T10:43:35Z</time>
      </trkpt>
      <trkpt lat="45.08267" lon="4.22345">
        <ele>1034.52</ele>
        <time>2023-03-18T10:43:54Z</time>
      </trkpt>
      <trkpt lat="45.08289" lon="4.22367">
        <ele>1030.67</ele>
        <time>2023-03-18T10:44:15Z</time>
      </trkpt>
      <trkpt lat="45.08316" lon="4.22383">
        <ele>1031.15</ele>
        <time>2023-03-18T10:44:37Z</time>
      </trkpt>
      <trkpt lat="45.08325" lon="4.22385">
        <ele>1031.15</ele>
        <time>2023-03-18T10:44:44Z</time>
      </trkpt>
      <trkpt lat="45.08352" lon="4.22385">
        <ele>1030.67</ele>
        <time>2023-03-18T10:45:07Z</time>
      </trkpt>
      <trkpt lat="45.08385" lon="4.22394">
        <ele>1028.75</ele>
        <time>2023-03-18T10:45:32Z</time>
      </trkpt>
      <trkpt lat="45.08394" lon="4.22393">
        <ele>1027.31</ele>
        <time>2023-03-18T10:45:38Z</time>
      </trkpt>
      <trkpt lat="45.08422" lon="4.22393">
        <ele>1030.67</ele>
        <time>2023-03-18T10:46:01Z</time>
      </trkpt>
      <trkpt lat="45.08445" lon="4.22404">
        <ele>1027.79</ele>
        <time>2023-03-18T10:46:22Z</time>
      </trkpt>
      <trkpt lat="45.08465" lon="4.22415">
        <ele>1026.34</ele>
        <time>2023-03-18T10:46:38Z</time>
      </trkpt>
      <trkpt lat="45.085" lon="4.2243">
        <ele>1031.15</ele>
        <time>2023-03-18T10:47:02Z</time>
      </trkpt>
      <trkpt lat="45.08531" lon="4.2245">
        <ele>1032.59</ele>
        <time>2023-03-18T10:47:27Z</time>
      </trkpt>
      <trkpt lat="45.0856" lon="4.22461">
        <ele>1032.11</ele>
        <time>2023-03-18T10:47:46Z</time>
      </trkpt>
      <trkpt lat="45.0858" lon="4.22473">
        <ele>1031.63</ele>
        <time>2023-03-18T10:48:09Z</time>
      </trkpt>
      <trkpt lat="45.0858" lon="4.22471">
        <ele>1032.59</ele>
        <time>2023-03-18T10:48:38Z</time>
      </trkpt>
      <trkpt lat="45.08579" lon="4.22472">
        <ele>1033.07</ele>
        <time>2023-03-18T10:49:05Z</time>
      </trkpt>
      <trkpt lat="45.08577" lon="4.22472">
        <ele>1033.55</ele>
        <time>2023-03-18T10:49:33Z</time>
      </trkpt>
      <trkpt lat="45.0858" lon="4.22471">
        <ele>1033.07</ele>
        <time>2023-03-18T10:49:53Z</time>
      </trkpt>
      <trkpt lat="45.0858" lon="4.2247">
        <ele>1034.04</ele>
        <time>2023-03-18T10:50:16Z</time>
      </trkpt>
      <trkpt lat="45.08581" lon="4.22469">
        <ele>1035.48</ele>
        <time>2023-03-18T10:50:37Z</time>
      </trkpt>
      <trkpt lat="45.08581" lon="4.22469">
        <ele>1035.48</ele>
        <time>2023-03-18T10:51:00Z</time>
      </trkpt>
      <trkpt lat="45.08581" lon="4.22469">
        <ele>1035.96</ele>
        <time>2023-03-18T10:51:25Z</time>
      </trkpt>
      <trkpt lat="45.08581" lon="4.22469">
        <ele>1035.96</ele>
        <time>2023-03-18T10:51:48Z</time>
      </trkpt>
      <trkpt lat="45.08582" lon="4.2247">
        <ele>1035.96</ele>
        <time>2023-03-18T10:52:13Z</time>
      </trkpt>
      <trkpt lat="45.08581" lon="4.22471">
        <ele>1035.48</ele>
        <time>2023-03-18T10:52:38Z</time>
      </trkpt>
      <trkpt lat="45.08582" lon="4.22471">
        <ele>1035.48</ele>
        <time>2023-03-18T10:53:05Z</time>
      </trkpt>
      <trkpt lat="45.08582" lon="4.22471">
        <ele>1035.48</ele>
        <time>2023-03-18T10:53:26Z</time>
      </trkpt>
      <trkpt lat="45.08582" lon="4.22471">
        <ele>1035.96</ele>
        <time>2023-03-18T10:53:56Z</time>
      </trkpt>
      <trkpt lat="45.08582" lon="4.2247">
        <ele>1036.44</ele>
        <time>2023-03-18T10:54:15Z</time>
      </trkpt>
      <trkpt lat="45.08581" lon="4.22472">
        <ele>1036.44</ele>
        <time>2023-03-18T10:54:39Z</time>
      </trkpt>
      <trkpt lat="45.08584" lon="4.22471">
        <ele>1035</ele>
        <time>2023-03-18T10:55:02Z</time>
      </trkpt>
      <trkpt lat="45.08584" lon="4.22472">
        <ele>1034.52</ele>
        <time>2023-03-18T10:55:26Z</time>
      </trkpt>
      <trkpt lat="45.08582" lon="4.22471">
        <ele>1034.04</ele>
        <time>2023-03-18T10:55:51Z</time>
      </trkpt>
      <trkpt lat="45.0858" lon="4.22473">
        <ele>1035.48</ele>
        <time>2023-03-18T10:56:15Z</time>
      </trkpt>
      <trkpt lat="45.08579" lon="4.22473">
        <ele>1035.48</ele>
        <time>2023-03-18T10:56:34Z</time>
      </trkpt>
      <trkpt lat="45.08579" lon="4.22473">
        <ele>1035.48</ele>
        <time>2023-03-18T10:56:54Z</time>
      </trkpt>
      <trkpt lat="45.08584" lon="4.22475">
        <ele>1035.96</ele>
        <time>2023-03-18T10:57:13Z</time>
      </trkpt>
      <trkpt lat="45.08585" lon="4.22474">
        <ele>1037.4</ele>
        <time>2023-03-18T10:57:36Z</time>
      </trkpt>
      <trkpt lat="45.08582" lon="4.22471">
        <ele>1038.36</ele>
        <time>2023-03-18T10:58:04Z</time>
      </trkpt>
      <trkpt lat="45.08582" lon="4.22467">
        <ele>1038.36</ele>
        <time>2023-03-18T10:58:21Z</time>
      </trkpt>
      <trkpt lat="45.08582" lon="4.22468">
        <ele>1037.4</ele>
        <time>2023-03-18T10:58:41Z</time>
      </trkpt>
      <trkpt lat="45.08582" lon="4.22468">
        <ele>1037.4</ele>
        <time>2023-03-18T10:59:02Z</time>
      </trkpt>
      <trkpt lat="45.08591" lon="4.22465">
        <ele>1039.8</ele>
        <time>2023-03-18T10:59:22Z</time>
      </trkpt>
      <trkpt lat="45.08607" lon="4.22473">
        <ele>1040.28</ele>
        <time>2023-03-18T10:59:49Z</time>
      </trkpt>
      <trkpt lat="45.08629" lon="4.22473">
        <ele>1041.25</ele>
        <time>2023-03-18T11:00:04Z</time>
      </trkpt>
      <trkpt lat="45.08651" lon="4.2248">
        <ele>1042.21</ele>
        <time>2023-03-18T11:00:26Z</time>
      </trkpt>
      <trkpt lat="45.08677" lon="4.22484">
        <ele>1039.32</ele>
        <time>2023-03-18T11:00:49Z</time>
      </trkpt>
      <trkpt lat="45.08687" lon="4.22495">
        <ele>1034.52</ele>
        <time>2023-03-18T11:01:01Z</time>
      </trkpt>
      <trkpt lat="45.087" lon="4.22498">
        <ele>1030.19</ele>
        <time>2023-03-18T11:01:23Z</time>
      </trkpt>
      <trkpt lat="45.08725" lon="4.2251">
        <ele>1022.5</ele>
        <time>2023-03-18T11:01:43Z</time>
      </trkpt>
      <trkpt lat="45.08746" lon="4.22547">
        <ele>1026.34</ele>
        <time>2023-03-18T11:01:57Z</time>
      </trkpt>
      <trkpt lat="45.08769" lon="4.22573">
        <ele>1028.27</ele>
        <time>2023-03-18T11:02:19Z</time>
      </trkpt>
      <trkpt lat="45.08788" lon="4.226">
        <ele>1028.27</ele>
        <time>2023-03-18T11:02:41Z</time>
      </trkpt>
      <trkpt lat="45.08801" lon="4.22624">
        <ele>1025.38</ele>
        <time>2023-03-18T11:03:00Z</time>
      </trkpt>
      <trkpt lat="45.08816" lon="4.22635">
        <ele>1025.38</ele>
        <time>2023-03-18T11:03:11Z</time>
      </trkpt>
      <trkpt lat="45.08844" lon="4.2265">
        <ele>1027.79</ele>
        <time>2023-03-18T11:03:34Z</time>
      </trkpt>
      <trkpt lat="45.08862" lon="4.22674">
        <ele>1020.1</ele>
        <time>2023-03-18T11:03:54Z</time>
      </trkpt>
      <trkpt lat="45.08863" lon="4.22711">
        <ele>1013.85</ele>
        <time>2023-03-18T11:04:10Z</time>
      </trkpt>
      <trkpt lat="45.08887" lon="4.22748">
        <ele>1015.29</ele>
        <time>2023-03-18T11:04:33Z</time>
      </trkpt>
      <trkpt lat="45.089" lon="4.22752">
        <ele>1025.86</ele>
        <time>2023-03-18T11:04:44Z</time>
      </trkpt>
      <trkpt lat="45.0892" lon="4.22763">
        <ele>1030.67</ele>
        <time>2023-03-18T11:05:03Z</time>
      </trkpt>
      <trkpt lat="45.08947" lon="4.22783">
        <ele>1031.15</ele>
        <time>2023-03-18T11:05:24Z</time>
      </trkpt>
      <trkpt lat="45.08967" lon="4.22801">
        <ele>1024.42</ele>
        <time>2023-03-18T11:05:43Z</time>
      </trkpt>
      <trkpt lat="45.08986" lon="4.2282">
        <ele>1016.73</ele>
        <time>2023-03-18T11:06:03Z</time>
      </trkpt>
      <trkpt lat="45.09004" lon="4.22836">
        <ele>1011.44</ele>
        <time>2023-03-18T11:06:21Z</time>
      </trkpt>
      <trkpt lat="45.09023" lon="4.22852">
        <ele>1007.12</ele>
        <time>2023-03-18T11:06:38Z</time>
      </trkpt>
      <trkpt lat="45.09041" lon="4.22866">
        <ele>1004.23</ele>
        <time>2023-03-18T11:06:55Z</time>
      </trkpt>
      <trkpt lat="45.0906" lon="4.22881">
        <ele>1000.87</ele>
        <time>2023-03-18T11:07:13Z</time>
      </trkpt>
      <trkpt lat="45.09086" lon="4.22886">
        <ele>997.99</ele>
        <time>2023-03-18T11:07:33Z</time>
      </trkpt>
      <trkpt lat="45.09107" lon="4.22884">
        <ele>995.1</ele>
        <time>2023-03-18T11:07:51Z</time>
      </trkpt>
      <trkpt lat="45.09128" lon="4.22875">
        <ele>993.18</ele>
        <time>2023-03-18T11:08:08Z</time>
      </trkpt>
      <trkpt lat="45.09148" lon="4.22853">
        <ele>990.3</ele>
        <time>2023-03-18T11:08:28Z</time>
      </trkpt>
      <trkpt lat="45.0917" lon="4.22829">
        <ele>989.33</ele>
        <time>2023-03-18T11:08:48Z</time>
      </trkpt>
      <trkpt lat="45.09188" lon="4.22812">
        <ele>987.41</ele>
        <time>2023-03-18T11:09:05Z</time>
      </trkpt>
      <trkpt lat="45.09204" lon="4.22801">
        <ele>985.49</ele>
        <time>2023-03-18T11:09:21Z</time>
      </trkpt>
      <trkpt lat="45.09218" lon="4.22791">
        <ele>984.05</ele>
        <time>2023-03-18T11:09:41Z</time>
      </trkpt>
      <trkpt lat="45.09241" lon="4.22779">
        <ele>983.57</ele>
        <time>2023-03-18T11:10:00Z</time>
      </trkpt>
      <trkpt lat="45.09262" lon="4.22766">
        <ele>981.64</ele>
        <time>2023-03-18T11:10:21Z</time>
      </trkpt>
      <trkpt lat="45.09276" lon="4.22754">
        <ele>979.72</ele>
        <time>2023-03-18T11:10:33Z</time>
      </trkpt>
      <trkpt lat="45.093" lon="4.22736">
        <ele>975.88</ele>
        <time>2023-03-18T11:10:53Z</time>
      </trkpt>
      <trkpt lat="45.09318" lon="4.22715">
        <ele>974.91</ele>
        <time>2023-03-18T11:11:10Z</time>
      </trkpt>
      <trkpt lat="45.09336" lon="4.22698">
        <ele>968.18</ele>
        <time>2023-03-18T11:11:31Z</time>
      </trkpt>
      <trkpt lat="45.09364" lon="4.22688">
        <ele>961.46</ele>
        <time>2023-03-18T11:11:51Z</time>
      </trkpt>
      <trkpt lat="45.09365" lon="4.22688">
        <ele>961.46</ele>
        <time>2023-03-18T11:11:52Z</time>
      </trkpt>
      <trkpt lat="45.09378" lon="4.22696">
        <ele>960.98</ele>
        <time>2023-03-18T11:12:03Z</time>
      </trkpt>
      <trkpt lat="45.09394" lon="4.2272">
        <ele>958.09</ele>
        <time>2023-03-18T11:12:22Z</time>
      </trkpt>
      <trkpt lat="45.09395" lon="4.22735">
        <ele>956.65</ele>
        <time>2023-03-18T11:12:30Z</time>
      </trkpt>
      <trkpt lat="45.09396" lon="4.22773">
        <ele>956.65</ele>
        <time>2023-03-18T11:12:51Z</time>
      </trkpt>
      <trkpt lat="45.09409" lon="4.22784">
        <ele>957.13</ele>
        <time>2023-03-18T11:13:03Z</time>
      </trkpt>
      <trkpt lat="45.09439" lon="4.22797">
        <ele>958.57</ele>
        <time>2023-03-18T11:13:30Z</time>
      </trkpt>
      <trkpt lat="45.09443" lon="4.22803">
        <ele>958.09</ele>
        <time>2023-03-18T11:13:39Z</time>
      </trkpt>
      <trkpt lat="45.09465" lon="4.22817">
        <ele>952.32</ele>
        <time>2023-03-18T11:13:59Z</time>
      </trkpt>
      <trkpt lat="45.09469" lon="4.22824">
        <ele>950.88</ele>
        <time>2023-03-18T11:14:04Z</time>
      </trkpt>
      <trkpt lat="45.09476" lon="4.22834">
        <ele>949.44</ele>
        <time>2023-03-18T11:14:08Z</time>
      </trkpt>
      <trkpt lat="45.09489" lon="4.22848">
        <ele>950.4</ele>
        <time>2023-03-18T11:14:27Z</time>
      </trkpt>
      <trkpt lat="45.09494" lon="4.22855">
        <ele>948.96</ele>
        <time>2023-03-18T11:14:33Z</time>
      </trkpt>
      <trkpt lat="45.09514" lon="4.22884">
        <ele>948</ele>
        <time>2023-03-18T11:14:50Z</time>
      </trkpt>
      <trkpt lat="45.09519" lon="4.22897">
        <ele>944.63</ele>
        <time>2023-03-18T11:15:00Z</time>
      </trkpt>
      <trkpt lat="45.09529" lon="4.2293">
        <ele>946.07</ele>
        <time>2023-03-18T11:15:20Z</time>
      </trkpt>
      <trkpt lat="45.09536" lon="4.22934">
        <ele>945.11</ele>
        <time>2023-03-18T11:15:25Z</time>
      </trkpt>
      <trkpt lat="45.09554" lon="4.2294">
        <ele>942.71</ele>
        <time>2023-03-18T11:15:37Z</time>
      </trkpt>
      <trkpt lat="45.09561" lon="4.22939">
        <ele>942.23</ele>
        <time>2023-03-18T11:15:42Z</time>
      </trkpt>
      <trkpt lat="45.09582" lon="4.22926">
        <ele>937.42</ele>
        <time>2023-03-18T11:16:02Z</time>
      </trkpt>
      <trkpt lat="45.09613" lon="4.22914">
        <ele>935.5</ele>
        <time>2023-03-18T11:16:26Z</time>
      </trkpt>
      <trkpt lat="45.09639" lon="4.22902">
        <ele>936.94</ele>
        <time>2023-03-18T11:16:46Z</time>
      </trkpt>
      <trkpt lat="45.09669" lon="4.22899">
        <ele>939.35</ele>
        <time>2023-03-18T11:17:04Z</time>
      </trkpt>
      <trkpt lat="45.09703" lon="4.22905">
        <ele>935.98</ele>
        <time>2023-03-18T11:17:29Z</time>
      </trkpt>
      <trkpt lat="45.09728" lon="4.22913">
        <ele>938.38</ele>
        <time>2023-03-18T11:17:52Z</time>
      </trkpt>
      <trkpt lat="45.09752" lon="4.22938">
        <ele>930.69</ele>
        <time>2023-03-18T11:18:16Z</time>
      </trkpt>
      <trkpt lat="45.09776" lon="4.22949">
        <ele>922.52</ele>
        <time>2023-03-18T11:18:38Z</time>
      </trkpt>
      <trkpt lat="45.09814" lon="4.22967">
        <ele>920.6</ele>
        <time>2023-03-18T11:19:01Z</time>
      </trkpt>
      <trkpt lat="45.09831" lon="4.22972">
        <ele>921.56</ele>
        <time>2023-03-18T11:19:22Z</time>
      </trkpt>
      <trkpt lat="45.09845" lon="4.22986">
        <ele>921.56</ele>
        <time>2023-03-18T11:19:42Z</time>
      </trkpt>
      <trkpt lat="45.09851" lon="4.22992">
        <ele>920.12</ele>
        <time>2023-03-18T11:19:50Z</time>
      </trkpt>
      <trkpt lat="45.0987" lon="4.23008">
        <ele>916.75</ele>
        <time>2023-03-18T11:20:13Z</time>
      </trkpt>
      <trkpt lat="45.0988" lon="4.23001">
        <ele>913.87</ele>
        <time>2023-03-18T11:20:32Z</time>
      </trkpt>
      <trkpt lat="45.09894" lon="4.22992">
        <ele>910.99</ele>
        <time>2023-03-18T11:20:55Z</time>
      </trkpt>
      <trkpt lat="45.09894" lon="4.23001">
        <ele>914.83</ele>
        <time>2023-03-18T11:21:17Z</time>
      </trkpt>
      <trkpt lat="45.09889" lon="4.22998">
        <ele>923</ele>
        <time>2023-03-18T11:21:35Z</time>
      </trkpt>
      <trkpt lat="45.09888" lon="4.23">
        <ele>922.04</ele>
        <time>2023-03-18T11:21:37Z</time>
      </trkpt>
      <trkpt lat="45.09886" lon="4.23002">
        <ele>921.08</ele>
        <time>2023-03-18T11:21:40Z</time>
      </trkpt>
      <trkpt lat="45.09891" lon="4.23007">
        <ele>920.6</ele>
        <time>2023-03-18T11:21:55Z</time>
      </trkpt>
      <trkpt lat="45.09889" lon="4.23008">
        <ele>920.12</ele>
        <time>2023-03-18T11:22:19Z</time>
      </trkpt>
      <trkpt lat="45.0988" lon="4.23008">
        <ele>918.68</ele>
        <time>2023-03-18T11:22:38Z</time>
      </trkpt>
      <trkpt lat="45.09883" lon="4.23023">
        <ele>917.24</ele>
        <time>2023-03-18T11:22:59Z</time>
      </trkpt>
      <trkpt lat="45.09897" lon="4.23047">
        <ele>916.27</ele>
        <time>2023-03-18T11:23:20Z</time>
      </trkpt>
      <trkpt lat="45.09898" lon="4.23069">
        <ele>917.72</ele>
        <time>2023-03-18T11:23:38Z</time>
      </trkpt>
      <trkpt lat="45.09903" lon="4.23075">
        <ele>918.68</ele>
        <time>2023-03-18T11:23:43Z</time>
      </trkpt>
      <trkpt lat="45.09921" lon="4.23102">
        <ele>923</ele>
        <time>2023-03-18T11:24:06Z</time>
      </trkpt>
      <trkpt lat="45.09924" lon="4.2311">
        <ele>925.89</ele>
        <time>2023-03-18T11:24:14Z</time>
      </trkpt>
      <trkpt lat="45.09957" lon="4.23129">
        <ele>936.46</ele>
        <time>2023-03-18T11:24:40Z</time>
      </trkpt>
      <trkpt lat="45.09961" lon="4.2313">
        <ele>936.46</ele>
        <time>2023-03-18T11:24:44Z</time>
      </trkpt>
      <trkpt lat="45.09982" lon="4.23166">
        <ele>931.17</ele>
        <time>2023-03-18T11:25:06Z</time>
      </trkpt>
      <trkpt lat="45.09989" lon="4.23173">
        <ele>928.29</ele>
        <time>2023-03-18T11:25:14Z</time>
      </trkpt>
      <trkpt lat="45.09997" lon="4.23176">
        <ele>927.81</ele>
        <time>2023-03-18T11:25:20Z</time>
      </trkpt>
      <trkpt lat="45.10005" lon="4.23174">
        <ele>925.41</ele>
        <time>2023-03-18T11:25:36Z</time>
      </trkpt>
      <trkpt lat="45.10007" lon="4.23173">
        <ele>923.48</ele>
        <time>2023-03-18T11:26:01Z</time>
      </trkpt>
      <trkpt lat="45.10005" lon="4.23175">
        <ele>922.04</ele>
        <time>2023-03-18T11:26:20Z</time>
      </trkpt>
      <trkpt lat="45.10005" lon="4.23175">
        <ele>921.56</ele>
        <time>2023-03-18T11:26:40Z</time>
      </trkpt>
      <trkpt lat="45.10008" lon="4.23176">
        <ele>921.56</ele>
        <time>2023-03-18T11:27:03Z</time>
      </trkpt>
      <trkpt lat="45.10015" lon="4.2318">
        <ele>920.12</ele>
        <time>2023-03-18T11:27:20Z</time>
      </trkpt>
      <trkpt lat="45.10019" lon="4.23188">
        <ele>920.6</ele>
        <time>2023-03-18T11:27:24Z</time>
      </trkpt>
      <trkpt lat="45.10034" lon="4.23199">
        <ele>925.41</ele>
        <time>2023-03-18T11:27:41Z</time>
      </trkpt>
      <trkpt lat="45.1006" lon="4.23219">
        <ele>928.29</ele>
        <time>2023-03-18T11:28:01Z</time>
      </trkpt>
      <trkpt lat="45.10078" lon="4.23216">
        <ele>928.77</ele>
        <time>2023-03-18T11:28:23Z</time>
      </trkpt>
      <trkpt lat="45.10068" lon="4.23207">
        <ele>927.81</ele>
        <time>2023-03-18T11:28:44Z</time>
      </trkpt>
      <trkpt lat="45.10071" lon="4.23215">
        <ele>926.85</ele>
        <time>2023-03-18T11:29:06Z</time>
      </trkpt>
      <trkpt lat="45.10083" lon="4.23225">
        <ele>925.89</ele>
        <time>2023-03-18T11:29:28Z</time>
      </trkpt>
      <trkpt lat="45.10106" lon="4.23226">
        <ele>921.08</ele>
        <time>2023-03-18T11:29:45Z</time>
      </trkpt>
      <trkpt lat="45.10128" lon="4.23226">
        <ele>916.75</ele>
        <time>2023-03-18T11:30:05Z</time>
      </trkpt>
      <trkpt lat="45.10152" lon="4.23225">
        <ele>917.72</ele>
        <time>2023-03-18T11:30:24Z</time>
      </trkpt>
      <trkpt lat="45.10182" lon="4.23219">
        <ele>916.27</ele>
        <time>2023-03-18T11:30:45Z</time>
      </trkpt>
      <trkpt lat="45.10204" lon="4.23215">
        <ele>916.75</ele>
        <time>2023-03-18T11:31:04Z</time>
      </trkpt>
      <trkpt lat="45.10226" lon="4.23205">
        <ele>918.68</ele>
        <time>2023-03-18T11:31:23Z</time>
      </trkpt>
      <trkpt lat="45.10237" lon="4.23217">
        <ele>918.68</ele>
        <time>2023-03-18T11:31:43Z</time>
      </trkpt>
      <trkpt lat="45.10268" lon="4.23231">
        <ele>921.56</ele>
        <time>2023-03-18T11:32:09Z</time>
      </trkpt>
      <trkpt lat="45.10296" lon="4.23263">
        <ele>917.24</ele>
        <time>2023-03-18T11:32:36Z</time>
      </trkpt>
      <trkpt lat="45.10315" lon="4.23275">
        <ele>918.2</ele>
        <time>2023-03-18T11:32:51Z</time>
      </trkpt>
      <trkpt lat="45.10346" lon="4.23287">
        <ele>914.35</ele>
        <time>2023-03-18T11:33:16Z</time>
      </trkpt>
      <trkpt lat="45.10368" lon="4.23299">
        <ele>909.06</ele>
        <time>2023-03-18T11:33:33Z</time>
      </trkpt>
      <trkpt lat="45.10391" lon="4.23313">
        <ele>908.58</ele>
        <time>2023-03-18T11:33:56Z</time>
      </trkpt>
      <trkpt lat="45.10422" lon="4.23313">
        <ele>912.43</ele>
        <time>2023-03-18T11:34:19Z</time>
      </trkpt>
      <trkpt lat="45.10447" lon="4.23318">
        <ele>912.91</ele>
        <time>2023-03-18T11:34:39Z</time>
      </trkpt>
      <trkpt lat="45.1046" lon="4.23323">
        <ele>911.95</ele>
        <time>2023-03-18T11:34:55Z</time>
      </trkpt>
      <trkpt lat="45.10477" lon="4.2332">
        <ele>912.43</ele>
        <time>2023-03-18T11:35:12Z</time>
      </trkpt>
      <trkpt lat="45.10484" lon="4.23317">
        <ele>913.39</ele>
        <time>2023-03-18T11:35:27Z</time>
      </trkpt>
      <trkpt lat="45.10482" lon="4.23317">
        <ele>913.39</ele>
        <time>2023-03-18T11:35:48Z</time>
      </trkpt>
      <trkpt lat="45.10485" lon="4.23318">
        <ele>913.87</ele>
        <time>2023-03-18T11:36:07Z</time>
      </trkpt>
      <trkpt lat="45.10488" lon="4.2332">
        <ele>913.87</ele>
        <time>2023-03-18T11:36:26Z</time>
      </trkpt>
      <trkpt lat="45.1049" lon="4.23319">
        <ele>914.83</ele>
        <time>2023-03-18T11:36:43Z</time>
      </trkpt>
      <trkpt lat="45.10489" lon="4.23322">
        <ele>914.35</ele>
        <time>2023-03-18T11:37:06Z</time>
      </trkpt>
      <trkpt lat="45.10489" lon="4.23331">
        <ele>913.39</ele>
        <time>2023-03-18T11:37:25Z</time>
      </trkpt>
      <trkpt lat="45.10488" lon="4.23327">
        <ele>912.91</ele>
        <time>2023-03-18T11:37:30Z</time>
      </trkpt>
      <trkpt lat="45.10486" lon="4.23316">
        <ele>912.91</ele>
        <time>2023-03-18T11:37:45Z</time>
      </trkpt>
      <trkpt lat="45.10485" lon="4.23318">
        <ele>913.39</ele>
        <time>2023-03-18T11:38:07Z</time>
      </trkpt>
      <trkpt lat="45.10488" lon="4.2331">
        <ele>913.39</ele>
        <time>2023-03-18T11:38:17Z</time>
      </trkpt>
      <trkpt lat="45.10488" lon="4.23293">
        <ele>911.95</ele>
        <time>2023-03-18T11:38:29Z</time>
      </trkpt>
      <trkpt lat="45.10482" lon="4.2326">
        <ele>913.87</ele>
        <time>2023-03-18T11:38:47Z</time>
      </trkpt>
      <trkpt lat="45.10474" lon="4.23236">
        <ele>912.43</ele>
        <time>2023-03-18T11:39:04Z</time>
      </trkpt>
      <trkpt lat="45.10461" lon="4.23217">
        <ele>911.47</ele>
        <time>2023-03-18T11:39:19Z</time>
      </trkpt>
      <trkpt lat="45.10454" lon="4.23208">
        <ele>910.51</ele>
        <time>2023-03-18T11:39:29Z</time>
      </trkpt>
      <trkpt lat="45.10442" lon="4.23191">
        <ele>910.51</ele>
        <time>2023-03-18T11:39:47Z</time>
      </trkpt>
      <trkpt lat="45.10433" lon="4.23171">
        <ele>910.51</ele>
        <time>2023-03-18T11:40:05Z</time>
      </trkpt>
      <trkpt lat="45.10434" lon="4.23166">
        <ele>910.99</ele>
        <time>2023-03-18T11:40:08Z</time>
      </trkpt>
      <trkpt lat="45.10435" lon="4.23147">
        <ele>915.31</ele>
        <time>2023-03-18T11:40:25Z</time>
      </trkpt>
      <trkpt lat="45.10435" lon="4.23144">
        <ele>917.72</ele>
        <time>2023-03-18T11:40:46Z</time>
      </trkpt>
      <trkpt lat="45.10435" lon="4.23144">
        <ele>919.64</ele>
        <time>2023-03-18T11:41:10Z</time>
      </trkpt>
      <trkpt lat="45.10434" lon="4.23143">
        <ele>921.56</ele>
        <time>2023-03-18T11:41:39Z</time>
      </trkpt>
      <trkpt lat="45.10433" lon="4.23138">
        <ele>923.48</ele>
        <time>2023-03-18T11:41:56Z</time>
      </trkpt>
      <trkpt lat="45.10436" lon="4.23131">
        <ele>926.37</ele>
        <time>2023-03-18T11:42:09Z</time>
      </trkpt>
      <trkpt lat="45.10443" lon="4.23105">
        <ele>931.17</ele>
        <time>2023-03-18T11:42:27Z</time>
      </trkpt>
      <trkpt lat="45.10446" lon="4.23081">
        <ele>934.54</ele>
        <time>2023-03-18T11:42:43Z</time>
      </trkpt>
      <trkpt lat="45.10443" lon="4.23062">
        <ele>935.02</ele>
        <time>2023-03-18T11:42:55Z</time>
      </trkpt>
      <trkpt lat="45.10436" lon="4.23036">
        <ele>940.31</ele>
        <time>2023-03-18T11:43:16Z</time>
      </trkpt>
      <trkpt lat="45.10427" lon="4.23004">
        <ele>945.11</ele>
        <time>2023-03-18T11:43:34Z</time>
      </trkpt>
      <trkpt lat="45.10425" lon="4.22982">
        <ele>948.96</ele>
        <time>2023-03-18T11:43:50Z</time>
      </trkpt>
      <trkpt lat="45.10416" lon="4.22949">
        <ele>953.77</ele>
        <time>2023-03-18T11:44:09Z</time>
      </trkpt>
      <trkpt lat="45.10412" lon="4.22934">
        <ele>953.28</ele>
        <time>2023-03-18T11:44:19Z</time>
      </trkpt>
      <trkpt lat="45.1041" lon="4.22924">
        <ele>952.32</ele>
        <time>2023-03-18T11:44:25Z</time>
      </trkpt>
      <trkpt lat="45.10403" lon="4.22887">
        <ele>952.8</ele>
        <time>2023-03-18T11:44:46Z</time>
      </trkpt>
      <trkpt lat="45.10392" lon="4.22853">
        <ele>953.77</ele>
        <time>2023-03-18T11:45:07Z</time>
      </trkpt>
      <trkpt lat="45.10385" lon="4.22836">
        <ele>956.17</ele>
        <time>2023-03-18T11:45:20Z</time>
      </trkpt>
      <trkpt lat="45.10384" lon="4.22827">
        <ele>956.17</ele>
        <time>2023-03-18T11:45:25Z</time>
      </trkpt>
      <trkpt lat="45.10383" lon="4.22815">
        <ele>955.69</ele>
        <time>2023-03-18T11:45:31Z</time>
      </trkpt>
      <trkpt lat="45.10376" lon="4.22793">
        <ele>953.28</ele>
        <time>2023-03-18T11:45:43Z</time>
      </trkpt>
      <trkpt lat="45.10374" lon="4.22785">
        <ele>952.8</ele>
        <time>2023-03-18T11:45:47Z</time>
      </trkpt>
      <trkpt lat="45.1037" lon="4.22779">
        <ele>952.8</ele>
        <time>2023-03-18T11:45:51Z</time>
      </trkpt>
      <trkpt lat="45.10369" lon="4.22775">
        <ele>952.8</ele>
        <time>2023-03-18T11:45:53Z</time>
      </trkpt>
      <trkpt lat="45.10363" lon="4.2276">
        <ele>954.25</ele>
        <time>2023-03-18T11:46:03Z</time>
      </trkpt>
      <trkpt lat="45.10353" lon="4.22743">
        <ele>952.8</ele>
        <time>2023-03-18T11:46:16Z</time>
      </trkpt>
      <trkpt lat="45.10351" lon="4.22739">
        <ele>952.8</ele>
        <time>2023-03-18T11:46:18Z</time>
      </trkpt>
      <trkpt lat="45.10341" lon="4.22719">
        <ele>951.36</ele>
        <time>2023-03-18T11:46:33Z</time>
      </trkpt>
      <trkpt lat="45.10331" lon="4.22704">
        <ele>953.28</ele>
        <time>2023-03-18T11:46:46Z</time>
      </trkpt>
      <trkpt lat="45.10322" lon="4.22692">
        <ele>954.25</ele>
        <time>2023-03-18T11:46:58Z</time>
      </trkpt>
      <trkpt lat="45.1031" lon="4.22679">
        <ele>955.69</ele>
        <time>2023-03-18T11:47:10Z</time>
      </trkpt>
      <trkpt lat="45.10301" lon="4.22667">
        <ele>956.17</ele>
        <time>2023-03-18T11:47:17Z</time>
      </trkpt>
      <trkpt lat="45.10296" lon="4.22659">
        <ele>956.65</ele>
        <time>2023-03-18T11:47:22Z</time>
      </trkpt>
      <trkpt lat="45.10294" lon="4.22657">
        <ele>956.65</ele>
        <time>2023-03-18T11:47:24Z</time>
      </trkpt>
      <trkpt lat="45.1029" lon="4.22647">
        <ele>957.61</ele>
        <time>2023-03-18T11:47:30Z</time>
      </trkpt>
      <trkpt lat="45.10276" lon="4.22626">
        <ele>957.61</ele>
        <time>2023-03-18T11:47:44Z</time>
      </trkpt>
      <trkpt lat="45.10273" lon="4.22621">
        <ele>957.13</ele>
        <time>2023-03-18T11:47:48Z</time>
      </trkpt>
      <trkpt lat="45.10262" lon="4.226">
        <ele>955.69</ele>
        <time>2023-03-18T11:48:02Z</time>
      </trkpt>
      <trkpt lat="45.1026" lon="4.22597">
        <ele>956.17</ele>
        <time>2023-03-18T11:48:04Z</time>
      </trkpt>
      <trkpt lat="45.10247" lon="4.22575">
        <ele>953.28</ele>
        <time>2023-03-18T11:48:20Z</time>
      </trkpt>
      <trkpt lat="45.10234" lon="4.22554">
        <ele>954.73</ele>
        <time>2023-03-18T11:48:34Z</time>
      </trkpt>
      <trkpt lat="45.10224" lon="4.22535">
        <ele>955.21</ele>
        <time>2023-03-18T11:48:46Z</time>
      </trkpt>
      <trkpt lat="45.10223" lon="4.22534">
        <ele>955.69</ele>
        <time>2023-03-18T11:48:47Z</time>
      </trkpt>
      <trkpt lat="45.10218" lon="4.22527">
        <ele>956.65</ele>
        <time>2023-03-18T11:48:52Z</time>
      </trkpt>
      <trkpt lat="45.10216" lon="4.22522">
        <ele>957.61</ele>
        <time>2023-03-18T11:48:55Z</time>
      </trkpt>
      <trkpt lat="45.10211" lon="4.22516">
        <ele>958.57</ele>
        <time>2023-03-18T11:49:00Z</time>
      </trkpt>
      <trkpt lat="45.10209" lon="4.22507">
        <ele>959.53</ele>
        <time>2023-03-18T11:49:05Z</time>
      </trkpt>
      <trkpt lat="45.102" lon="4.22478">
        <ele>961.46</ele>
        <time>2023-03-18T11:49:22Z</time>
      </trkpt>
      <trkpt lat="45.10196" lon="4.22466">
        <ele>961.46</ele>
        <time>2023-03-18T11:49:29Z</time>
      </trkpt>
      <trkpt lat="45.10189" lon="4.22441">
        <ele>964.34</ele>
        <time>2023-03-18T11:49:44Z</time>
      </trkpt>
      <trkpt lat="45.10186" lon="4.22421">
        <ele>965.78</ele>
        <time>2023-03-18T11:49:56Z</time>
      </trkpt>
      <trkpt lat="45.10186" lon="4.22419">
        <ele>965.78</ele>
        <time>2023-03-18T11:49:57Z</time>
      </trkpt>
      <trkpt lat="45.10186" lon="4.22411">
        <ele>967.7</ele>
        <time>2023-03-18T11:50:05Z</time>
      </trkpt>
      <trkpt lat="45.10186" lon="4.22408">
        <ele>967.7</ele>
        <time>2023-03-18T11:50:07Z</time>
      </trkpt>
      <trkpt lat="45.10187" lon="4.22404">
        <ele>968.18</ele>
        <time>2023-03-18T11:50:11Z</time>
      </trkpt>
      <trkpt lat="45.10189" lon="4.22397">
        <ele>967.22</ele>
        <time>2023-03-18T11:50:21Z</time>
      </trkpt>
      <trkpt lat="45.10188" lon="4.22398">
        <ele>967.22</ele>
        <time>2023-03-18T11:50:32Z</time>
      </trkpt>
      <trkpt lat="45.10187" lon="4.22393">
        <ele>965.78</ele>
        <time>2023-03-18T11:50:43Z</time>
      </trkpt>
      <trkpt lat="45.10185" lon="4.22385">
        <ele>964.34</ele>
        <time>2023-03-18T11:50:48Z</time>
      </trkpt>
      <trkpt lat="45.10181" lon="4.22363">
        <ele>963.38</ele>
        <time>2023-03-18T11:51:01Z</time>
      </trkpt>
      <trkpt lat="45.10179" lon="4.22344">
        <ele>963.38</ele>
        <time>2023-03-18T11:51:14Z</time>
      </trkpt>
      <trkpt lat="45.10177" lon="4.2233">
        <ele>962.9</ele>
        <time>2023-03-18T11:51:22Z</time>
      </trkpt>
      <trkpt lat="45.10173" lon="4.22301">
        <ele>965.78</ele>
        <time>2023-03-18T11:51:38Z</time>
      </trkpt>
      <trkpt lat="45.1017" lon="4.22283">
        <ele>966.74</ele>
        <time>2023-03-18T11:51:49Z</time>
      </trkpt>
      <trkpt lat="45.10171" lon="4.22273">
        <ele>966.26</ele>
        <time>2023-03-18T11:51:56Z</time>
      </trkpt>
      <trkpt lat="45.1017" lon="4.22265">
        <ele>966.74</ele>
        <time>2023-03-18T11:52:00Z</time>
      </trkpt>
      <trkpt lat="45.10169" lon="4.22245">
        <ele>966.74</ele>
        <time>2023-03-18T11:52:11Z</time>
      </trkpt>
      <trkpt lat="45.1017" lon="4.22242">
        <ele>966.74</ele>
        <time>2023-03-18T11:52:13Z</time>
      </trkpt>
      <trkpt lat="45.1017" lon="4.22233">
        <ele>966.74</ele>
        <time>2023-03-18T11:52:17Z</time>
      </trkpt>
      <trkpt lat="45.10167" lon="4.22203">
        <ele>970.11</ele>
        <time>2023-03-18T11:52:32Z</time>
      </trkpt>
      <trkpt lat="45.10164" lon="4.22177">
        <ele>970.11</ele>
        <time>2023-03-18T11:52:45Z</time>
      </trkpt>
      <trkpt lat="45.10161" lon="4.2215">
        <ele>971.55</ele>
        <time>2023-03-18T11:52:59Z</time>
      </trkpt>
      <trkpt lat="45.10158" lon="4.22133">
        <ele>972.51</ele>
        <time>2023-03-18T11:53:08Z</time>
      </trkpt>
      <trkpt lat="45.10155" lon="4.22113">
        <ele>975.39</ele>
        <time>2023-03-18T11:53:20Z</time>
      </trkpt>
      <trkpt lat="45.10153" lon="4.22102">
        <ele>977.32</ele>
        <time>2023-03-18T11:53:26Z</time>
      </trkpt>
      <trkpt lat="45.10151" lon="4.22093">
        <ele>978.28</ele>
        <time>2023-03-18T11:53:31Z</time>
      </trkpt>
      <trkpt lat="45.10148" lon="4.2207">
        <ele>982.6</ele>
        <time>2023-03-18T11:53:45Z</time>
      </trkpt>
      <trkpt lat="45.10147" lon="4.22052">
        <ele>986.93</ele>
        <time>2023-03-18T11:53:57Z</time>
      </trkpt>
      <trkpt lat="45.10144" lon="4.22033">
        <ele>991.26</ele>
        <time>2023-03-18T11:54:11Z</time>
      </trkpt>
      <trkpt lat="45.10139" lon="4.22017">
        <ele>995.1</ele>
        <time>2023-03-18T11:54:22Z</time>
      </trkpt>
      <trkpt lat="45.10135" lon="4.21997">
        <ele>998.95</ele>
        <time>2023-03-18T11:54:35Z</time>
      </trkpt>
      <trkpt lat="45.10135" lon="4.21992">
        <ele>999.43</ele>
        <time>2023-03-18T11:54:38Z</time>
      </trkpt>
      <trkpt lat="45.10134" lon="4.21977">
        <ele>1001.35</ele>
        <time>2023-03-18T11:54:45Z</time>
      </trkpt>
      <trkpt lat="45.10135" lon="4.21963">
        <ele>1002.31</ele>
        <time>2023-03-18T11:54:52Z</time>
      </trkpt>
      <trkpt lat="45.10131" lon="4.21935">
        <ele>1004.23</ele>
        <time>2023-03-18T11:55:08Z</time>
      </trkpt>
      <trkpt lat="45.10116" lon="4.21896">
        <ele>998.47</ele>
        <time>2023-03-18T11:55:26Z</time>
      </trkpt>
      <trkpt lat="45.10115" lon="4.21894">
        <ele>997.99</ele>
        <time>2023-03-18T11:55:27Z</time>
      </trkpt>
      <trkpt lat="45.10115" lon="4.21891">
        <ele>997.99</ele>
        <time>2023-03-18T11:55:29Z</time>
      </trkpt>
      <trkpt lat="45.10114" lon="4.21881">
        <ele>997.51</ele>
        <time>2023-03-18T11:55:43Z</time>
      </trkpt>
      <trkpt lat="45.10114" lon="4.21875">
        <ele>997.99</ele>
        <time>2023-03-18T11:55:59Z</time>
      </trkpt>
      <trkpt lat="45.10113" lon="4.21873">
        <ele>998.47</ele>
        <time>2023-03-18T11:56:01Z</time>
      </trkpt>
      <trkpt lat="45.10114" lon="4.21871">
        <ele>998.47</ele>
        <time>2023-03-18T11:56:12Z</time>
      </trkpt>
      <trkpt lat="45.10113" lon="4.21871">
        <ele>999.43</ele>
        <time>2023-03-18T11:56:23Z</time>
      </trkpt>
      <trkpt lat="45.10121" lon="4.21855">
        <ele>998.95</ele>
        <time>2023-03-18T11:56:39Z</time>
      </trkpt>
      <trkpt lat="45.10125" lon="4.21831">
        <ele>999.43</ele>
        <time>2023-03-18T11:56:55Z</time>
      </trkpt>
      <trkpt lat="45.10127" lon="4.21819">
        <ele>999.91</ele>
        <time>2023-03-18T11:57:02Z</time>
      </trkpt>
      <trkpt lat="45.10126" lon="4.21815">
        <ele>999.91</ele>
        <time>2023-03-18T11:57:04Z</time>
      </trkpt>
      <trkpt lat="45.10126" lon="4.21788">
        <ele>997.02</ele>
        <time>2023-03-18T11:57:20Z</time>
      </trkpt>
      <trkpt lat="45.10131" lon="4.2176">
        <ele>992.22</ele>
        <time>2023-03-18T11:57:39Z</time>
      </trkpt>
      <trkpt lat="45.10132" lon="4.21759">
        <ele>991.74</ele>
        <time>2023-03-18T11:57:40Z</time>
      </trkpt>
      <trkpt lat="45.1013" lon="4.21741">
        <ele>991.74</ele>
        <time>2023-03-18T11:57:47Z</time>
      </trkpt>
      <trkpt lat="45.10134" lon="4.21727">
        <ele>993.66</ele>
        <time>2023-03-18T11:57:55Z</time>
      </trkpt>
      <trkpt lat="45.10137" lon="4.21694">
        <ele>996.06</ele>
        <time>2023-03-18T11:58:16Z</time>
      </trkpt>
      <trkpt lat="45.10134" lon="4.21659">
        <ele>1001.35</ele>
        <time>2023-03-18T11:58:36Z</time>
      </trkpt>
      <trkpt lat="45.10137" lon="4.21639">
        <ele>1004.23</ele>
        <time>2023-03-18T11:58:49Z</time>
      </trkpt>
      <trkpt lat="45.10137" lon="4.21637">
        <ele>1004.72</ele>
        <time>2023-03-18T11:58:56Z</time>
      </trkpt>
      <trkpt lat="45.10137" lon="4.21625">
        <ele>1007.12</ele>
        <time>2023-03-18T11:59:11Z</time>
      </trkpt>
      <trkpt lat="45.10137" lon="4.21601">
        <ele>1010.48</ele>
        <time>2023-03-18T11:59:30Z</time>
      </trkpt>
      <trkpt lat="45.10134" lon="4.216">
        <ele>1010.96</ele>
        <time>2023-03-18T11:59:45Z</time>
      </trkpt>
      <trkpt lat="45.10134" lon="4.21598">
        <ele>1012.41</ele>
        <time>2023-03-18T12:00:05Z</time>
      </trkpt>
      <trkpt lat="45.10135" lon="4.21595">
        <ele>1008.56</ele>
        <time>2023-03-18T12:00:31Z</time>
      </trkpt>
      <trkpt lat="45.10135" lon="4.21595">
        <ele>1010</ele>
        <time>2023-03-18T12:01:04Z</time>
      </trkpt>
      <trkpt lat="45.10136" lon="4.21597">
        <ele>1010.48</ele>
        <time>2023-03-18T12:01:23Z</time>
      </trkpt>
      <trkpt lat="45.10135" lon="4.21598">
        <ele>1010</ele>
        <time>2023-03-18T12:01:47Z</time>
      </trkpt>
      <trkpt lat="45.10134" lon="4.21597">
        <ele>1008.56</ele>
        <time>2023-03-18T12:02:13Z</time>
      </trkpt>
      <trkpt lat="45.10136" lon="4.21598">
        <ele>1008.56</ele>
        <time>2023-03-18T12:02:36Z</time>
      </trkpt>
      <trkpt lat="45.10138" lon="4.21596">
        <ele>1009.04</ele>
        <time>2023-03-18T12:03:00Z</time>
      </trkpt>
      <trkpt lat="45.10138" lon="4.21597">
        <ele>1008.56</ele>
        <time>2023-03-18T12:03:28Z</time>
      </trkpt>
      <trkpt lat="45.10138" lon="4.21597">
        <ele>1008.08</ele>
        <time>2023-03-18T12:03:51Z</time>
      </trkpt>
      <trkpt lat="45.10137" lon="4.21597">
        <ele>1007.6</ele>
        <time>2023-03-18T12:04:22Z</time>
      </trkpt>
      <trkpt lat="45.10136" lon="4.21597">
        <ele>1008.08</ele>
        <time>2023-03-18T12:04:59Z</time>
      </trkpt>
      <trkpt lat="45.10137" lon="4.21597">
        <ele>1010</ele>
        <time>2023-03-18T12:05:35Z</time>
      </trkpt>
      <trkpt lat="45.10136" lon="4.21597">
        <ele>1012.89</ele>
        <time>2023-03-18T12:06:09Z</time>
      </trkpt>
      <trkpt lat="45.10137" lon="4.21596">
        <ele>1013.37</ele>
        <time>2023-03-18T12:06:41Z</time>
      </trkpt>
      <trkpt lat="45.10138" lon="4.21597">
        <ele>1013.85</ele>
        <time>2023-03-18T12:07:14Z</time>
      </trkpt>
      <trkpt lat="45.10138" lon="4.21597">
        <ele>1014.33</ele>
        <time>2023-03-18T12:07:38Z</time>
      </trkpt>
      <trkpt lat="45.10137" lon="4.21597">
        <ele>1014.81</ele>
        <time>2023-03-18T12:08:07Z</time>
      </trkpt>
      <trkpt lat="45.10136" lon="4.21598">
        <ele>1013.85</ele>
        <time>2023-03-18T12:08:38Z</time>
      </trkpt>
      <trkpt lat="45.10134" lon="4.21599">
        <ele>1012.41</ele>
        <time>2023-03-18T12:09:15Z</time>
      </trkpt>
      <trkpt lat="45.10134" lon="4.21598">
        <ele>1012.89</ele>
        <time>2023-03-18T12:09:37Z</time>
      </trkpt>
      <trkpt lat="45.10136" lon="4.21597">
        <ele>1013.85</ele>
        <time>2023-03-18T12:10:00Z</time>
      </trkpt>
      <trkpt lat="45.10134" lon="4.21597">
        <ele>1014.33</ele>
        <time>2023-03-18T12:10:34Z</time>
      </trkpt>
      <trkpt lat="45.10134" lon="4.21597">
        <ele>1013.85</ele>
        <time>2023-03-18T12:11:07Z</time>
      </trkpt>
      <trkpt lat="45.10134" lon="4.21597">
        <ele>1013.85</ele>
        <time>2023-03-18T12:11:36Z</time>
      </trkpt>
      <trkpt lat="45.10133" lon="4.21598">
        <ele>1013.37</ele>
        <time>2023-03-18T12:12:04Z</time>
      </trkpt>
      <trkpt lat="45.10134" lon="4.21599">
        <ele>1013.37</ele>
        <time>2023-03-18T12:12:30Z</time>
      </trkpt>
      <trkpt lat="45.10133" lon="4.21598">
        <ele>1014.33</ele>
        <time>2023-03-18T12:13:00Z</time>
      </trkpt>
      <trkpt lat="45.10133" lon="4.21599">
        <ele>1015.29</ele>
        <time>2023-03-18T12:13:31Z</time>
      </trkpt>
      <trkpt lat="45.10134" lon="4.21598">
        <ele>1015.77</ele>
        <time>2023-03-18T12:14:04Z</time>
      </trkpt>
      <trkpt lat="45.10134" lon="4.21598">
        <ele>1016.25</ele>
        <time>2023-03-18T12:14:33Z</time>
      </trkpt>
      <trkpt lat="45.10134" lon="4.21598">
        <ele>1016.25</ele>
        <time>2023-03-18T12:14:59Z</time>
      </trkpt>
      <trkpt lat="45.10134" lon="4.21598">
        <ele>1016.73</ele>
        <time>2023-03-18T12:15:12Z</time>
      </trkpt>
      <trkpt lat="45.10133" lon="4.21598">
        <ele>1015.29</ele>
        <time>2023-03-18T12:15:36Z</time>
      </trkpt>
      <trkpt lat="45.10134" lon="4.21597">
        <ele>1015.29</ele>
        <time>2023-03-18T12:16:01Z</time>
      </trkpt>
      <trkpt lat="45.10135" lon="4.21596">
        <ele>1015.29</ele>
        <time>2023-03-18T12:16:25Z</time>
      </trkpt>
      <trkpt lat="45.10135" lon="4.21595">
        <ele>1013.85</ele>
        <time>2023-03-18T12:16:49Z</time>
      </trkpt>
      <trkpt lat="45.10134" lon="4.21596">
        <ele>1013.37</ele>
        <time>2023-03-18T12:17:10Z</time>
      </trkpt>
      <trkpt lat="45.10134" lon="4.21596">
        <ele>1014.33</ele>
        <time>2023-03-18T12:17:38Z</time>
      </trkpt>
      <trkpt lat="45.10135" lon="4.21596">
        <ele>1014.81</ele>
        <time>2023-03-18T12:18:09Z</time>
      </trkpt>
      <trkpt lat="45.10135" lon="4.21598">
        <ele>1014.33</ele>
        <time>2023-03-18T12:18:32Z</time>
      </trkpt>
      <trkpt lat="45.10135" lon="4.21598">
        <ele>1013.85</ele>
        <time>2023-03-18T12:18:54Z</time>
      </trkpt>
      <trkpt lat="45.10135" lon="4.21596">
        <ele>1014.33</ele>
        <time>2023-03-18T12:19:18Z</time>
      </trkpt>
      <trkpt lat="45.10136" lon="4.21596">
        <ele>1015.29</ele>
        <time>2023-03-18T12:19:38Z</time>
      </trkpt>
      <trkpt lat="45.10137" lon="4.21597">
        <ele>1015.29</ele>
        <time>2023-03-18T12:19:59Z</time>
      </trkpt>
      <trkpt lat="45.10136" lon="4.21597">
        <ele>1014.81</ele>
        <time>2023-03-18T12:20:18Z</time>
      </trkpt>
      <trkpt lat="45.10134" lon="4.21597">
        <ele>1013.85</ele>
        <time>2023-03-18T12:20:48Z</time>
      </trkpt>
      <trkpt lat="45.10132" lon="4.21597">
        <ele>1011.44</ele>
        <time>2023-03-18T12:21:23Z</time>
      </trkpt>
      <trkpt lat="45.10132" lon="4.21598">
        <ele>1011.44</ele>
        <time>2023-03-18T12:21:43Z</time>
      </trkpt>
      <trkpt lat="45.10132" lon="4.21596">
        <ele>1010.96</ele>
        <time>2023-03-18T12:22:10Z</time>
      </trkpt>
      <trkpt lat="45.10132" lon="4.21595">
        <ele>1011.44</ele>
        <time>2023-03-18T12:22:38Z</time>
      </trkpt>
      <trkpt lat="45.10132" lon="4.21595">
        <ele>1010.96</ele>
        <time>2023-03-18T12:23:02Z</time>
      </trkpt>
      <trkpt lat="45.10132" lon="4.21595">
        <ele>1010</ele>
        <time>2023-03-18T12:23:34Z</time>
      </trkpt>
      <trkpt lat="45.10133" lon="4.21596">
        <ele>1009.52</ele>
        <time>2023-03-18T12:24:00Z</time>
      </trkpt>
      <trkpt lat="45.10132" lon="4.21597">
        <ele>1009.04</ele>
        <time>2023-03-18T12:24:32Z</time>
      </trkpt>
      <trkpt lat="45.10131" lon="4.21598">
        <ele>1008.56</ele>
        <time>2023-03-18T12:25:02Z</time>
      </trkpt>
      <trkpt lat="45.10132" lon="4.21597">
        <ele>1010</ele>
        <time>2023-03-18T12:25:25Z</time>
      </trkpt>
      <trkpt lat="45.10131" lon="4.21597">
        <ele>1009.52</ele>
        <time>2023-03-18T12:25:52Z</time>
      </trkpt>
      <trkpt lat="45.10131" lon="4.21598">
        <ele>1010.48</ele>
        <time>2023-03-18T12:26:12Z</time>
      </trkpt>
      <trkpt lat="45.10132" lon="4.21599">
        <ele>1011.44</ele>
        <time>2023-03-18T12:26:46Z</time>
      </trkpt>
      <trkpt lat="45.10133" lon="4.21597">
        <ele>1013.37</ele>
        <time>2023-03-18T12:27:16Z</time>
      </trkpt>
      <trkpt lat="45.10133" lon="4.21598">
        <ele>1013.85</ele>
        <time>2023-03-18T12:27:42Z</time>
      </trkpt>
      <trkpt lat="45.10133" lon="4.21598">
        <ele>1013.85</ele>
        <time>2023-03-18T12:28:11Z</time>
      </trkpt>
      <trkpt lat="45.10133" lon="4.21598">
        <ele>1012.89</ele>
        <time>2023-03-18T12:28:36Z</time>
      </trkpt>
      <trkpt lat="45.10134" lon="4.21598">
        <ele>1013.37</ele>
        <time>2023-03-18T12:29:00Z</time>
      </trkpt>
      <trkpt lat="45.10135" lon="4.21597">
        <ele>1013.37</ele>
        <time>2023-03-18T12:29:24Z</time>
      </trkpt>
      <trkpt lat="45.10135" lon="4.21598">
        <ele>1012.89</ele>
        <time>2023-03-18T12:29:45Z</time>
      </trkpt>
      <trkpt lat="45.10134" lon="4.21597">
        <ele>1012.41</ele>
        <time>2023-03-18T12:30:14Z</time>
      </trkpt>
      <trkpt lat="45.10133" lon="4.21596">
        <ele>1012.41</ele>
        <time>2023-03-18T12:30:44Z</time>
      </trkpt>
      <trkpt lat="45.10133" lon="4.21597">
        <ele>1013.37</ele>
        <time>2023-03-18T12:31:16Z</time>
      </trkpt>
      <trkpt lat="45.10133" lon="4.21597">
        <ele>1013.85</ele>
        <time>2023-03-18T12:31:43Z</time>
      </trkpt>
      <trkpt lat="45.10134" lon="4.21596">
        <ele>1013.37</ele>
        <time>2023-03-18T12:32:10Z</time>
      </trkpt>
      <trkpt lat="45.10134" lon="4.21596">
        <ele>1012.89</ele>
        <time>2023-03-18T12:32:31Z</time>
      </trkpt>
      <trkpt lat="45.10133" lon="4.21597">
        <ele>1012.89</ele>
        <time>2023-03-18T12:33:03Z</time>
      </trkpt>
      <trkpt lat="45.10133" lon="4.21598">
        <ele>1013.37</ele>
        <time>2023-03-18T12:33:34Z</time>
      </trkpt>
      <trkpt lat="45.10134" lon="4.21599">
        <ele>1013.85</ele>
        <time>2023-03-18T12:34:06Z</time>
      </trkpt>
      <trkpt lat="45.10134" lon="4.21597">
        <ele>1013.85</ele>
        <time>2023-03-18T12:34:25Z</time>
      </trkpt>
      <trkpt lat="45.10134" lon="4.21598">
        <ele>1013.85</ele>
        <time>2023-03-18T12:34:52Z</time>
      </trkpt>
      <trkpt lat="45.10136" lon="4.21598">
        <ele>1015.29</ele>
        <time>2023-03-18T12:35:17Z</time>
      </trkpt>
      <trkpt lat="45.10136" lon="4.21597">
        <ele>1013.85</ele>
        <time>2023-03-18T12:35:39Z</time>
      </trkpt>
      <trkpt lat="45.10136" lon="4.21597">
        <ele>1012.89</ele>
        <time>2023-03-18T12:35:56Z</time>
      </trkpt>
      <trkpt lat="45.10136" lon="4.21599">
        <ele>1012.89</ele>
        <time>2023-03-18T12:36:11Z</time>
      </trkpt>
      <trkpt lat="45.10138" lon="4.21602">
        <ele>1011.93</ele>
        <time>2023-03-18T12:36:34Z</time>
      </trkpt>
      <trkpt lat="45.10136" lon="4.21606">
        <ele>1011.93</ele>
        <time>2023-03-18T12:36:50Z</time>
      </trkpt>
      <trkpt lat="45.10136" lon="4.21608">
        <ele>1011.44</ele>
        <time>2023-03-18T12:37:04Z</time>
      </trkpt>
      <trkpt lat="45.10136" lon="4.2161">
        <ele>1010.96</ele>
        <time>2023-03-18T12:37:09Z</time>
      </trkpt>
      <trkpt lat="45.10137" lon="4.21621">
        <ele>1010.96</ele>
        <time>2023-03-18T12:37:20Z</time>
      </trkpt>
      <trkpt lat="45.10138" lon="4.21622">
        <ele>1010.96</ele>
        <time>2023-03-18T12:37:33Z</time>
      </trkpt>
      <trkpt lat="45.10138" lon="4.21623">
        <ele>1010</ele>
        <time>2023-03-18T12:37:42Z</time>
      </trkpt>
      <trkpt lat="45.10139" lon="4.21615">
        <ele>1008.56</ele>
        <time>2023-03-18T12:37:49Z</time>
      </trkpt>
      <trkpt lat="45.1014" lon="4.21611">
        <ele>1008.56</ele>
        <time>2023-03-18T12:37:52Z</time>
      </trkpt>
      <trkpt lat="45.10145" lon="4.21587">
        <ele>1012.41</ele>
        <time>2023-03-18T12:38:11Z</time>
      </trkpt>
      <trkpt lat="45.10149" lon="4.21558">
        <ele>1013.37</ele>
        <time>2023-03-18T12:38:31Z</time>
      </trkpt>
      <trkpt lat="45.10161" lon="4.21517">
        <ele>1014.33</ele>
        <time>2023-03-18T12:38:54Z</time>
      </trkpt>
      <trkpt lat="45.10163" lon="4.21511">
        <ele>1014.81</ele>
        <time>2023-03-18T12:38:58Z</time>
      </trkpt>
      <trkpt lat="45.1019" lon="4.21491">
        <ele>1015.77</ele>
        <time>2023-03-18T12:39:21Z</time>
      </trkpt>
      <trkpt lat="45.10202" lon="4.21468">
        <ele>1018.17</ele>
        <time>2023-03-18T12:39:41Z</time>
      </trkpt>
      <trkpt lat="45.10207" lon="4.21452">
        <ele>1017.21</ele>
        <time>2023-03-18T12:39:56Z</time>
      </trkpt>
      <trkpt lat="45.10218" lon="4.21436">
        <ele>1016.73</ele>
        <time>2023-03-18T12:40:14Z</time>
      </trkpt>
      <trkpt lat="45.10227" lon="4.21426">
        <ele>1011.93</ele>
        <time>2023-03-18T12:40:30Z</time>
      </trkpt>
      <trkpt lat="45.10235" lon="4.21423">
        <ele>1009.04</ele>
        <time>2023-03-18T12:40:49Z</time>
      </trkpt>
      <trkpt lat="45.10248" lon="4.21406">
        <ele>1009.52</ele>
        <time>2023-03-18T12:41:07Z</time>
      </trkpt>
      <trkpt lat="45.10252" lon="4.21403">
        <ele>1010.96</ele>
        <time>2023-03-18T12:41:20Z</time>
      </trkpt>
      <trkpt lat="45.10256" lon="4.21399">
        <ele>1013.85</ele>
        <time>2023-03-18T12:41:33Z</time>
      </trkpt>
      <trkpt lat="45.10259" lon="4.21392">
        <ele>1014.33</ele>
        <time>2023-03-18T12:41:47Z</time>
      </trkpt>
      <trkpt lat="45.10262" lon="4.21391">
        <ele>1014.81</ele>
        <time>2023-03-18T12:42:00Z</time>
      </trkpt>
      <trkpt lat="45.10271" lon="4.21386">
        <ele>1013.85</ele>
        <time>2023-03-18T12:42:23Z</time>
      </trkpt>
      <trkpt lat="45.10276" lon="4.21377">
        <ele>1013.37</ele>
        <time>2023-03-18T12:42:29Z</time>
      </trkpt>
      <trkpt lat="45.103" lon="4.2135">
        <ele>1010.96</ele>
        <time>2023-03-18T12:42:53Z</time>
      </trkpt>
      <trkpt lat="45.1031" lon="4.2132">
        <ele>1010.48</ele>
        <time>2023-03-18T12:43:15Z</time>
      </trkpt>
      <trkpt lat="45.10319" lon="4.21314">
        <ele>1006.16</ele>
        <time>2023-03-18T12:43:35Z</time>
      </trkpt>
      <trkpt lat="45.10326" lon="4.21295">
        <ele>1004.72</ele>
        <time>2023-03-18T12:44:00Z</time>
      </trkpt>
      <trkpt lat="45.10327" lon="4.21291">
        <ele>1004.23</ele>
        <time>2023-03-18T12:44:24Z</time>
      </trkpt>
      <trkpt lat="45.10331" lon="4.21277">
        <ele>1002.31</ele>
        <time>2023-03-18T12:44:47Z</time>
      </trkpt>
      <trkpt lat="45.10332" lon="4.21262">
        <ele>1000.39</ele>
        <time>2023-03-18T12:45:02Z</time>
      </trkpt>
      <trkpt lat="45.10342" lon="4.21237">
        <ele>995.58</ele>
        <time>2023-03-18T12:45:25Z</time>
      </trkpt>
      <trkpt lat="45.10345" lon="4.21225">
        <ele>993.18</ele>
        <time>2023-03-18T12:45:32Z</time>
      </trkpt>
      <trkpt lat="45.10358" lon="4.21189">
        <ele>990.78</ele>
        <time>2023-03-18T12:45:53Z</time>
      </trkpt>
      <trkpt lat="45.10372" lon="4.21149">
        <ele>985.49</ele>
        <time>2023-03-18T12:46:18Z</time>
      </trkpt>
      <trkpt lat="45.10371" lon="4.21109">
        <ele>979.24</ele>
        <time>2023-03-18T12:46:41Z</time>
      </trkpt>
      <trkpt lat="45.10376" lon="4.21071">
        <ele>971.07</ele>
        <time>2023-03-18T12:47:03Z</time>
      </trkpt>
      <trkpt lat="45.1039" lon="4.21033">
        <ele>976.84</ele>
        <time>2023-03-18T12:47:22Z</time>
      </trkpt>
      <trkpt lat="45.10403" lon="4.20993">
        <ele>979.24</ele>
        <time>2023-03-18T12:47:43Z</time>
      </trkpt>
      <trkpt lat="45.10413" lon="4.20961">
        <ele>978.76</ele>
        <time>2023-03-18T12:48:02Z</time>
      </trkpt>
      <trkpt lat="45.1043" lon="4.20929">
        <ele>977.32</ele>
        <time>2023-03-18T12:48:25Z</time>
      </trkpt>
      <trkpt lat="45.10447" lon="4.20908">
        <ele>978.76</ele>
        <time>2023-03-18T12:48:46Z</time>
      </trkpt>
      <trkpt lat="45.10466" lon="4.20888">
        <ele>984.05</ele>
        <time>2023-03-18T12:49:06Z</time>
      </trkpt>
      <trkpt lat="45.1047" lon="4.20877">
        <ele>984.53</ele>
        <time>2023-03-18T12:49:16Z</time>
      </trkpt>
      <trkpt lat="45.1047" lon="4.20868">
        <ele>985.97</ele>
        <time>2023-03-18T12:49:21Z</time>
      </trkpt>
      <trkpt lat="45.10473" lon="4.20854">
        <ele>987.89</ele>
        <time>2023-03-18T12:49:28Z</time>
      </trkpt>
      <trkpt lat="45.10478" lon="4.20837">
        <ele>987.41</ele>
        <time>2023-03-18T12:49:44Z</time>
      </trkpt>
      <trkpt lat="45.10481" lon="4.20815">
        <ele>986.45</ele>
        <time>2023-03-18T12:49:57Z</time>
      </trkpt>
      <trkpt lat="45.10483" lon="4.20791">
        <ele>986.45</ele>
        <time>2023-03-18T12:50:10Z</time>
      </trkpt>
      <trkpt lat="45.10484" lon="4.20786">
        <ele>985.97</ele>
        <time>2023-03-18T12:50:13Z</time>
      </trkpt>
      <trkpt lat="45.1049" lon="4.20774">
        <ele>985.97</ele>
        <time>2023-03-18T12:50:27Z</time>
      </trkpt>
      <trkpt lat="45.105" lon="4.2076">
        <ele>988.85</ele>
        <time>2023-03-18T12:50:39Z</time>
      </trkpt>
      <trkpt lat="45.10506" lon="4.20743">
        <ele>991.26</ele>
        <time>2023-03-18T12:50:51Z</time>
      </trkpt>
      <trkpt lat="45.10512" lon="4.20725">
        <ele>991.26</ele>
        <time>2023-03-18T12:51:02Z</time>
      </trkpt>
      <trkpt lat="45.10514" lon="4.2072">
        <ele>991.26</ele>
        <time>2023-03-18T12:51:05Z</time>
      </trkpt>
      <trkpt lat="45.10514" lon="4.20717">
        <ele>991.74</ele>
        <time>2023-03-18T12:51:07Z</time>
      </trkpt>
      <trkpt lat="45.10515" lon="4.20713">
        <ele>993.18</ele>
        <time>2023-03-18T12:51:16Z</time>
      </trkpt>
      <trkpt lat="45.10514" lon="4.20713">
        <ele>993.66</ele>
        <time>2023-03-18T12:51:28Z</time>
      </trkpt>
      <trkpt lat="45.10515" lon="4.20714">
        <ele>994.62</ele>
        <time>2023-03-18T12:51:39Z</time>
      </trkpt>
      <trkpt lat="45.10515" lon="4.20716">
        <ele>995.58</ele>
        <time>2023-03-18T12:51:52Z</time>
      </trkpt>
      <trkpt lat="45.10515" lon="4.20715">
        <ele>996.54</ele>
        <time>2023-03-18T12:52:16Z</time>
      </trkpt>
      <trkpt lat="45.10519" lon="4.20716">
        <ele>997.02</ele>
        <time>2023-03-18T12:52:33Z</time>
      </trkpt>
      <trkpt lat="45.10528" lon="4.20719">
        <ele>996.54</ele>
        <time>2023-03-18T12:52:44Z</time>
      </trkpt>
      <trkpt lat="45.10545" lon="4.20721">
        <ele>995.58</ele>
        <time>2023-03-18T12:52:57Z</time>
      </trkpt>
      <trkpt lat="45.10559" lon="4.20724">
        <ele>994.62</ele>
        <time>2023-03-18T12:53:11Z</time>
      </trkpt>
      <trkpt lat="45.10565" lon="4.20724">
        <ele>993.18</ele>
        <time>2023-03-18T12:53:25Z</time>
      </trkpt>
      <trkpt lat="45.10567" lon="4.20726">
        <ele>992.22</ele>
        <time>2023-03-18T12:53:47Z</time>
      </trkpt>
      <trkpt lat="45.10577" lon="4.20719">
        <ele>993.18</ele>
        <time>2023-03-18T12:54:02Z</time>
      </trkpt>
      <trkpt lat="45.10577" lon="4.20718">
        <ele>992.7</ele>
        <time>2023-03-18T12:54:20Z</time>
      </trkpt>
      <trkpt lat="45.10578" lon="4.20717">
        <ele>992.22</ele>
        <time>2023-03-18T12:54:47Z</time>
      </trkpt>
      <trkpt lat="45.1058" lon="4.20715">
        <ele>991.26</ele>
        <time>2023-03-18T12:55:10Z</time>
      </trkpt>
      <trkpt lat="45.10583" lon="4.2071">
        <ele>990.3</ele>
        <time>2023-03-18T12:55:30Z</time>
      </trkpt>
      <trkpt lat="45.10584" lon="4.2071">
        <ele>990.3</ele>
        <time>2023-03-18T12:55:31Z</time>
      </trkpt>
      <trkpt lat="45.10589" lon="4.20706">
        <ele>989.81</ele>
        <time>2023-03-18T12:55:40Z</time>
      </trkpt>
      <trkpt lat="45.10599" lon="4.20699">
        <ele>990.78</ele>
        <time>2023-03-18T12:55:55Z</time>
      </trkpt>
      <trkpt lat="45.10603" lon="4.20696">
        <ele>990.3</ele>
        <time>2023-03-18T12:56:04Z</time>
      </trkpt>
      <trkpt lat="45.10615" lon="4.20681">
        <ele>989.81</ele>
        <time>2023-03-18T12:56:21Z</time>
      </trkpt>
      <trkpt lat="45.10626" lon="4.20664">
        <ele>988.37</ele>
        <time>2023-03-18T12:56:40Z</time>
      </trkpt>
      <trkpt lat="45.10636" lon="4.20647">
        <ele>984.53</ele>
        <time>2023-03-18T12:56:58Z</time>
      </trkpt>
      <trkpt lat="45.10646" lon="4.20628">
        <ele>977.32</ele>
        <time>2023-03-18T12:57:18Z</time>
      </trkpt>
      <trkpt lat="45.10657" lon="4.20605">
        <ele>974.43</ele>
        <time>2023-03-18T12:57:38Z</time>
      </trkpt>
      <trkpt lat="45.10666" lon="4.20586">
        <ele>977.32</ele>
        <time>2023-03-18T12:57:56Z</time>
      </trkpt>
      <trkpt lat="45.10676" lon="4.20572">
        <ele>980.68</ele>
        <time>2023-03-18T12:58:11Z</time>
      </trkpt>
      <trkpt lat="45.10677" lon="4.20571">
        <ele>981.16</ele>
        <time>2023-03-18T12:58:12Z</time>
      </trkpt>
      <trkpt lat="45.10687" lon="4.20551">
        <ele>981.16</ele>
        <time>2023-03-18T12:58:27Z</time>
      </trkpt>
      <trkpt lat="45.10697" lon="4.2053">
        <ele>980.2</ele>
        <time>2023-03-18T12:58:45Z</time>
      </trkpt>
      <trkpt lat="45.10711" lon="4.2051">
        <ele>979.72</ele>
        <time>2023-03-18T12:59:03Z</time>
      </trkpt>
      <trkpt lat="45.10721" lon="4.20497">
        <ele>979.72</ele>
        <time>2023-03-18T12:59:18Z</time>
      </trkpt>
      <trkpt lat="45.1074" lon="4.20483">
        <ele>980.2</ele>
        <time>2023-03-18T12:59:36Z</time>
      </trkpt>
      <trkpt lat="45.10749" lon="4.20476">
        <ele>978.28</ele>
        <time>2023-03-18T12:59:48Z</time>
      </trkpt>
      <trkpt lat="45.10756" lon="4.20472">
        <ele>976.84</ele>
        <time>2023-03-18T12:59:54Z</time>
      </trkpt>
      <trkpt lat="45.1076" lon="4.20472">
        <ele>976.36</ele>
        <time>2023-03-18T12:59:57Z</time>
      </trkpt>
      <trkpt lat="45.10765" lon="4.20457">
        <ele>972.03</ele>
        <time>2023-03-18T13:00:09Z</time>
      </trkpt>
      <trkpt lat="45.10766" lon="4.20454">
        <ele>970.11</ele>
        <time>2023-03-18T13:00:34Z</time>
      </trkpt>
      <trkpt lat="45.10766" lon="4.20454">
        <ele>970.11</ele>
        <time>2023-03-18T13:00:41Z</time>
      </trkpt>
      <trkpt lat="45.1077" lon="4.20473">
        <ele>972.03</ele>
        <time>2023-03-18T13:00:54Z</time>
      </trkpt>
      <trkpt lat="45.10772" lon="4.20481">
        <ele>972.99</ele>
        <time>2023-03-18T13:00:58Z</time>
      </trkpt>
      <trkpt lat="45.10791" lon="4.20504">
        <ele>969.63</ele>
        <time>2023-03-18T13:01:13Z</time>
      </trkpt>
      <trkpt lat="45.10803" lon="4.20512">
        <ele>966.74</ele>
        <time>2023-03-18T13:01:21Z</time>
      </trkpt>
      <trkpt lat="45.10818" lon="4.20514">
        <ele>963.38</ele>
        <time>2023-03-18T13:01:30Z</time>
      </trkpt>
      <trkpt lat="45.10823" lon="4.20515">
        <ele>961.46</ele>
        <time>2023-03-18T13:01:35Z</time>
      </trkpt>
      <trkpt lat="45.10833" lon="4.20512">
        <ele>960.01</ele>
        <time>2023-03-18T13:01:40Z</time>
      </trkpt>
      <trkpt lat="45.10845" lon="4.20512">
        <ele>957.13</ele>
        <time>2023-03-18T13:01:47Z</time>
      </trkpt>
      <trkpt lat="45.10861" lon="4.2052">
        <ele>950.4</ele>
        <time>2023-03-18T13:02:02Z</time>
      </trkpt>
      <trkpt lat="45.10879" lon="4.20525">
        <ele>946.07</ele>
        <time>2023-03-18T13:02:19Z</time>
      </trkpt>
      <trkpt lat="45.10904" lon="4.20535">
        <ele>946.07</ele>
        <time>2023-03-18T13:02:39Z</time>
      </trkpt>
      <trkpt lat="45.10929" lon="4.20548">
        <ele>946.56</ele>
        <time>2023-03-18T13:02:59Z</time>
      </trkpt>
      <trkpt lat="45.10951" lon="4.20563">
        <ele>947.52</ele>
        <time>2023-03-18T13:03:18Z</time>
      </trkpt>
      <trkpt lat="45.10975" lon="4.20571">
        <ele>949.92</ele>
        <time>2023-03-18T13:03:36Z</time>
      </trkpt>
      <trkpt lat="45.10996" lon="4.20576">
        <ele>950.4</ele>
        <time>2023-03-18T13:03:54Z</time>
      </trkpt>
      <trkpt lat="45.11017" lon="4.20593">
        <ele>951.36</ele>
        <time>2023-03-18T13:04:14Z</time>
      </trkpt>
      <trkpt lat="45.11038" lon="4.206">
        <ele>952.8</ele>
        <time>2023-03-18T13:04:32Z</time>
      </trkpt>
      <trkpt lat="45.11059" lon="4.20607">
        <ele>953.28</ele>
        <time>2023-03-18T13:04:51Z</time>
      </trkpt>
      <trkpt lat="45.11073" lon="4.20613">
        <ele>953.77</ele>
        <time>2023-03-18T13:05:06Z</time>
      </trkpt>
      <trkpt lat="45.11085" lon="4.20616">
        <ele>954.25</ele>
        <time>2023-03-18T13:05:19Z</time>
      </trkpt>
      <trkpt lat="45.11097" lon="4.20616">
        <ele>954.73</ele>
        <time>2023-03-18T13:05:33Z</time>
      </trkpt>
      <trkpt lat="45.11114" lon="4.2062">
        <ele>956.65</ele>
        <time>2023-03-18T13:05:48Z</time>
      </trkpt>
      <trkpt lat="45.11117" lon="4.20621">
        <ele>956.17</ele>
        <time>2023-03-18T13:05:51Z</time>
      </trkpt>
      <trkpt lat="45.1113" lon="4.20621">
        <ele>955.21</ele>
        <time>2023-03-18T13:06:04Z</time>
      </trkpt>
      <trkpt lat="45.11147" lon="4.20625">
        <ele>953.77</ele>
        <time>2023-03-18T13:06:19Z</time>
      </trkpt>
      <trkpt lat="45.11165" lon="4.20625">
        <ele>954.25</ele>
        <time>2023-03-18T13:06:35Z</time>
      </trkpt>
      <trkpt lat="45.11178" lon="4.20626">
        <ele>952.8</ele>
        <time>2023-03-18T13:06:47Z</time>
      </trkpt>
      <trkpt lat="45.11195" lon="4.20627">
        <ele>954.25</ele>
        <time>2023-03-18T13:07:03Z</time>
      </trkpt>
      <trkpt lat="45.11206" lon="4.20626">
        <ele>955.21</ele>
        <time>2023-03-18T13:07:16Z</time>
      </trkpt>
      <trkpt lat="45.11219" lon="4.20625">
        <ele>954.25</ele>
        <time>2023-03-18T13:07:28Z</time>
      </trkpt>
      <trkpt lat="45.11232" lon="4.2062">
        <ele>955.69</ele>
        <time>2023-03-18T13:07:41Z</time>
      </trkpt>
      <trkpt lat="45.11243" lon="4.20614">
        <ele>956.17</ele>
        <time>2023-03-18T13:07:52Z</time>
      </trkpt>
      <trkpt lat="45.11257" lon="4.20616">
        <ele>956.17</ele>
        <time>2023-03-18T13:08:04Z</time>
      </trkpt>
      <trkpt lat="45.1126" lon="4.20617">
        <ele>956.17</ele>
        <time>2023-03-18T13:08:07Z</time>
      </trkpt>
      <trkpt lat="45.11265" lon="4.20619">
        <ele>956.17</ele>
        <time>2023-03-18T13:08:11Z</time>
      </trkpt>
      <trkpt lat="45.11278" lon="4.20623">
        <ele>956.65</ele>
        <time>2023-03-18T13:08:25Z</time>
      </trkpt>
      <trkpt lat="45.11292" lon="4.20627">
        <ele>957.61</ele>
        <time>2023-03-18T13:08:36Z</time>
      </trkpt>
      <trkpt lat="45.11309" lon="4.20631">
        <ele>957.13</ele>
        <time>2023-03-18T13:08:50Z</time>
      </trkpt>
      <trkpt lat="45.11328" lon="4.20635">
        <ele>958.57</ele>
        <time>2023-03-18T13:09:05Z</time>
      </trkpt>
      <trkpt lat="45.11346" lon="4.2064">
        <ele>960.01</ele>
        <time>2023-03-18T13:09:19Z</time>
      </trkpt>
      <trkpt lat="45.11363" lon="4.20651">
        <ele>959.05</ele>
        <time>2023-03-18T13:09:33Z</time>
      </trkpt>
      <trkpt lat="45.11365" lon="4.20652">
        <ele>959.05</ele>
        <time>2023-03-18T13:09:35Z</time>
      </trkpt>
      <trkpt lat="45.11381" lon="4.20668">
        <ele>958.09</ele>
        <time>2023-03-18T13:09:49Z</time>
      </trkpt>
      <trkpt lat="45.11394" lon="4.20685">
        <ele>959.05</ele>
        <time>2023-03-18T13:10:02Z</time>
      </trkpt>
      <trkpt lat="45.11403" lon="4.20696">
        <ele>960.01</ele>
        <time>2023-03-18T13:10:10Z</time>
      </trkpt>
      <trkpt lat="45.11421" lon="4.20717">
        <ele>962.42</ele>
        <time>2023-03-18T13:10:25Z</time>
      </trkpt>
      <trkpt lat="45.11433" lon="4.20732">
        <ele>962.42</ele>
        <time>2023-03-18T13:10:37Z</time>
      </trkpt>
      <trkpt lat="45.11451" lon="4.2074">
        <ele>962.9</ele>
        <time>2023-03-18T13:10:52Z</time>
      </trkpt>
      <trkpt lat="45.11467" lon="4.2074">
        <ele>962.42</ele>
        <time>2023-03-18T13:11:03Z</time>
      </trkpt>
      <trkpt lat="45.11481" lon="4.20739">
        <ele>961.94</ele>
        <time>2023-03-18T13:11:15Z</time>
      </trkpt>
      <trkpt lat="45.11494" lon="4.20734">
        <ele>962.9</ele>
        <time>2023-03-18T13:11:25Z</time>
      </trkpt>
      <trkpt lat="45.11497" lon="4.20729">
        <ele>964.82</ele>
        <time>2023-03-18T13:11:30Z</time>
      </trkpt>
      <trkpt lat="45.115" lon="4.20722">
        <ele>966.74</ele>
        <time>2023-03-18T13:11:36Z</time>
      </trkpt>
      <trkpt lat="45.11504" lon="4.20703">
        <ele>969.63</ele>
        <time>2023-03-18T13:11:48Z</time>
      </trkpt>
      <trkpt lat="45.11507" lon="4.20684">
        <ele>971.55</ele>
        <time>2023-03-18T13:12:00Z</time>
      </trkpt>
      <trkpt lat="45.11509" lon="4.20669">
        <ele>974.43</ele>
        <time>2023-03-18T13:12:10Z</time>
      </trkpt>
      <trkpt lat="45.11509" lon="4.2066">
        <ele>976.36</ele>
        <time>2023-03-18T13:12:16Z</time>
      </trkpt>
      <trkpt lat="45.11508" lon="4.20651">
        <ele>976.84</ele>
        <time>2023-03-18T13:12:29Z</time>
      </trkpt>
      <trkpt lat="45.11504" lon="4.20643">
        <ele>975.39</ele>
        <time>2023-03-18T13:12:42Z</time>
      </trkpt>
      <trkpt lat="45.11503" lon="4.20643">
        <ele>973.95</ele>
        <time>2023-03-18T13:12:59Z</time>
      </trkpt>
      <trkpt lat="45.11503" lon="4.20638">
        <ele>973.47</ele>
        <time>2023-03-18T13:13:11Z</time>
      </trkpt>
      <trkpt lat="45.11504" lon="4.20625">
        <ele>973.95</ele>
        <time>2023-03-18T13:13:22Z</time>
      </trkpt>
      <trkpt lat="45.11504" lon="4.20613">
        <ele>973.95</ele>
        <time>2023-03-18T13:13:32Z</time>
      </trkpt>
      <trkpt lat="45.11503" lon="4.20606">
        <ele>974.91</ele>
        <time>2023-03-18T13:13:36Z</time>
      </trkpt>
      <trkpt lat="45.11496" lon="4.20586">
        <ele>976.36</ele>
        <time>2023-03-18T13:13:49Z</time>
      </trkpt>
      <trkpt lat="45.11494" lon="4.20582">
        <ele>976.36</ele>
        <time>2023-03-18T13:13:52Z</time>
      </trkpt>
      <trkpt lat="45.11487" lon="4.20567">
        <ele>974.91</ele>
        <time>2023-03-18T13:14:03Z</time>
      </trkpt>
      <trkpt lat="45.11487" lon="4.20554">
        <ele>974.43</ele>
        <time>2023-03-18T13:14:16Z</time>
      </trkpt>
      <trkpt lat="45.11488" lon="4.20551">
        <ele>974.43</ele>
        <time>2023-03-18T13:14:19Z</time>
      </trkpt>
      <trkpt lat="45.1149" lon="4.20538">
        <ele>973.95</ele>
        <time>2023-03-18T13:14:27Z</time>
      </trkpt>
      <trkpt lat="45.11492" lon="4.20526">
        <ele>974.91</ele>
        <time>2023-03-18T13:14:36Z</time>
      </trkpt>
      <trkpt lat="45.11495" lon="4.20521">
        <ele>974.91</ele>
        <time>2023-03-18T13:14:41Z</time>
      </trkpt>
      <trkpt lat="45.11491" lon="4.20506">
        <ele>976.36</ele>
        <time>2023-03-18T13:14:52Z</time>
      </trkpt>
      <trkpt lat="45.1149" lon="4.20497">
        <ele>977.32</ele>
        <time>2023-03-18T13:15:04Z</time>
      </trkpt>
      <trkpt lat="45.11481" lon="4.20482">
        <ele>975.39</ele>
        <time>2023-03-18T13:15:19Z</time>
      </trkpt>
      <trkpt lat="45.11481" lon="4.20481">
        <ele>975.39</ele>
        <time>2023-03-18T13:15:20Z</time>
      </trkpt>
      <trkpt lat="45.11468" lon="4.20461">
        <ele>975.39</ele>
        <time>2023-03-18T13:15:40Z</time>
      </trkpt>
      <trkpt lat="45.11455" lon="4.20443">
        <ele>976.84</ele>
        <time>2023-03-18T13:15:57Z</time>
      </trkpt>
      <trkpt lat="45.11453" lon="4.20441">
        <ele>976.84</ele>
        <time>2023-03-18T13:15:59Z</time>
      </trkpt>
      <trkpt lat="45.1143" lon="4.20426">
        <ele>973.47</ele>
        <time>2023-03-18T13:16:20Z</time>
      </trkpt>
      <trkpt lat="45.11412" lon="4.20408">
        <ele>973.95</ele>
        <time>2023-03-18T13:16:38Z</time>
      </trkpt>
      <trkpt lat="45.11393" lon="4.20388">
        <ele>975.39</ele>
        <time>2023-03-18T13:16:57Z</time>
      </trkpt>
      <trkpt lat="45.11384" lon="4.20374">
        <ele>976.84</ele>
        <time>2023-03-18T13:17:08Z</time>
      </trkpt>
      <trkpt lat="45.11376" lon="4.2033">
        <ele>974.43</ele>
        <time>2023-03-18T13:17:34Z</time>
      </trkpt>
      <trkpt lat="45.11376" lon="4.20297">
        <ele>973.47</ele>
        <time>2023-03-18T13:17:52Z</time>
      </trkpt>
      <trkpt lat="45.1138" lon="4.20268">
        <ele>973.47</ele>
        <time>2023-03-18T13:18:07Z</time>
      </trkpt>
      <trkpt lat="45.11383" lon="4.20235">
        <ele>971.55</ele>
        <time>2023-03-18T13:18:25Z</time>
      </trkpt>
      <trkpt lat="45.11383" lon="4.20221">
        <ele>971.07</ele>
        <time>2023-03-18T13:18:33Z</time>
      </trkpt>
      <trkpt lat="45.11391" lon="4.20181">
        <ele>972.03</ele>
        <time>2023-03-18T13:18:54Z</time>
      </trkpt>
      <trkpt lat="45.11405" lon="4.20153">
        <ele>973.95</ele>
        <time>2023-03-18T13:19:12Z</time>
      </trkpt>
      <trkpt lat="45.11413" lon="4.20117">
        <ele>974.43</ele>
        <time>2023-03-18T13:19:35Z</time>
      </trkpt>
      <trkpt lat="45.11425" lon="4.2009">
        <ele>974.91</ele>
        <time>2023-03-18T13:19:52Z</time>
      </trkpt>
      <trkpt lat="45.11422" lon="4.20075">
        <ele>972.99</ele>
        <time>2023-03-18T13:20:00Z</time>
      </trkpt>
      <trkpt lat="45.11407" lon="4.20041">
        <ele>971.07</ele>
        <time>2023-03-18T13:20:21Z</time>
      </trkpt>
      <trkpt lat="45.11391" lon="4.19996">
        <ele>970.11</ele>
        <time>2023-03-18T13:20:44Z</time>
      </trkpt>
      <trkpt lat="45.11378" lon="4.19958">
        <ele>968.18</ele>
        <time>2023-03-18T13:21:08Z</time>
      </trkpt>
      <trkpt lat="45.11366" lon="4.1992">
        <ele>968.67</ele>
        <time>2023-03-18T13:21:32Z</time>
      </trkpt>
      <trkpt lat="45.11357" lon="4.19879">
        <ele>971.07</ele>
        <time>2023-03-18T13:21:55Z</time>
      </trkpt>
      <trkpt lat="45.11344" lon="4.19846">
        <ele>969.63</ele>
        <time>2023-03-18T13:22:17Z</time>
      </trkpt>
      <trkpt lat="45.11321" lon="4.19817">
        <ele>972.99</ele>
        <time>2023-03-18T13:22:41Z</time>
      </trkpt>
      <trkpt lat="45.11296" lon="4.19786">
        <ele>971.55</ele>
        <time>2023-03-18T13:23:04Z</time>
      </trkpt>
      <trkpt lat="45.11279" lon="4.19754">
        <ele>972.03</ele>
        <time>2023-03-18T13:23:27Z</time>
      </trkpt>
      <trkpt lat="45.11271" lon="4.1971">
        <ele>973.47</ele>
        <time>2023-03-18T13:23:51Z</time>
      </trkpt>
      <trkpt lat="45.11262" lon="4.19667">
        <ele>974.91</ele>
        <time>2023-03-18T13:24:17Z</time>
      </trkpt>
      <trkpt lat="45.11251" lon="4.19646">
        <ele>973.95</ele>
        <time>2023-03-18T13:24:31Z</time>
      </trkpt>
      <trkpt lat="45.11222" lon="4.19619">
        <ele>967.22</ele>
        <time>2023-03-18T13:24:58Z</time>
      </trkpt>
      <trkpt lat="45.11208" lon="4.19579">
        <ele>966.26</ele>
        <time>2023-03-18T13:25:20Z</time>
      </trkpt>
      <trkpt lat="45.11188" lon="4.1954">
        <ele>963.38</ele>
        <time>2023-03-18T13:25:45Z</time>
      </trkpt>
      <trkpt lat="45.11157" lon="4.1952">
        <ele>957.61</ele>
        <time>2023-03-18T13:26:11Z</time>
      </trkpt>
      <trkpt lat="45.11141" lon="4.19513">
        <ele>957.13</ele>
        <time>2023-03-18T13:26:24Z</time>
      </trkpt>
      <trkpt lat="45.11126" lon="4.19472">
        <ele>957.13</ele>
        <time>2023-03-18T13:26:47Z</time>
      </trkpt>
      <trkpt lat="45.11114" lon="4.19434">
        <ele>953.77</ele>
        <time>2023-03-18T13:27:09Z</time>
      </trkpt>
      <trkpt lat="45.11099" lon="4.19385">
        <ele>952.8</ele>
        <time>2023-03-18T13:27:36Z</time>
      </trkpt>
      <trkpt lat="45.11084" lon="4.19347">
        <ele>957.13</ele>
        <time>2023-03-18T13:27:58Z</time>
      </trkpt>
      <trkpt lat="45.11081" lon="4.19329">
        <ele>957.61</ele>
        <time>2023-03-18T13:28:09Z</time>
      </trkpt>
      <trkpt lat="45.11078" lon="4.19307">
        <ele>956.17</ele>
        <time>2023-03-18T13:28:21Z</time>
      </trkpt>
      <trkpt lat="45.11078" lon="4.19284">
        <ele>954.25</ele>
        <time>2023-03-18T13:28:35Z</time>
      </trkpt>
      <trkpt lat="45.11068" lon="4.19244">
        <ele>952.8</ele>
        <time>2023-03-18T13:28:53Z</time>
      </trkpt>
      <trkpt lat="45.11061" lon="4.19211">
        <ele>949.92</ele>
        <time>2023-03-18T13:29:12Z</time>
      </trkpt>
      <trkpt lat="45.11058" lon="4.19169">
        <ele>943.67</ele>
        <time>2023-03-18T13:29:36Z</time>
      </trkpt>
      <trkpt lat="45.11055" lon="4.19135">
        <ele>943.19</ele>
        <time>2023-03-18T13:29:52Z</time>
      </trkpt>
      <trkpt lat="45.11053" lon="4.19125">
        <ele>943.19</ele>
        <time>2023-03-18T13:29:57Z</time>
      </trkpt>
      <trkpt lat="45.1105" lon="4.19102">
        <ele>944.63</ele>
        <time>2023-03-18T13:30:04Z</time>
      </trkpt>
      <trkpt lat="45.11034" lon="4.19065">
        <ele>947.52</ele>
        <time>2023-03-18T13:30:24Z</time>
      </trkpt>
      <trkpt lat="45.1101" lon="4.19049">
        <ele>943.19</ele>
        <time>2023-03-18T13:30:45Z</time>
      </trkpt>
      <trkpt lat="45.10997" lon="4.19004">
        <ele>944.63</ele>
        <time>2023-03-18T13:31:04Z</time>
      </trkpt>
      <trkpt lat="45.10997" lon="4.18957">
        <ele>946.56</ele>
        <time>2023-03-18T13:31:27Z</time>
      </trkpt>
      <trkpt lat="45.10998" lon="4.18947">
        <ele>948.48</ele>
        <time>2023-03-18T13:31:33Z</time>
      </trkpt>
      <trkpt lat="45.10997" lon="4.18907">
        <ele>953.28</ele>
        <time>2023-03-18T13:31:54Z</time>
      </trkpt>
      <trkpt lat="45.10997" lon="4.18893">
        <ele>953.77</ele>
        <time>2023-03-18T13:32:01Z</time>
      </trkpt>
      <trkpt lat="45.10997" lon="4.18883">
        <ele>954.25</ele>
        <time>2023-03-18T13:32:06Z</time>
      </trkpt>
      <trkpt lat="45.10997" lon="4.18844">
        <ele>956.65</ele>
        <time>2023-03-18T13:32:27Z</time>
      </trkpt>
      <trkpt lat="45.10999" lon="4.18808">
        <ele>957.13</ele>
        <time>2023-03-18T13:32:47Z</time>
      </trkpt>
      <trkpt lat="45.10998" lon="4.18766">
        <ele>957.61</ele>
        <time>2023-03-18T13:33:09Z</time>
      </trkpt>
      <trkpt lat="45.10999" lon="4.18727">
        <ele>958.09</ele>
        <time>2023-03-18T13:33:31Z</time>
      </trkpt>
      <trkpt lat="45.11001" lon="4.18687">
        <ele>956.17</ele>
        <time>2023-03-18T13:33:50Z</time>
      </trkpt>
      <trkpt lat="45.10999" lon="4.18647">
        <ele>951.84</ele>
        <time>2023-03-18T13:34:13Z</time>
      </trkpt>
      <trkpt lat="45.10999" lon="4.18607">
        <ele>946.56</ele>
        <time>2023-03-18T13:34:33Z</time>
      </trkpt>
      <trkpt lat="45.10996" lon="4.18569">
        <ele>945.59</ele>
        <time>2023-03-18T13:34:53Z</time>
      </trkpt>
      <trkpt lat="45.10996" lon="4.18551">
        <ele>947.04</ele>
        <time>2023-03-18T13:35:02Z</time>
      </trkpt>
      <trkpt lat="45.10994" lon="4.18514">
        <ele>943.67</ele>
        <time>2023-03-18T13:35:21Z</time>
      </trkpt>
      <trkpt lat="45.10993" lon="4.18471">
        <ele>939.35</ele>
        <time>2023-03-18T13:35:43Z</time>
      </trkpt>
      <trkpt lat="45.10989" lon="4.18436">
        <ele>934.54</ele>
        <time>2023-03-18T13:36:03Z</time>
      </trkpt>
      <trkpt lat="45.1098" lon="4.18409">
        <ele>933.1</ele>
        <time>2023-03-18T13:36:20Z</time>
      </trkpt>
      <trkpt lat="45.10961" lon="4.18381">
        <ele>930.21</ele>
        <time>2023-03-18T13:36:41Z</time>
      </trkpt>
      <trkpt lat="45.10949" lon="4.18357">
        <ele>925.41</ele>
        <time>2023-03-18T13:36:58Z</time>
      </trkpt>
      <trkpt lat="45.10958" lon="4.18328">
        <ele>921.08</ele>
        <time>2023-03-18T13:37:17Z</time>
      </trkpt>
      <trkpt lat="45.10964" lon="4.18317">
        <ele>919.16</ele>
        <time>2023-03-18T13:37:25Z</time>
      </trkpt>
      <trkpt lat="45.10972" lon="4.18282">
        <ele>914.35</ele>
        <time>2023-03-18T13:37:45Z</time>
      </trkpt>
      <trkpt lat="45.10976" lon="4.18266">
        <ele>912.91</ele>
        <time>2023-03-18T13:37:55Z</time>
      </trkpt>
      <trkpt lat="45.10984" lon="4.18229">
        <ele>911.95</ele>
        <time>2023-03-18T13:38:13Z</time>
      </trkpt>
      <trkpt lat="45.11004" lon="4.18209">
        <ele>910.99</ele>
        <time>2023-03-18T13:38:30Z</time>
      </trkpt>
      <trkpt lat="45.11028" lon="4.18188">
        <ele>907.62</ele>
        <time>2023-03-18T13:38:49Z</time>
      </trkpt>
      <trkpt lat="45.11047" lon="4.1817">
        <ele>906.18</ele>
        <time>2023-03-18T13:39:04Z</time>
      </trkpt>
      <trkpt lat="45.1107" lon="4.18155">
        <ele>906.18</ele>
        <time>2023-03-18T13:39:23Z</time>
      </trkpt>
      <trkpt lat="45.11095" lon="4.18136">
        <ele>903.78</ele>
        <time>2023-03-18T13:39:44Z</time>
      </trkpt>
      <trkpt lat="45.11119" lon="4.18122">
        <ele>902.82</ele>
        <time>2023-03-18T13:40:03Z</time>
      </trkpt>
      <trkpt lat="45.11138" lon="4.18112">
        <ele>900.89</ele>
        <time>2023-03-18T13:40:19Z</time>
      </trkpt>
      <trkpt lat="45.11154" lon="4.18092">
        <ele>900.41</ele>
        <time>2023-03-18T13:40:37Z</time>
      </trkpt>
      <trkpt lat="45.11174" lon="4.18063">
        <ele>903.78</ele>
        <time>2023-03-18T13:41:00Z</time>
      </trkpt>
      <trkpt lat="45.11186" lon="4.18046">
        <ele>902.82</ele>
        <time>2023-03-18T13:41:16Z</time>
      </trkpt>
      <trkpt lat="45.11181" lon="4.18026">
        <ele>899.93</ele>
        <time>2023-03-18T13:41:26Z</time>
      </trkpt>
      <trkpt lat="45.11174" lon="4.18015">
        <ele>900.89</ele>
        <time>2023-03-18T13:41:36Z</time>
      </trkpt>
      <trkpt lat="45.11164" lon="4.18004">
        <ele>901.37</ele>
        <time>2023-03-18T13:41:46Z</time>
      </trkpt>
      <trkpt lat="45.11155" lon="4.17987">
        <ele>902.82</ele>
        <time>2023-03-18T13:41:57Z</time>
      </trkpt>
      <trkpt lat="45.11152" lon="4.17979">
        <ele>900.89</ele>
        <time>2023-03-18T13:42:08Z</time>
      </trkpt>
      <trkpt lat="45.11149" lon="4.17973">
        <ele>900.41</ele>
        <time>2023-03-18T13:42:15Z</time>
      </trkpt>
      <trkpt lat="45.1113" lon="4.17978">
        <ele>901.37</ele>
        <time>2023-03-18T13:42:29Z</time>
      </trkpt>
      <trkpt lat="45.11116" lon="4.17982">
        <ele>902.33</ele>
        <time>2023-03-18T13:42:39Z</time>
      </trkpt>
      <trkpt lat="45.11097" lon="4.17988">
        <ele>898.49</ele>
        <time>2023-03-18T13:42:53Z</time>
      </trkpt>
      <trkpt lat="45.11066" lon="4.17991">
        <ele>893.68</ele>
        <time>2023-03-18T13:43:13Z</time>
      </trkpt>
      <trkpt lat="45.11041" lon="4.17995">
        <ele>890.32</ele>
        <time>2023-03-18T13:43:31Z</time>
      </trkpt>
      <trkpt lat="45.11015" lon="4.17998">
        <ele>886.95</ele>
        <time>2023-03-18T13:43:51Z</time>
      </trkpt>
      <trkpt lat="45.10988" lon="4.17994">
        <ele>886.47</ele>
        <time>2023-03-18T13:44:11Z</time>
      </trkpt>
      <trkpt lat="45.10964" lon="4.17986">
        <ele>884.07</ele>
        <time>2023-03-18T13:44:28Z</time>
      </trkpt>
      <trkpt lat="45.10946" lon="4.17968">
        <ele>880.22</ele>
        <time>2023-03-18T13:44:45Z</time>
      </trkpt>
      <trkpt lat="45.1093" lon="4.17954">
        <ele>882.15</ele>
        <time>2023-03-18T13:45:01Z</time>
      </trkpt>
      <trkpt lat="45.10909" lon="4.1795">
        <ele>885.03</ele>
        <time>2023-03-18T13:45:18Z</time>
      </trkpt>
      <trkpt lat="45.109" lon="4.17949">
        <ele>885.99</ele>
        <time>2023-03-18T13:45:30Z</time>
      </trkpt>
      <trkpt lat="45.10869" lon="4.1795">
        <ele>886.47</ele>
        <time>2023-03-18T13:45:48Z</time>
      </trkpt>
      <trkpt lat="45.10856" lon="4.17952">
        <ele>885.99</ele>
        <time>2023-03-18T13:45:58Z</time>
      </trkpt>
      <trkpt lat="45.10834" lon="4.17956">
        <ele>884.07</ele>
        <time>2023-03-18T13:46:15Z</time>
      </trkpt>
      <trkpt lat="45.108" lon="4.1795">
        <ele>880.71</ele>
        <time>2023-03-18T13:46:43Z</time>
      </trkpt>
      <trkpt lat="45.10767" lon="4.17948">
        <ele>878.3</ele>
        <time>2023-03-18T13:47:06Z</time>
      </trkpt>
      <trkpt lat="45.10732" lon="4.17947">
        <ele>875.9</ele>
        <time>2023-03-18T13:47:27Z</time>
      </trkpt>
      <trkpt lat="45.10718" lon="4.17943">
        <ele>874.46</ele>
        <time>2023-03-18T13:47:38Z</time>
      </trkpt>
      <trkpt lat="45.10711" lon="4.1794">
        <ele>873.98</ele>
        <time>2023-03-18T13:47:42Z</time>
      </trkpt>
      <trkpt lat="45.10694" lon="4.17912">
        <ele>873.01</ele>
        <time>2023-03-18T13:48:02Z</time>
      </trkpt>
      <trkpt lat="45.10688" lon="4.17904">
        <ele>870.13</ele>
        <time>2023-03-18T13:48:10Z</time>
      </trkpt>
      <trkpt lat="45.10674" lon="4.17894">
        <ele>872.05</ele>
        <time>2023-03-18T13:48:23Z</time>
      </trkpt>
      <trkpt lat="45.10654" lon="4.17901">
        <ele>874.94</ele>
        <time>2023-03-18T13:48:39Z</time>
      </trkpt>
      <trkpt lat="45.10634" lon="4.17905">
        <ele>873.5</ele>
        <time>2023-03-18T13:48:54Z</time>
      </trkpt>
      <trkpt lat="45.10613" lon="4.17912">
        <ele>873.01</ele>
        <time>2023-03-18T13:49:09Z</time>
      </trkpt>
      <trkpt lat="45.10608" lon="4.17911">
        <ele>872.05</ele>
        <time>2023-03-18T13:49:13Z</time>
      </trkpt>
      <trkpt lat="45.10589" lon="4.17903">
        <ele>867.73</ele>
        <time>2023-03-18T13:49:28Z</time>
      </trkpt>
      <trkpt lat="45.10588" lon="4.17902">
        <ele>868.21</ele>
        <time>2023-03-18T13:49:29Z</time>
      </trkpt>
      <trkpt lat="45.10583" lon="4.17893">
        <ele>868.69</ele>
        <time>2023-03-18T13:49:37Z</time>
      </trkpt>
      <trkpt lat="45.10581" lon="4.17874">
        <ele>869.65</ele>
        <time>2023-03-18T13:49:54Z</time>
      </trkpt>
      <trkpt lat="45.1058" lon="4.17854">
        <ele>872.53</ele>
        <time>2023-03-18T13:50:05Z</time>
      </trkpt>
      <trkpt lat="45.10565" lon="4.17828">
        <ele>874.94</ele>
        <time>2023-03-18T13:50:25Z</time>
      </trkpt>
      <trkpt lat="45.1055" lon="4.17802">
        <ele>876.38</ele>
        <time>2023-03-18T13:50:44Z</time>
      </trkpt>
      <trkpt lat="45.10532" lon="4.17782">
        <ele>876.38</ele>
        <time>2023-03-18T13:51:02Z</time>
      </trkpt>
      <trkpt lat="45.10529" lon="4.17777">
        <ele>876.86</ele>
        <time>2023-03-18T13:51:05Z</time>
      </trkpt>
      <trkpt lat="45.10514" lon="4.17751">
        <ele>877.82</ele>
        <time>2023-03-18T13:51:25Z</time>
      </trkpt>
      <trkpt lat="45.10494" lon="4.17733">
        <ele>879.26</ele>
        <time>2023-03-18T13:51:45Z</time>
      </trkpt>
      <trkpt lat="45.10485" lon="4.17729">
        <ele>879.26</ele>
        <time>2023-03-18T13:51:55Z</time>
      </trkpt>
      <trkpt lat="45.10476" lon="4.17724">
        <ele>878.78</ele>
        <time>2023-03-18T13:52:04Z</time>
      </trkpt>
      <trkpt lat="45.10454" lon="4.1771">
        <ele>882.63</ele>
        <time>2023-03-18T13:52:24Z</time>
      </trkpt>
      <trkpt lat="45.10435" lon="4.17701">
        <ele>889.84</ele>
        <time>2023-03-18T13:52:43Z</time>
      </trkpt>
      <trkpt lat="45.10417" lon="4.17696">
        <ele>893.68</ele>
        <time>2023-03-18T13:53:03Z</time>
      </trkpt>
      <trkpt lat="45.10412" lon="4.17693">
        <ele>898.01</ele>
        <time>2023-03-18T13:53:23Z</time>
      </trkpt>
      <trkpt lat="45.10398" lon="4.17681">
        <ele>902.33</ele>
        <time>2023-03-18T13:53:41Z</time>
      </trkpt>
      <trkpt lat="45.10381" lon="4.17668">
        <ele>904.74</ele>
        <time>2023-03-18T13:53:59Z</time>
      </trkpt>
      <trkpt lat="45.10362" lon="4.17657">
        <ele>907.62</ele>
        <time>2023-03-18T13:54:17Z</time>
      </trkpt>
      <trkpt lat="45.10345" lon="4.17642">
        <ele>910.03</ele>
        <time>2023-03-18T13:54:36Z</time>
      </trkpt>
      <trkpt lat="45.10326" lon="4.17621">
        <ele>912.43</ele>
        <time>2023-03-18T13:54:57Z</time>
      </trkpt>
      <trkpt lat="45.10302" lon="4.176">
        <ele>914.83</ele>
        <time>2023-03-18T13:55:19Z</time>
      </trkpt>
      <trkpt lat="45.10281" lon="4.17594">
        <ele>917.24</ele>
        <time>2023-03-18T13:55:39Z</time>
      </trkpt>
      <trkpt lat="45.1027" lon="4.17598">
        <ele>922.04</ele>
        <time>2023-03-18T13:55:51Z</time>
      </trkpt>
      <trkpt lat="45.1027" lon="4.17596">
        <ele>923</ele>
        <time>2023-03-18T13:56:09Z</time>
      </trkpt>
      <trkpt lat="45.10271" lon="4.17602">
        <ele>922.04</ele>
        <time>2023-03-18T13:56:30Z</time>
      </trkpt>
      <trkpt lat="45.1027" lon="4.17602">
        <ele>921.56</ele>
        <time>2023-03-18T13:56:53Z</time>
      </trkpt>
      <trkpt lat="45.10258" lon="4.1762">
        <ele>921.08</ele>
        <time>2023-03-18T13:57:12Z</time>
      </trkpt>
      <trkpt lat="45.10257" lon="4.17621">
        <ele>921.08</ele>
        <time>2023-03-18T13:57:13Z</time>
      </trkpt>
      <trkpt lat="45.10251" lon="4.17639">
        <ele>922.04</ele>
        <time>2023-03-18T13:57:29Z</time>
      </trkpt>
      <trkpt lat="45.10244" lon="4.17671">
        <ele>925.89</ele>
        <time>2023-03-18T13:57:51Z</time>
      </trkpt>
      <trkpt lat="45.10232" lon="4.17701">
        <ele>924.93</ele>
        <time>2023-03-18T13:58:13Z</time>
      </trkpt>
      <trkpt lat="45.10221" lon="4.17712">
        <ele>924.45</ele>
        <time>2023-03-18T13:58:26Z</time>
      </trkpt>
      <trkpt lat="45.10205" lon="4.17729">
        <ele>926.85</ele>
        <time>2023-03-18T13:58:45Z</time>
      </trkpt>
      <trkpt lat="45.10191" lon="4.17755">
        <ele>925.89</ele>
        <time>2023-03-18T13:59:06Z</time>
      </trkpt>
      <trkpt lat="45.10175" lon="4.17773">
        <ele>925.89</ele>
        <time>2023-03-18T13:59:28Z</time>
      </trkpt>
      <trkpt lat="45.10177" lon="4.17777">
        <ele>924.45</ele>
        <time>2023-03-18T13:59:44Z</time>
      </trkpt>
      <trkpt lat="45.10174" lon="4.17778">
        <ele>924.45</ele>
        <time>2023-03-18T14:00:02Z</time>
      </trkpt>
      <trkpt lat="45.10168" lon="4.17781">
        <ele>924.45</ele>
        <time>2023-03-18T14:00:21Z</time>
      </trkpt>
      <trkpt lat="45.10174" lon="4.17779">
        <ele>923.96</ele>
        <time>2023-03-18T14:00:46Z</time>
      </trkpt>
      <trkpt lat="45.10182" lon="4.17779">
        <ele>924.45</ele>
        <time>2023-03-18T14:01:08Z</time>
      </trkpt>
      <trkpt lat="45.10183" lon="4.17778">
        <ele>924.45</ele>
        <time>2023-03-18T14:01:36Z</time>
      </trkpt>
      <trkpt lat="45.10183" lon="4.17778">
        <ele>924.45</ele>
        <time>2023-03-18T14:02:00Z</time>
      </trkpt>
      <trkpt lat="45.10184" lon="4.17777">
        <ele>924.93</ele>
        <time>2023-03-18T14:02:21Z</time>
      </trkpt>
      <trkpt lat="45.10177" lon="4.17781">
        <ele>923.96</ele>
        <time>2023-03-18T14:02:44Z</time>
      </trkpt>
      <trkpt lat="45.10178" lon="4.17781">
        <ele>923.96</ele>
        <time>2023-03-18T14:03:07Z</time>
      </trkpt>
      <trkpt lat="45.10181" lon="4.17781">
        <ele>924.93</ele>
        <time>2023-03-18T14:03:29Z</time>
      </trkpt>
      <trkpt lat="45.10176" lon="4.17785">
        <ele>924.93</ele>
        <time>2023-03-18T14:03:46Z</time>
      </trkpt>
      <trkpt lat="45.10175" lon="4.17782">
        <ele>924.93</ele>
        <time>2023-03-18T14:04:07Z</time>
      </trkpt>
      <trkpt lat="45.1017" lon="4.17779">
        <ele>924.45</ele>
        <time>2023-03-18T14:04:29Z</time>
      </trkpt>
      <trkpt lat="45.1017" lon="4.17781">
        <ele>924.45</ele>
        <time>2023-03-18T14:04:52Z</time>
      </trkpt>
      <trkpt lat="45.10169" lon="4.1778">
        <ele>924.45</ele>
        <time>2023-03-18T14:05:15Z</time>
      </trkpt>
      <trkpt lat="45.10175" lon="4.17779">
        <ele>925.41</ele>
        <time>2023-03-18T14:05:37Z</time>
      </trkpt>
      <trkpt lat="45.10183" lon="4.1778">
        <ele>926.85</ele>
        <time>2023-03-18T14:06:01Z</time>
      </trkpt>
      <trkpt lat="45.10181" lon="4.17782">
        <ele>926.85</ele>
        <time>2023-03-18T14:06:27Z</time>
      </trkpt>
      <trkpt lat="45.10167" lon="4.1778">
        <ele>926.37</ele>
        <time>2023-03-18T14:06:50Z</time>
      </trkpt>
      <trkpt lat="45.10169" lon="4.1778">
        <ele>926.85</ele>
        <time>2023-03-18T14:07:14Z</time>
      </trkpt>
      <trkpt lat="45.10163" lon="4.1778">
        <ele>925.41</ele>
        <time>2023-03-18T14:07:39Z</time>
      </trkpt>
      <trkpt lat="45.10168" lon="4.17778">
        <ele>925.89</ele>
        <time>2023-03-18T14:08:07Z</time>
      </trkpt>
      <trkpt lat="45.1018" lon="4.17779">
        <ele>925.41</ele>
        <time>2023-03-18T14:08:30Z</time>
      </trkpt>
      <trkpt lat="45.10177" lon="4.17787">
        <ele>924.93</ele>
        <time>2023-03-18T14:08:50Z</time>
      </trkpt>
      <trkpt lat="45.10176" lon="4.1779">
        <ele>924.93</ele>
        <time>2023-03-18T14:08:52Z</time>
      </trkpt>
      <trkpt lat="45.10167" lon="4.17816">
        <ele>926.85</ele>
        <time>2023-03-18T14:09:10Z</time>
      </trkpt>
      <trkpt lat="45.10157" lon="4.17844">
        <ele>927.33</ele>
        <time>2023-03-18T14:09:28Z</time>
      </trkpt>
      <trkpt lat="45.10146" lon="4.17871">
        <ele>926.85</ele>
        <time>2023-03-18T14:09:49Z</time>
      </trkpt>
      <trkpt lat="45.1014" lon="4.1788">
        <ele>926.37</ele>
        <time>2023-03-18T14:09:56Z</time>
      </trkpt>
      <trkpt lat="45.10119" lon="4.17897">
        <ele>929.73</ele>
        <time>2023-03-18T14:10:14Z</time>
      </trkpt>
      <trkpt lat="45.10098" lon="4.17908">
        <ele>932.14</ele>
        <time>2023-03-18T14:10:34Z</time>
      </trkpt>
      <trkpt lat="45.10077" lon="4.17915">
        <ele>935.02</ele>
        <time>2023-03-18T14:10:52Z</time>
      </trkpt>
      <trkpt lat="45.10058" lon="4.17925">
        <ele>938.86</ele>
        <time>2023-03-18T14:11:12Z</time>
      </trkpt>
      <trkpt lat="45.10031" lon="4.17941">
        <ele>937.9</ele>
        <time>2023-03-18T14:11:31Z</time>
      </trkpt>
      <trkpt lat="45.1002" lon="4.17955">
        <ele>938.38</ele>
        <time>2023-03-18T14:11:42Z</time>
      </trkpt>
      <trkpt lat="45.10006" lon="4.17978">
        <ele>936.46</ele>
        <time>2023-03-18T14:12:00Z</time>
      </trkpt>
      <trkpt lat="45.09994" lon="4.18">
        <ele>937.9</ele>
        <time>2023-03-18T14:12:17Z</time>
      </trkpt>
      <trkpt lat="45.09974" lon="4.18027">
        <ele>938.86</ele>
        <time>2023-03-18T14:12:38Z</time>
      </trkpt>
      <trkpt lat="45.09959" lon="4.18054">
        <ele>940.79</ele>
        <time>2023-03-18T14:12:59Z</time>
      </trkpt>
      <trkpt lat="45.09947" lon="4.18084">
        <ele>940.31</ele>
        <time>2023-03-18T14:13:20Z</time>
      </trkpt>
      <trkpt lat="45.09931" lon="4.18101">
        <ele>941.75</ele>
        <time>2023-03-18T14:13:40Z</time>
      </trkpt>
      <trkpt lat="45.09933" lon="4.18102">
        <ele>941.27</ele>
        <time>2023-03-18T14:13:59Z</time>
      </trkpt>
      <trkpt lat="45.09923" lon="4.18113">
        <ele>940.79</ele>
        <time>2023-03-18T14:14:18Z</time>
      </trkpt>
      <trkpt lat="45.09906" lon="4.18128">
        <ele>939.35</ele>
        <time>2023-03-18T14:14:38Z</time>
      </trkpt>
      <trkpt lat="45.09905" lon="4.18128">
        <ele>939.35</ele>
        <time>2023-03-18T14:14:39Z</time>
      </trkpt>
      <trkpt lat="45.09891" lon="4.18135">
        <ele>936.46</ele>
        <time>2023-03-18T14:15:00Z</time>
      </trkpt>
      <trkpt lat="45.09873" lon="4.18158">
        <ele>933.58</ele>
        <time>2023-03-18T14:15:20Z</time>
      </trkpt>
      <trkpt lat="45.09864" lon="4.18179">
        <ele>935.02</ele>
        <time>2023-03-18T14:15:42Z</time>
      </trkpt>
      <trkpt lat="45.09864" lon="4.18192">
        <ele>934.06</ele>
        <time>2023-03-18T14:16:00Z</time>
      </trkpt>
      <trkpt lat="45.09863" lon="4.1821">
        <ele>941.27</ele>
        <time>2023-03-18T14:16:07Z</time>
      </trkpt>
      <trkpt lat="45.09861" lon="4.18208">
        <ele>935.5</ele>
        <time>2023-03-18T14:16:18Z</time>
      </trkpt>
      <trkpt lat="45.09861" lon="4.18208">
        <ele>939.83</ele>
        <time>2023-03-18T14:16:31Z</time>
      </trkpt>
      <trkpt lat="45.09861" lon="4.18208">
        <ele>941.27</ele>
        <time>2023-03-18T14:16:41Z</time>
      </trkpt>
      <trkpt lat="45.09865" lon="4.18211">
        <ele>941.27</ele>
        <time>2023-03-18T14:16:59Z</time>
      </trkpt>
      <trkpt lat="45.09864" lon="4.18217">
        <ele>942.23</ele>
        <time>2023-03-18T14:17:17Z</time>
      </trkpt>
      <trkpt lat="45.09863" lon="4.1823">
        <ele>943.67</ele>
        <time>2023-03-18T14:17:39Z</time>
      </trkpt>
      <trkpt lat="45.09869" lon="4.18227">
        <ele>938.86</ele>
        <time>2023-03-18T14:18:00Z</time>
      </trkpt>
      <trkpt lat="45.09865" lon="4.18229">
        <ele>932.62</ele>
        <time>2023-03-18T14:18:23Z</time>
      </trkpt>
      <trkpt lat="45.09868" lon="4.18227">
        <ele>932.14</ele>
        <time>2023-03-18T14:18:48Z</time>
      </trkpt>
      <trkpt lat="45.09878" lon="4.1823">
        <ele>926.85</ele>
        <time>2023-03-18T14:19:12Z</time>
      </trkpt>
      <trkpt lat="45.09878" lon="4.18226">
        <ele>924.45</ele>
        <time>2023-03-18T14:19:35Z</time>
      </trkpt>
      <trkpt lat="45.0987" lon="4.18213">
        <ele>923</ele>
        <time>2023-03-18T14:19:51Z</time>
      </trkpt>
      <trkpt lat="45.0987" lon="4.18201">
        <ele>927.33</ele>
        <time>2023-03-18T14:20:11Z</time>
      </trkpt>
      <trkpt lat="45.09877" lon="4.1821">
        <ele>932.14</ele>
        <time>2023-03-18T14:20:33Z</time>
      </trkpt>
      <trkpt lat="45.0988" lon="4.18211">
        <ele>936.46</ele>
        <time>2023-03-18T14:20:56Z</time>
      </trkpt>
      <trkpt lat="45.09879" lon="4.18209">
        <ele>938.86</ele>
        <time>2023-03-18T14:21:18Z</time>
      </trkpt>
      <trkpt lat="45.09886" lon="4.18216">
        <ele>940.79</ele>
        <time>2023-03-18T14:21:35Z</time>
      </trkpt>
      <trkpt lat="45.09887" lon="4.18219">
        <ele>943.19</ele>
        <time>2023-03-18T14:21:49Z</time>
      </trkpt>
      <trkpt lat="45.09875" lon="4.18229">
        <ele>945.59</ele>
        <time>2023-03-18T14:22:09Z</time>
      </trkpt>
      <trkpt lat="45.09865" lon="4.18233">
        <ele>943.19</ele>
        <time>2023-03-18T14:22:28Z</time>
      </trkpt>
      <trkpt lat="45.09868" lon="4.18225">
        <ele>943.19</ele>
        <time>2023-03-18T14:22:46Z</time>
      </trkpt>
      <trkpt lat="45.09869" lon="4.18228">
        <ele>940.79</ele>
        <time>2023-03-18T14:23:06Z</time>
      </trkpt>
      <trkpt lat="45.09871" lon="4.18232">
        <ele>939.35</ele>
        <time>2023-03-18T14:23:28Z</time>
      </trkpt>
      <trkpt lat="45.0987" lon="4.18234">
        <ele>936.94</ele>
        <time>2023-03-18T14:23:56Z</time>
      </trkpt>
      <trkpt lat="45.09871" lon="4.18234">
        <ele>937.42</ele>
        <time>2023-03-18T14:24:23Z</time>
      </trkpt>
      <trkpt lat="45.09876" lon="4.18236">
        <ele>936.94</ele>
        <time>2023-03-18T14:24:44Z</time>
      </trkpt>
      <trkpt lat="45.0988" lon="4.18227">
        <ele>934.54</ele>
        <time>2023-03-18T14:25:03Z</time>
      </trkpt>
      <trkpt lat="45.09884" lon="4.18222">
        <ele>932.14</ele>
        <time>2023-03-18T14:25:20Z</time>
      </trkpt>
      <trkpt lat="45.09888" lon="4.18222">
        <ele>929.73</ele>
        <time>2023-03-18T14:25:34Z</time>
      </trkpt>
      <trkpt lat="45.09888" lon="4.18225">
        <ele>927.81</ele>
        <time>2023-03-18T14:25:55Z</time>
      </trkpt>
      <trkpt lat="45.09887" lon="4.18224">
        <ele>930.21</ele>
        <time>2023-03-18T14:26:14Z</time>
      </trkpt>
      <trkpt lat="45.09887" lon="4.18223">
        <ele>931.65</ele>
        <time>2023-03-18T14:26:32Z</time>
      </trkpt>
      <trkpt lat="45.09892" lon="4.18217">
        <ele>930.69</ele>
        <time>2023-03-18T14:26:45Z</time>
      </trkpt>
      <trkpt lat="45.09906" lon="4.182">
        <ele>932.62</ele>
        <time>2023-03-18T14:26:59Z</time>
      </trkpt>
      <trkpt lat="45.09909" lon="4.18198">
        <ele>933.1</ele>
        <time>2023-03-18T14:27:00Z</time>
      </trkpt>
      <trkpt lat="45.09922" lon="4.18187">
        <ele>933.1</ele>
        <time>2023-03-18T14:27:11Z</time>
      </trkpt>
      <trkpt lat="45.09925" lon="4.18189">
        <ele>932.14</ele>
        <time>2023-03-18T14:27:13Z</time>
      </trkpt>
      <trkpt lat="45.09941" lon="4.18189">
        <ele>932.62</ele>
        <time>2023-03-18T14:27:26Z</time>
      </trkpt>
      <trkpt lat="45.09948" lon="4.18189">
        <ele>931.65</ele>
        <time>2023-03-18T14:27:34Z</time>
      </trkpt>
      <trkpt lat="45.0997" lon="4.18191">
        <ele>928.77</ele>
        <time>2023-03-18T14:27:48Z</time>
      </trkpt>
      <trkpt lat="45.09987" lon="4.18193">
        <ele>927.81</ele>
        <time>2023-03-18T14:28:00Z</time>
      </trkpt>
      <trkpt lat="45.09993" lon="4.18192">
        <ele>928.29</ele>
        <time>2023-03-18T14:28:06Z</time>
      </trkpt>
      <trkpt lat="45.10001" lon="4.18193">
        <ele>928.77</ele>
        <time>2023-03-18T14:28:12Z</time>
      </trkpt>
      <trkpt lat="45.10007" lon="4.18195">
        <ele>930.21</ele>
        <time>2023-03-18T14:28:23Z</time>
      </trkpt>
      <trkpt lat="45.10011" lon="4.18196">
        <ele>930.69</ele>
        <time>2023-03-18T14:28:33Z</time>
      </trkpt>
      <trkpt lat="45.1002" lon="4.18196">
        <ele>930.69</ele>
        <time>2023-03-18T14:28:41Z</time>
      </trkpt>
      <trkpt lat="45.10026" lon="4.18192">
        <ele>930.69</ele>
        <time>2023-03-18T14:28:46Z</time>
      </trkpt>
      <trkpt lat="45.10032" lon="4.18185">
        <ele>929.73</ele>
        <time>2023-03-18T14:28:55Z</time>
      </trkpt>
      <trkpt lat="45.10038" lon="4.18169">
        <ele>931.17</ele>
        <time>2023-03-18T14:29:04Z</time>
      </trkpt>
      <trkpt lat="45.10041" lon="4.18162">
        <ele>931.17</ele>
        <time>2023-03-18T14:29:08Z</time>
      </trkpt>
      <trkpt lat="45.10043" lon="4.18157">
        <ele>931.17</ele>
        <time>2023-03-18T14:29:11Z</time>
      </trkpt>
      <trkpt lat="45.10045" lon="4.18155">
        <ele>931.17</ele>
        <time>2023-03-18T14:29:13Z</time>
      </trkpt>
      <trkpt lat="45.10049" lon="4.18153">
        <ele>930.69</ele>
        <time>2023-03-18T14:29:18Z</time>
      </trkpt>
      <trkpt lat="45.10054" lon="4.18141">
        <ele>930.69</ele>
        <time>2023-03-18T14:29:25Z</time>
      </trkpt>
      <trkpt lat="45.10059" lon="4.18133">
        <ele>930.69</ele>
        <time>2023-03-18T14:29:30Z</time>
      </trkpt>
      <trkpt lat="45.10072" lon="4.18122">
        <ele>929.73</ele>
        <time>2023-03-18T14:29:43Z</time>
      </trkpt>
      <trkpt lat="45.10085" lon="4.18115">
        <ele>929.73</ele>
        <time>2023-03-18T14:29:54Z</time>
      </trkpt>
      <trkpt lat="45.10097" lon="4.18123">
        <ele>929.25</ele>
        <time>2023-03-18T14:30:06Z</time>
      </trkpt>
      <trkpt lat="45.10101" lon="4.18129">
        <ele>927.81</ele>
        <time>2023-03-18T14:30:18Z</time>
      </trkpt>
      <trkpt lat="45.10107" lon="4.18133">
        <ele>927.81</ele>
        <time>2023-03-18T14:30:30Z</time>
      </trkpt>
      <trkpt lat="45.10124" lon="4.18145">
        <ele>929.73</ele>
        <time>2023-03-18T14:30:44Z</time>
      </trkpt>
      <trkpt lat="45.1014" lon="4.18152">
        <ele>935.5</ele>
        <time>2023-03-18T14:30:57Z</time>
      </trkpt>
      <trkpt lat="45.10155" lon="4.18155">
        <ele>937.9</ele>
        <time>2023-03-18T14:31:09Z</time>
      </trkpt>
      <trkpt lat="45.10167" lon="4.1815">
        <ele>939.83</ele>
        <time>2023-03-18T14:31:22Z</time>
      </trkpt>
      <trkpt lat="45.10178" lon="4.18147">
        <ele>943.19</ele>
        <time>2023-03-18T14:31:35Z</time>
      </trkpt>
      <trkpt lat="45.10195" lon="4.18148">
        <ele>945.59</ele>
        <time>2023-03-18T14:31:49Z</time>
      </trkpt>
      <trkpt lat="45.10209" lon="4.18145">
        <ele>946.56</ele>
        <time>2023-03-18T14:32:01Z</time>
      </trkpt>
      <trkpt lat="45.10222" lon="4.18151">
        <ele>944.15</ele>
        <time>2023-03-18T14:32:13Z</time>
      </trkpt>
      <trkpt lat="45.10235" lon="4.18156">
        <ele>944.63</ele>
        <time>2023-03-18T14:32:25Z</time>
      </trkpt>
      <trkpt lat="45.10251" lon="4.18151">
        <ele>948.48</ele>
        <time>2023-03-18T14:32:38Z</time>
      </trkpt>
      <trkpt lat="45.10266" lon="4.18145">
        <ele>950.88</ele>
        <time>2023-03-18T14:32:51Z</time>
      </trkpt>
      <trkpt lat="45.1028" lon="4.18143">
        <ele>953.28</ele>
        <time>2023-03-18T14:33:03Z</time>
      </trkpt>
      <trkpt lat="45.10285" lon="4.18141">
        <ele>954.73</ele>
        <time>2023-03-18T14:33:08Z</time>
      </trkpt>
      <trkpt lat="45.10288" lon="4.18141">
        <ele>954.73</ele>
        <time>2023-03-18T14:33:11Z</time>
      </trkpt>
      <trkpt lat="45.10292" lon="4.18151">
        <ele>954.25</ele>
        <time>2023-03-18T14:33:18Z</time>
      </trkpt>
      <trkpt lat="45.10293" lon="4.18173">
        <ele>955.21</ele>
        <time>2023-03-18T14:33:30Z</time>
      </trkpt>
      <trkpt lat="45.10287" lon="4.18188">
        <ele>959.05</ele>
        <time>2023-03-18T14:33:44Z</time>
      </trkpt>
      <trkpt lat="45.10276" lon="4.18201">
        <ele>961.46</ele>
        <time>2023-03-18T14:33:57Z</time>
      </trkpt>
      <trkpt lat="45.10274" lon="4.18208">
        <ele>961.46</ele>
        <time>2023-03-18T14:34:04Z</time>
      </trkpt>
      <trkpt lat="45.10272" lon="4.18213">
        <ele>961.46</ele>
        <time>2023-03-18T14:34:08Z</time>
      </trkpt>
      <trkpt lat="45.1026" lon="4.18228">
        <ele>964.82</ele>
        <time>2023-03-18T14:34:21Z</time>
      </trkpt>
      <trkpt lat="45.10258" lon="4.18231">
        <ele>965.3</ele>
        <time>2023-03-18T14:34:24Z</time>
      </trkpt>
      <trkpt lat="45.10256" lon="4.18235">
        <ele>967.22</ele>
        <time>2023-03-18T14:34:28Z</time>
      </trkpt>
      <trkpt lat="45.10245" lon="4.18249">
        <ele>971.55</ele>
        <time>2023-03-18T14:34:40Z</time>
      </trkpt>
      <trkpt lat="45.10233" lon="4.18261">
        <ele>972.03</ele>
        <time>2023-03-18T14:34:51Z</time>
      </trkpt>
      <trkpt lat="45.10223" lon="4.18276">
        <ele>971.55</ele>
        <time>2023-03-18T14:35:04Z</time>
      </trkpt>
      <trkpt lat="45.10213" lon="4.1829">
        <ele>973.95</ele>
        <time>2023-03-18T14:35:16Z</time>
      </trkpt>
      <trkpt lat="45.10204" lon="4.18307">
        <ele>974.91</ele>
        <time>2023-03-18T14:35:29Z</time>
      </trkpt>
      <trkpt lat="45.10196" lon="4.18325">
        <ele>973.95</ele>
        <time>2023-03-18T14:35:41Z</time>
      </trkpt>
      <trkpt lat="45.10187" lon="4.18346">
        <ele>972.99</ele>
        <time>2023-03-18T14:35:56Z</time>
      </trkpt>
      <trkpt lat="45.10173" lon="4.18358">
        <ele>972.99</ele>
        <time>2023-03-18T14:36:08Z</time>
      </trkpt>
      <trkpt lat="45.10163" lon="4.18363">
        <ele>973.47</ele>
        <time>2023-03-18T14:36:16Z</time>
      </trkpt>
      <trkpt lat="45.10159" lon="4.18367">
        <ele>973.95</ele>
        <time>2023-03-18T14:36:19Z</time>
      </trkpt>
      <trkpt lat="45.10146" lon="4.18373">
        <ele>977.8</ele>
        <time>2023-03-18T14:36:32Z</time>
      </trkpt>
      <trkpt lat="45.1014" lon="4.18373">
        <ele>977.8</ele>
        <time>2023-03-18T14:36:37Z</time>
      </trkpt>
      <trkpt lat="45.10128" lon="4.18377">
        <ele>979.24</ele>
        <time>2023-03-18T14:36:45Z</time>
      </trkpt>
      <trkpt lat="45.10115" lon="4.18383">
        <ele>982.6</ele>
        <time>2023-03-18T14:36:58Z</time>
      </trkpt>
      <trkpt lat="45.10103" lon="4.18385">
        <ele>986.45</ele>
        <time>2023-03-18T14:37:09Z</time>
      </trkpt>
      <trkpt lat="45.10085" lon="4.18396">
        <ele>990.3</ele>
        <time>2023-03-18T14:37:23Z</time>
      </trkpt>
      <trkpt lat="45.10076" lon="4.184">
        <ele>993.66</ele>
        <time>2023-03-18T14:37:33Z</time>
      </trkpt>
      <trkpt lat="45.10067" lon="4.18404">
        <ele>995.58</ele>
        <time>2023-03-18T14:37:42Z</time>
      </trkpt>
      <trkpt lat="45.10055" lon="4.18408">
        <ele>997.99</ele>
        <time>2023-03-18T14:37:54Z</time>
      </trkpt>
      <trkpt lat="45.1004" lon="4.18413">
        <ele>996.54</ele>
        <time>2023-03-18T14:38:04Z</time>
      </trkpt>
      <trkpt lat="45.10032" lon="4.1842">
        <ele>995.58</ele>
        <time>2023-03-18T14:38:11Z</time>
      </trkpt>
      <trkpt lat="45.10017" lon="4.18429">
        <ele>995.1</ele>
        <time>2023-03-18T14:38:23Z</time>
      </trkpt>
      <trkpt lat="45.09999" lon="4.18441">
        <ele>995.58</ele>
        <time>2023-03-18T14:38:37Z</time>
      </trkpt>
      <trkpt lat="45.09989" lon="4.1845">
        <ele>996.54</ele>
        <time>2023-03-18T14:38:48Z</time>
      </trkpt>
      <trkpt lat="45.09976" lon="4.18461">
        <ele>997.02</ele>
        <time>2023-03-18T14:38:59Z</time>
      </trkpt>
      <trkpt lat="45.0996" lon="4.18475">
        <ele>997.99</ele>
        <time>2023-03-18T14:39:12Z</time>
      </trkpt>
      <trkpt lat="45.09948" lon="4.18488">
        <ele>997.99</ele>
        <time>2023-03-18T14:39:24Z</time>
      </trkpt>
      <trkpt lat="45.09936" lon="4.18497">
        <ele>998.47</ele>
        <time>2023-03-18T14:39:34Z</time>
      </trkpt>
      <trkpt lat="45.0992" lon="4.18511">
        <ele>1001.83</ele>
        <time>2023-03-18T14:39:48Z</time>
      </trkpt>
      <trkpt lat="45.09908" lon="4.18521">
        <ele>1002.79</ele>
        <time>2023-03-18T14:40:00Z</time>
      </trkpt>
      <trkpt lat="45.09895" lon="4.18531">
        <ele>1001.83</ele>
        <time>2023-03-18T14:40:11Z</time>
      </trkpt>
      <trkpt lat="45.09878" lon="4.18547">
        <ele>1001.83</ele>
        <time>2023-03-18T14:40:25Z</time>
      </trkpt>
      <trkpt lat="45.09863" lon="4.1856">
        <ele>1000.39</ele>
        <time>2023-03-18T14:40:38Z</time>
      </trkpt>
      <trkpt lat="45.09857" lon="4.18566">
        <ele>1000.39</ele>
        <time>2023-03-18T14:40:44Z</time>
      </trkpt>
      <trkpt lat="45.09839" lon="4.18579">
        <ele>1000.87</ele>
        <time>2023-03-18T14:40:59Z</time>
      </trkpt>
      <trkpt lat="45.09823" lon="4.18588">
        <ele>1001.83</ele>
        <time>2023-03-18T14:41:12Z</time>
      </trkpt>
      <trkpt lat="45.09805" lon="4.18597">
        <ele>1003.27</ele>
        <time>2023-03-18T14:41:28Z</time>
      </trkpt>
      <trkpt lat="45.0979" lon="4.18605">
        <ele>1004.72</ele>
        <time>2023-03-18T14:41:41Z</time>
      </trkpt>
      <trkpt lat="45.09772" lon="4.18611">
        <ele>1006.64</ele>
        <time>2023-03-18T14:41:55Z</time>
      </trkpt>
      <trkpt lat="45.09752" lon="4.18615">
        <ele>1009.04</ele>
        <time>2023-03-18T14:42:11Z</time>
      </trkpt>
      <trkpt lat="45.09734" lon="4.18626">
        <ele>1012.41</ele>
        <time>2023-03-18T14:42:27Z</time>
      </trkpt>
      <trkpt lat="45.09718" lon="4.18637">
        <ele>1014.81</ele>
        <time>2023-03-18T14:42:41Z</time>
      </trkpt>
      <trkpt lat="45.09705" lon="4.18647">
        <ele>1017.21</ele>
        <time>2023-03-18T14:42:54Z</time>
      </trkpt>
      <trkpt lat="45.09693" lon="4.18658">
        <ele>1019.62</ele>
        <time>2023-03-18T14:43:06Z</time>
      </trkpt>
      <trkpt lat="45.09678" lon="4.18669">
        <ele>1022.02</ele>
        <time>2023-03-18T14:43:19Z</time>
      </trkpt>
      <trkpt lat="45.09666" lon="4.18677">
        <ele>1022.5</ele>
        <time>2023-03-18T14:43:31Z</time>
      </trkpt>
      <trkpt lat="45.09652" lon="4.18685">
        <ele>1024.42</ele>
        <time>2023-03-18T14:43:44Z</time>
      </trkpt>
      <trkpt lat="45.09639" lon="4.18693">
        <ele>1028.27</ele>
        <time>2023-03-18T14:43:58Z</time>
      </trkpt>
      <trkpt lat="45.09623" lon="4.18695">
        <ele>1030.67</ele>
        <time>2023-03-18T14:44:10Z</time>
      </trkpt>
      <trkpt lat="45.09609" lon="4.18699">
        <ele>1032.11</ele>
        <time>2023-03-18T14:44:22Z</time>
      </trkpt>
      <trkpt lat="45.09606" lon="4.18701">
        <ele>1031.63</ele>
        <time>2023-03-18T14:44:25Z</time>
      </trkpt>
      <trkpt lat="45.09607" lon="4.18712">
        <ele>1031.63</ele>
        <time>2023-03-18T14:44:37Z</time>
      </trkpt>
      <trkpt lat="45.09607" lon="4.18718">
        <ele>1033.07</ele>
        <time>2023-03-18T14:44:50Z</time>
      </trkpt>
      <trkpt lat="45.09607" lon="4.18718">
        <ele>1032.59</ele>
        <time>2023-03-18T14:45:12Z</time>
      </trkpt>
      <trkpt lat="45.09607" lon="4.18718">
        <ele>1033.07</ele>
        <time>2023-03-18T14:45:32Z</time>
      </trkpt>
      <trkpt lat="45.09606" lon="4.18718">
        <ele>1032.59</ele>
        <time>2023-03-18T14:46:12Z</time>
      </trkpt>
      <trkpt lat="45.09604" lon="4.18712">
        <ele>1033.07</ele>
        <time>2023-03-18T14:46:28Z</time>
      </trkpt>
      <trkpt lat="45.09593" lon="4.18708">
        <ele>1031.63</ele>
        <time>2023-03-18T14:46:40Z</time>
      </trkpt>
      <trkpt lat="45.0959" lon="4.18709">
        <ele>1031.15</ele>
        <time>2023-03-18T14:46:44Z</time>
      </trkpt>
      <trkpt lat="45.09588" lon="4.1871">
        <ele>1031.63</ele>
        <time>2023-03-18T14:46:46Z</time>
      </trkpt>
      <trkpt lat="45.09575" lon="4.18717">
        <ele>1032.11</ele>
        <time>2023-03-18T14:47:00Z</time>
      </trkpt>
      <trkpt lat="45.0956" lon="4.18721">
        <ele>1031.63</ele>
        <time>2023-03-18T14:47:13Z</time>
      </trkpt>
      <trkpt lat="45.09543" lon="4.18727">
        <ele>1032.11</ele>
        <time>2023-03-18T14:47:29Z</time>
      </trkpt>
      <trkpt lat="45.0953" lon="4.18734">
        <ele>1035</ele>
        <time>2023-03-18T14:47:44Z</time>
      </trkpt>
      <trkpt lat="45.09523" lon="4.18736">
        <ele>1035.48</ele>
        <time>2023-03-18T14:47:50Z</time>
      </trkpt>
      <trkpt lat="45.09508" lon="4.1874">
        <ele>1038.36</ele>
        <time>2023-03-18T14:48:03Z</time>
      </trkpt>
      <trkpt lat="45.09505" lon="4.18739">
        <ele>1038.36</ele>
        <time>2023-03-18T14:48:06Z</time>
      </trkpt>
      <trkpt lat="45.09486" lon="4.18741">
        <ele>1037.4</ele>
        <time>2023-03-18T14:48:22Z</time>
      </trkpt>
      <trkpt lat="45.09485" lon="4.18741">
        <ele>1037.4</ele>
        <time>2023-03-18T14:48:23Z</time>
      </trkpt>
      <trkpt lat="45.09483" lon="4.18743">
        <ele>1037.88</ele>
        <time>2023-03-18T14:48:26Z</time>
      </trkpt>
      <trkpt lat="45.09465" lon="4.18742">
        <ele>1038.36</ele>
        <time>2023-03-18T14:48:40Z</time>
      </trkpt>
      <trkpt lat="45.09446" lon="4.18741">
        <ele>1039.32</ele>
        <time>2023-03-18T14:48:55Z</time>
      </trkpt>
      <trkpt lat="45.09434" lon="4.18741">
        <ele>1040.76</ele>
        <time>2023-03-18T14:49:05Z</time>
      </trkpt>
      <trkpt lat="45.09415" lon="4.18743">
        <ele>1040.28</ele>
        <time>2023-03-18T14:49:21Z</time>
      </trkpt>
      <trkpt lat="45.094" lon="4.18749">
        <ele>1041.73</ele>
        <time>2023-03-18T14:49:35Z</time>
      </trkpt>
      <trkpt lat="45.09393" lon="4.18752">
        <ele>1042.21</ele>
        <time>2023-03-18T14:49:41Z</time>
      </trkpt>
      <trkpt lat="45.09381" lon="4.1876">
        <ele>1044.13</ele>
        <time>2023-03-18T14:49:55Z</time>
      </trkpt>
      <trkpt lat="45.09369" lon="4.1877">
        <ele>1045.57</ele>
        <time>2023-03-18T14:50:08Z</time>
      </trkpt>
      <trkpt lat="45.09356" lon="4.18779">
        <ele>1047.49</ele>
        <time>2023-03-18T14:50:22Z</time>
      </trkpt>
      <trkpt lat="45.09346" lon="4.18782">
        <ele>1047.97</ele>
        <time>2023-03-18T14:50:36Z</time>
      </trkpt>
      <trkpt lat="45.09335" lon="4.18789">
        <ele>1049.42</ele>
        <time>2023-03-18T14:50:48Z</time>
      </trkpt>
      <trkpt lat="45.09333" lon="4.18796">
        <ele>1049.42</ele>
        <time>2023-03-18T14:51:01Z</time>
      </trkpt>
      <trkpt lat="45.09333" lon="4.18798">
        <ele>1049.9</ele>
        <time>2023-03-18T14:51:03Z</time>
      </trkpt>
      <trkpt lat="45.09335" lon="4.18807">
        <ele>1051.82</ele>
        <time>2023-03-18T14:51:11Z</time>
      </trkpt>
      <trkpt lat="45.09341" lon="4.18817">
        <ele>1052.3</ele>
        <time>2023-03-18T14:51:25Z</time>
      </trkpt>
      <trkpt lat="45.09347" lon="4.18832">
        <ele>1052.78</ele>
        <time>2023-03-18T14:51:38Z</time>
      </trkpt>
      <trkpt lat="45.09348" lon="4.18851">
        <ele>1053.26</ele>
        <time>2023-03-18T14:51:50Z</time>
      </trkpt>
      <trkpt lat="45.0935" lon="4.1887">
        <ele>1052.78</ele>
        <time>2023-03-18T14:52:04Z</time>
      </trkpt>
      <trkpt lat="45.0935" lon="4.18887">
        <ele>1051.82</ele>
        <time>2023-03-18T14:52:14Z</time>
      </trkpt>
      <trkpt lat="45.09351" lon="4.18903">
        <ele>1050.38</ele>
        <time>2023-03-18T14:52:24Z</time>
      </trkpt>
      <trkpt lat="45.09352" lon="4.18932">
        <ele>1053.26</ele>
        <time>2023-03-18T14:52:40Z</time>
      </trkpt>
      <trkpt lat="45.09353" lon="4.18956">
        <ele>1053.26</ele>
        <time>2023-03-18T14:52:53Z</time>
      </trkpt>
      <trkpt lat="45.09355" lon="4.1898">
        <ele>1053.74</ele>
        <time>2023-03-18T14:53:07Z</time>
      </trkpt>
      <trkpt lat="45.09356" lon="4.18991">
        <ele>1054.22</ele>
        <time>2023-03-18T14:53:13Z</time>
      </trkpt>
      <trkpt lat="45.09356" lon="4.19001">
        <ele>1054.7</ele>
        <time>2023-03-18T14:53:19Z</time>
      </trkpt>
      <trkpt lat="45.09355" lon="4.19025">
        <ele>1052.78</ele>
        <time>2023-03-18T14:53:33Z</time>
      </trkpt>
      <trkpt lat="45.09355" lon="4.19043">
        <ele>1053.26</ele>
        <time>2023-03-18T14:53:43Z</time>
      </trkpt>
      <trkpt lat="45.09353" lon="4.1905">
        <ele>1053.74</ele>
        <time>2023-03-18T14:53:47Z</time>
      </trkpt>
      <trkpt lat="45.09351" lon="4.19078">
        <ele>1054.22</ele>
        <time>2023-03-18T14:54:02Z</time>
      </trkpt>
      <trkpt lat="45.09349" lon="4.19091">
        <ele>1055.18</ele>
        <time>2023-03-18T14:54:10Z</time>
      </trkpt>
      <trkpt lat="45.09348" lon="4.19091">
        <ele>1056.63</ele>
        <time>2023-03-18T14:54:23Z</time>
      </trkpt>
      <trkpt lat="45.09348" lon="4.1909">
        <ele>1054.7</ele>
        <time>2023-03-18T14:54:38Z</time>
      </trkpt>
      <trkpt lat="45.09338" lon="4.19088">
        <ele>1053.26</ele>
        <time>2023-03-18T14:54:49Z</time>
      </trkpt>
      <trkpt lat="45.09317" lon="4.19079">
        <ele>1055.18</ele>
        <time>2023-03-18T14:55:08Z</time>
      </trkpt>
      <trkpt lat="45.09298" lon="4.19062">
        <ele>1059.99</ele>
        <time>2023-03-18T14:55:30Z</time>
      </trkpt>
      <trkpt lat="45.09287" lon="4.19034">
        <ele>1064.8</ele>
        <time>2023-03-18T14:55:50Z</time>
      </trkpt>
      <trkpt lat="45.09268" lon="4.19018">
        <ele>1071.05</ele>
        <time>2023-03-18T14:56:10Z</time>
      </trkpt>
      <trkpt lat="45.09247" lon="4.19022">
        <ele>1074.89</ele>
        <time>2023-03-18T14:56:28Z</time>
      </trkpt>
      <trkpt lat="45.09226" lon="4.19017">
        <ele>1077.78</ele>
        <time>2023-03-18T14:56:48Z</time>
      </trkpt>
      <trkpt lat="45.09201" lon="4.19005">
        <ele>1079.7</ele>
        <time>2023-03-18T14:57:10Z</time>
      </trkpt>
      <trkpt lat="45.092" lon="4.19004">
        <ele>1079.7</ele>
        <time>2023-03-18T14:57:12Z</time>
      </trkpt>
      <trkpt lat="45.09181" lon="4.18973">
        <ele>1081.14</ele>
        <time>2023-03-18T14:57:31Z</time>
      </trkpt>
      <trkpt lat="45.09167" lon="4.18964">
        <ele>1086.91</ele>
        <time>2023-03-18T14:57:47Z</time>
      </trkpt>
      <trkpt lat="45.09142" lon="4.18969">
        <ele>1089.31</ele>
        <time>2023-03-18T14:58:08Z</time>
      </trkpt>
      <trkpt lat="45.09118" lon="4.18972">
        <ele>1097.48</ele>
        <time>2023-03-18T14:58:27Z</time>
      </trkpt>
      <trkpt lat="45.09097" lon="4.18978">
        <ele>1100.37</ele>
        <time>2023-03-18T14:58:49Z</time>
      </trkpt>
      <trkpt lat="45.09069" lon="4.18978">
        <ele>1105.65</ele>
        <time>2023-03-18T14:59:10Z</time>
      </trkpt>
      <trkpt lat="45.09045" lon="4.18989">
        <ele>1107.58</ele>
        <time>2023-03-18T14:59:27Z</time>
      </trkpt>
      <trkpt lat="45.09018" lon="4.18993">
        <ele>1111.42</ele>
        <time>2023-03-18T14:59:48Z</time>
      </trkpt>
      <trkpt lat="45.08984" lon="4.18983">
        <ele>1111.42</ele>
        <time>2023-03-18T15:00:13Z</time>
      </trkpt>
      <trkpt lat="45.08965" lon="4.18983">
        <ele>1108.54</ele>
        <time>2023-03-18T15:00:30Z</time>
      </trkpt>
      <trkpt lat="45.08946" lon="4.18984">
        <ele>1108.06</ele>
        <time>2023-03-18T15:00:49Z</time>
      </trkpt>
      <trkpt lat="45.08908" lon="4.18996">
        <ele>1112.86</ele>
        <time>2023-03-18T15:01:09Z</time>
      </trkpt>
      <trkpt lat="45.08882" lon="4.18998">
        <ele>1114.31</ele>
        <time>2023-03-18T15:01:32Z</time>
      </trkpt>
      <trkpt lat="45.08873" lon="4.18997">
        <ele>1112.38</ele>
        <time>2023-03-18T15:01:38Z</time>
      </trkpt>
      <trkpt lat="45.0884" lon="4.18997">
        <ele>1110.94</ele>
        <time>2023-03-18T15:01:59Z</time>
      </trkpt>
      <trkpt lat="45.08835" lon="4.18997">
        <ele>1110.46</ele>
        <time>2023-03-18T15:02:04Z</time>
      </trkpt>
      <trkpt lat="45.0881" lon="4.18995">
        <ele>1111.42</ele>
        <time>2023-03-18T15:02:24Z</time>
      </trkpt>
      <trkpt lat="45.08781" lon="4.18995">
        <ele>1111.42</ele>
        <time>2023-03-18T15:02:46Z</time>
      </trkpt>
      <trkpt lat="45.08755" lon="4.18992">
        <ele>1111.9</ele>
        <time>2023-03-18T15:03:07Z</time>
      </trkpt>
      <trkpt lat="45.08738" lon="4.19001">
        <ele>1113.34</ele>
        <time>2023-03-18T15:03:26Z</time>
      </trkpt>
      <trkpt lat="45.08739" lon="4.19003">
        <ele>1113.34</ele>
        <time>2023-03-18T15:03:28Z</time>
      </trkpt>
      <trkpt lat="45.08749" lon="4.19028">
        <ele>1112.38</ele>
        <time>2023-03-18T15:03:45Z</time>
      </trkpt>
      <trkpt lat="45.08753" lon="4.19059">
        <ele>1114.31</ele>
        <time>2023-03-18T15:04:04Z</time>
      </trkpt>
      <trkpt lat="45.08746" lon="4.19093">
        <ele>1116.71</ele>
        <time>2023-03-18T15:04:25Z</time>
      </trkpt>
      <trkpt lat="45.08738" lon="4.19129">
        <ele>1114.79</ele>
        <time>2023-03-18T15:04:45Z</time>
      </trkpt>
      <trkpt lat="45.08728" lon="4.19156">
        <ele>1112.38</ele>
        <time>2023-03-18T15:05:03Z</time>
      </trkpt>
      <trkpt lat="45.08717" lon="4.19185">
        <ele>1110.94</ele>
        <time>2023-03-18T15:05:21Z</time>
      </trkpt>
      <trkpt lat="45.0871" lon="4.19195">
        <ele>1108.54</ele>
        <time>2023-03-18T15:05:30Z</time>
      </trkpt>
      <trkpt lat="45.087" lon="4.19203">
        <ele>1108.06</ele>
        <time>2023-03-18T15:05:45Z</time>
      </trkpt>
      <trkpt lat="45.08701" lon="4.19203">
        <ele>1108.54</ele>
        <time>2023-03-18T15:06:09Z</time>
      </trkpt>
      <trkpt lat="45.087" lon="4.19205">
        <ele>1107.1</ele>
        <time>2023-03-18T15:06:41Z</time>
      </trkpt>
      <trkpt lat="45.08701" lon="4.19202">
        <ele>1108.06</ele>
        <time>2023-03-18T15:07:00Z</time>
      </trkpt>
      <trkpt lat="45.087" lon="4.19202">
        <ele>1110.94</ele>
        <time>2023-03-18T15:07:24Z</time>
      </trkpt>
      <trkpt lat="45.087" lon="4.19204">
        <ele>1110.94</ele>
        <time>2023-03-18T15:07:38Z</time>
      </trkpt>
      <trkpt lat="45.087" lon="4.19204">
        <ele>1110.94</ele>
        <time>2023-03-18T15:08:01Z</time>
      </trkpt>
      <trkpt lat="45.08699" lon="4.19205">
        <ele>1110.94</ele>
        <time>2023-03-18T15:08:17Z</time>
      </trkpt>
      <trkpt lat="45.08699" lon="4.19205">
        <ele>1111.42</ele>
        <time>2023-03-18T15:08:36Z</time>
      </trkpt>
      <trkpt lat="45.087" lon="4.19207">
        <ele>1110.94</ele>
        <time>2023-03-18T15:08:51Z</time>
      </trkpt>
      <trkpt lat="45.08699" lon="4.19209">
        <ele>1109.98</ele>
        <time>2023-03-18T15:09:15Z</time>
      </trkpt>
      <trkpt lat="45.08698" lon="4.19213">
        <ele>1109.98</ele>
        <time>2023-03-18T15:09:35Z</time>
      </trkpt>
      <trkpt lat="45.08697" lon="4.19216">
        <ele>1109.02</ele>
        <time>2023-03-18T15:09:48Z</time>
      </trkpt>
      <trkpt lat="45.08698" lon="4.19214">
        <ele>1109.02</ele>
        <time>2023-03-18T15:10:03Z</time>
      </trkpt>
      <trkpt lat="45.08697" lon="4.19215">
        <ele>1108.54</ele>
        <time>2023-03-18T15:10:21Z</time>
      </trkpt>
      <trkpt lat="45.08697" lon="4.19215">
        <ele>1108.06</ele>
        <time>2023-03-18T15:10:42Z</time>
      </trkpt>
      <trkpt lat="45.08697" lon="4.19215">
        <ele>1109.02</ele>
        <time>2023-03-18T15:11:07Z</time>
      </trkpt>
      <trkpt lat="45.08698" lon="4.19215">
        <ele>1109.5</ele>
        <time>2023-03-18T15:11:30Z</time>
      </trkpt>
      <trkpt lat="45.08697" lon="4.19215">
        <ele>1109.5</ele>
        <time>2023-03-18T15:11:50Z</time>
      </trkpt>
      <trkpt lat="45.08697" lon="4.19215">
        <ele>1109.98</ele>
        <time>2023-03-18T15:12:12Z</time>
      </trkpt>
      <trkpt lat="45.08696" lon="4.19215">
        <ele>1110.46</ele>
        <time>2023-03-18T15:12:34Z</time>
      </trkpt>
      <trkpt lat="45.08696" lon="4.19214">
        <ele>1110.46</ele>
        <time>2023-03-18T15:12:55Z</time>
      </trkpt>
      <trkpt lat="45.08696" lon="4.19214">
        <ele>1110.94</ele>
        <time>2023-03-18T15:13:11Z</time>
      </trkpt>
      <trkpt lat="45.08691" lon="4.19214">
        <ele>1111.42</ele>
        <time>2023-03-18T15:13:27Z</time>
      </trkpt>
      <trkpt lat="45.08691" lon="4.19216">
        <ele>1110.94</ele>
        <time>2023-03-18T15:13:29Z</time>
      </trkpt>
      <trkpt lat="45.08685" lon="4.19229">
        <ele>1109.5</ele>
        <time>2023-03-18T15:13:37Z</time>
      </trkpt>
      <trkpt lat="45.08672" lon="4.19263">
        <ele>1106.61</ele>
        <time>2023-03-18T15:13:56Z</time>
      </trkpt>
      <trkpt lat="45.08657" lon="4.19299">
        <ele>1103.25</ele>
        <time>2023-03-18T15:14:17Z</time>
      </trkpt>
      <trkpt lat="45.08644" lon="4.19328">
        <ele>1102.29</ele>
        <time>2023-03-18T15:14:33Z</time>
      </trkpt>
      <trkpt lat="45.08622" lon="4.1936">
        <ele>1102.29</ele>
        <time>2023-03-18T15:14:56Z</time>
      </trkpt>
      <trkpt lat="45.08607" lon="4.19394">
        <ele>1099.89</ele>
        <time>2023-03-18T15:15:14Z</time>
      </trkpt>
      <trkpt lat="45.08604" lon="4.19412">
        <ele>1098.92</ele>
        <time>2023-03-18T15:15:22Z</time>
      </trkpt>
      <trkpt lat="45.08598" lon="4.19432">
        <ele>1098.44</ele>
        <time>2023-03-18T15:15:31Z</time>
      </trkpt>
      <trkpt lat="45.08587" lon="4.19458">
        <ele>1097.96</ele>
        <time>2023-03-18T15:15:46Z</time>
      </trkpt>
      <trkpt lat="45.08574" lon="4.19492">
        <ele>1098.92</ele>
        <time>2023-03-18T15:16:02Z</time>
      </trkpt>
      <trkpt lat="45.08573" lon="4.19499">
        <ele>1099.89</ele>
        <time>2023-03-18T15:16:06Z</time>
      </trkpt>
      <trkpt lat="45.08572" lon="4.19503">
        <ele>1099.89</ele>
        <time>2023-03-18T15:16:08Z</time>
      </trkpt>
      <trkpt lat="45.08568" lon="4.19514">
        <ele>1099.4</ele>
        <time>2023-03-18T15:16:13Z</time>
      </trkpt>
      <trkpt lat="45.0856" lon="4.19532">
        <ele>1097.96</ele>
        <time>2023-03-18T15:16:22Z</time>
      </trkpt>
      <trkpt lat="45.08552" lon="4.1957">
        <ele>1097</ele>
        <time>2023-03-18T15:16:40Z</time>
      </trkpt>
      <trkpt lat="45.0854" lon="4.19605">
        <ele>1101.33</ele>
        <time>2023-03-18T15:16:57Z</time>
      </trkpt>
      <trkpt lat="45.0853" lon="4.1963">
        <ele>1104.21</ele>
        <time>2023-03-18T15:17:11Z</time>
      </trkpt>
      <trkpt lat="45.08514" lon="4.19663">
        <ele>1104.21</ele>
        <time>2023-03-18T15:17:30Z</time>
      </trkpt>
      <trkpt lat="45.08499" lon="4.19695">
        <ele>1104.21</ele>
        <time>2023-03-18T15:17:46Z</time>
      </trkpt>
      <trkpt lat="45.08488" lon="4.1972">
        <ele>1104.69</ele>
        <time>2023-03-18T15:18:03Z</time>
      </trkpt>
      <trkpt lat="45.08471" lon="4.19746">
        <ele>1104.69</ele>
        <time>2023-03-18T15:18:20Z</time>
      </trkpt>
      <trkpt lat="45.08461" lon="4.19774">
        <ele>1099.4</ele>
        <time>2023-03-18T15:18:34Z</time>
      </trkpt>
      <trkpt lat="45.08447" lon="4.19795">
        <ele>1095.08</ele>
        <time>2023-03-18T15:18:48Z</time>
      </trkpt>
      <trkpt lat="45.08429" lon="4.19819">
        <ele>1091.23</ele>
        <time>2023-03-18T15:19:03Z</time>
      </trkpt>
      <trkpt lat="45.08404" lon="4.19846">
        <ele>1085.47</ele>
        <time>2023-03-18T15:19:22Z</time>
      </trkpt>
      <trkpt lat="45.08387" lon="4.19864">
        <ele>1083.54</ele>
        <time>2023-03-18T15:19:37Z</time>
      </trkpt>
      <trkpt lat="45.08369" lon="4.19878">
        <ele>1083.06</ele>
        <time>2023-03-18T15:19:53Z</time>
      </trkpt>
      <trkpt lat="45.0835" lon="4.19892">
        <ele>1081.62</ele>
        <time>2023-03-18T15:20:08Z</time>
      </trkpt>
      <trkpt lat="45.08329" lon="4.19906">
        <ele>1076.81</ele>
        <time>2023-03-18T15:20:26Z</time>
      </trkpt>
      <trkpt lat="45.08305" lon="4.19931">
        <ele>1073.93</ele>
        <time>2023-03-18T15:20:45Z</time>
      </trkpt>
      <trkpt lat="45.08287" lon="4.19958">
        <ele>1073.45</ele>
        <time>2023-03-18T15:21:04Z</time>
      </trkpt>
      <trkpt lat="45.08267" lon="4.19985">
        <ele>1072.01</ele>
        <time>2023-03-18T15:21:22Z</time>
      </trkpt>
      <trkpt lat="45.08249" lon="4.20008">
        <ele>1070.57</ele>
        <time>2023-03-18T15:21:38Z</time>
      </trkpt>
      <trkpt lat="45.08232" lon="4.20032">
        <ele>1069.12</ele>
        <time>2023-03-18T15:21:56Z</time>
      </trkpt>
      <trkpt lat="45.08212" lon="4.20058">
        <ele>1067.68</ele>
        <time>2023-03-18T15:22:14Z</time>
      </trkpt>
      <trkpt lat="45.08195" lon="4.20084">
        <ele>1064.8</ele>
        <time>2023-03-18T15:22:33Z</time>
      </trkpt>
      <trkpt lat="45.08179" lon="4.20103">
        <ele>1062.39</ele>
        <time>2023-03-18T15:22:50Z</time>
      </trkpt>
      <trkpt lat="45.08164" lon="4.20125">
        <ele>1059.99</ele>
        <time>2023-03-18T15:23:06Z</time>
      </trkpt>
      <trkpt lat="45.08154" lon="4.20144">
        <ele>1060.95</ele>
        <time>2023-03-18T15:23:20Z</time>
      </trkpt>
      <trkpt lat="45.08142" lon="4.2016">
        <ele>1060.47</ele>
        <time>2023-03-18T15:23:34Z</time>
      </trkpt>
      <trkpt lat="45.08128" lon="4.20184">
        <ele>1059.51</ele>
        <time>2023-03-18T15:23:51Z</time>
      </trkpt>
      <trkpt lat="45.08118" lon="4.20208">
        <ele>1058.07</ele>
        <time>2023-03-18T15:24:07Z</time>
      </trkpt>
      <trkpt lat="45.08109" lon="4.20234">
        <ele>1058.07</ele>
        <time>2023-03-18T15:24:23Z</time>
      </trkpt>
      <trkpt lat="45.08103" lon="4.20258">
        <ele>1059.99</ele>
        <time>2023-03-18T15:24:36Z</time>
      </trkpt>
      <trkpt lat="45.08089" lon="4.20287">
        <ele>1062.87</ele>
        <time>2023-03-18T15:24:54Z</time>
      </trkpt>
      <trkpt lat="45.08081" lon="4.20314">
        <ele>1064.32</ele>
        <time>2023-03-18T15:25:11Z</time>
      </trkpt>
      <trkpt lat="45.0807" lon="4.20355">
        <ele>1065.76</ele>
        <time>2023-03-18T15:25:33Z</time>
      </trkpt>
      <trkpt lat="45.08054" lon="4.20387">
        <ele>1068.16</ele>
        <time>2023-03-18T15:25:56Z</time>
      </trkpt>
      <trkpt lat="45.08058" lon="4.20403">
        <ele>1064.32</ele>
        <time>2023-03-18T15:26:12Z</time>
      </trkpt>
      <trkpt lat="45.08033" lon="4.20406">
        <ele>1062.87</ele>
        <time>2023-03-18T15:26:34Z</time>
      </trkpt>
      <trkpt lat="45.07999" lon="4.20417">
        <ele>1055.18</ele>
        <time>2023-03-18T15:26:58Z</time>
      </trkpt>
      <trkpt lat="45.0798" lon="4.20442">
        <ele>1054.22</ele>
        <time>2023-03-18T15:27:20Z</time>
      </trkpt>
      <trkpt lat="45.07954" lon="4.20439">
        <ele>1050.38</ele>
        <time>2023-03-18T15:27:43Z</time>
      </trkpt>
      <trkpt lat="45.07925" lon="4.20438">
        <ele>1049.42</ele>
        <time>2023-03-18T15:28:03Z</time>
      </trkpt>
      <trkpt lat="45.07906" lon="4.20431">
        <ele>1052.3</ele>
        <time>2023-03-18T15:28:25Z</time>
      </trkpt>
      <trkpt lat="45.07902" lon="4.20436">
        <ele>1054.22</ele>
        <time>2023-03-18T15:28:31Z</time>
      </trkpt>
      <trkpt lat="45.07896" lon="4.20441">
        <ele>1054.7</ele>
        <time>2023-03-18T15:28:52Z</time>
      </trkpt>
      <trkpt lat="45.07888" lon="4.20437">
        <ele>1057.59</ele>
        <time>2023-03-18T15:29:19Z</time>
      </trkpt>
      <trkpt lat="45.07885" lon="4.20432">
        <ele>1058.07</ele>
        <time>2023-03-18T15:29:44Z</time>
      </trkpt>
      <trkpt lat="45.0788" lon="4.20439">
        <ele>1059.03</ele>
        <time>2023-03-18T15:30:01Z</time>
      </trkpt>
      <trkpt lat="45.07876" lon="4.20459">
        <ele>1056.15</ele>
        <time>2023-03-18T15:30:20Z</time>
      </trkpt>
      <trkpt lat="45.07874" lon="4.20475">
        <ele>1056.15</ele>
        <time>2023-03-18T15:30:36Z</time>
      </trkpt>
      <trkpt lat="45.07872" lon="4.20483">
        <ele>1056.15</ele>
        <time>2023-03-18T15:30:55Z</time>
      </trkpt>
      <trkpt lat="45.07864" lon="4.205">
        <ele>1053.74</ele>
        <time>2023-03-18T15:31:09Z</time>
      </trkpt>
      <trkpt lat="45.07857" lon="4.20517">
        <ele>1052.78</ele>
        <time>2023-03-18T15:31:24Z</time>
      </trkpt>
      <trkpt lat="45.07859" lon="4.20541">
        <ele>1050.86</ele>
        <time>2023-03-18T15:31:42Z</time>
      </trkpt>
      <trkpt lat="45.07862" lon="4.20552">
        <ele>1046.53</ele>
        <time>2023-03-18T15:32:01Z</time>
      </trkpt>
      <trkpt lat="45.07869" lon="4.20571">
        <ele>1043.17</ele>
        <time>2023-03-18T15:32:19Z</time>
      </trkpt>
      <trkpt lat="45.07881" lon="4.20578">
        <ele>1043.65</ele>
        <time>2023-03-18T15:32:35Z</time>
      </trkpt>
      <trkpt lat="45.07902" lon="4.20585">
        <ele>1040.76</ele>
        <time>2023-03-18T15:32:53Z</time>
      </trkpt>
      <trkpt lat="45.07907" lon="4.20588">
        <ele>1040.76</ele>
        <time>2023-03-18T15:33:11Z</time>
      </trkpt>
      <trkpt lat="45.07893" lon="4.20582">
        <ele>1038.36</ele>
        <time>2023-03-18T15:33:26Z</time>
      </trkpt>
      <trkpt lat="45.07892" lon="4.20582">
        <ele>1038.36</ele>
        <time>2023-03-18T15:33:27Z</time>
      </trkpt>
      <trkpt lat="45.07871" lon="4.20577">
        <ele>1041.25</ele>
        <time>2023-03-18T15:33:45Z</time>
      </trkpt>
      <trkpt lat="45.07856" lon="4.2058">
        <ele>1042.21</ele>
        <time>2023-03-18T15:34:01Z</time>
      </trkpt>
      <trkpt lat="45.07852" lon="4.20587">
        <ele>1041.25</ele>
        <time>2023-03-18T15:34:06Z</time>
      </trkpt>
      <trkpt lat="45.07842" lon="4.20602">
        <ele>1037.88</ele>
        <time>2023-03-18T15:34:19Z</time>
      </trkpt>
      <trkpt lat="45.07826" lon="4.20602">
        <ele>1035</ele>
        <time>2023-03-18T15:34:32Z</time>
      </trkpt>
      <trkpt lat="45.07824" lon="4.20602">
        <ele>1034.52</ele>
        <time>2023-03-18T15:34:33Z</time>
      </trkpt>
      <trkpt lat="45.07806" lon="4.20595">
        <ele>1032.11</ele>
        <time>2023-03-18T15:34:52Z</time>
      </trkpt>
      <trkpt lat="45.07804" lon="4.20598">
        <ele>1032.59</ele>
        <time>2023-03-18T15:34:55Z</time>
      </trkpt>
      <trkpt lat="45.07795" lon="4.20612">
        <ele>1033.55</ele>
        <time>2023-03-18T15:35:10Z</time>
      </trkpt>
      <trkpt lat="45.07774" lon="4.2063">
        <ele>1033.55</ele>
        <time>2023-03-18T15:35:29Z</time>
      </trkpt>
      <trkpt lat="45.07759" lon="4.20643">
        <ele>1030.67</ele>
        <time>2023-03-18T15:35:43Z</time>
      </trkpt>
      <trkpt lat="45.07731" lon="4.20665">
        <ele>1027.79</ele>
        <time>2023-03-18T15:36:05Z</time>
      </trkpt>
      <trkpt lat="45.07725" lon="4.20676">
        <ele>1026.34</ele>
        <time>2023-03-18T15:36:12Z</time>
      </trkpt>
      <trkpt lat="45.07707" lon="4.20717">
        <ele>1018.17</ele>
        <time>2023-03-18T15:36:37Z</time>
      </trkpt>
      <trkpt lat="45.07701" lon="4.20734">
        <ele>1023.46</ele>
        <time>2023-03-18T15:36:47Z</time>
      </trkpt>
      <trkpt lat="45.07695" lon="4.20756">
        <ele>1031.15</ele>
        <time>2023-03-18T15:37:02Z</time>
      </trkpt>
      <trkpt lat="45.07683" lon="4.20772">
        <ele>1031.63</ele>
        <time>2023-03-18T15:37:16Z</time>
      </trkpt>
      <trkpt lat="45.07669" lon="4.20795">
        <ele>1031.15</ele>
        <time>2023-03-18T15:37:35Z</time>
      </trkpt>
      <trkpt lat="45.07665" lon="4.20803">
        <ele>1031.15</ele>
        <time>2023-03-18T15:37:41Z</time>
      </trkpt>
      <trkpt lat="45.07655" lon="4.20815">
        <ele>1029.23</ele>
        <time>2023-03-18T15:37:54Z</time>
      </trkpt>
      <trkpt lat="45.07649" lon="4.20819">
        <ele>1028.27</ele>
        <time>2023-03-18T15:37:59Z</time>
      </trkpt>
      <trkpt lat="45.07622" lon="4.20841">
        <ele>1025.38</ele>
        <time>2023-03-18T15:38:22Z</time>
      </trkpt>
      <trkpt lat="45.07606" lon="4.20866">
        <ele>1023.94</ele>
        <time>2023-03-18T15:38:43Z</time>
      </trkpt>
      <trkpt lat="45.07586" lon="4.20899">
        <ele>1024.9</ele>
        <time>2023-03-18T15:39:02Z</time>
      </trkpt>
      <trkpt lat="45.07579" lon="4.20937">
        <ele>1031.63</ele>
        <time>2023-03-18T15:39:21Z</time>
      </trkpt>
      <trkpt lat="45.07575" lon="4.2096">
        <ele>1030.19</ele>
        <time>2023-03-18T15:39:33Z</time>
      </trkpt>
      <trkpt lat="45.0757" lon="4.20984">
        <ele>1029.23</ele>
        <time>2023-03-18T15:39:46Z</time>
      </trkpt>
      <trkpt lat="45.07565" lon="4.21005">
        <ele>1029.23</ele>
        <time>2023-03-18T15:39:59Z</time>
      </trkpt>
      <trkpt lat="45.07558" lon="4.2104">
        <ele>1028.75</ele>
        <time>2023-03-18T15:40:17Z</time>
      </trkpt>
      <trkpt lat="45.07559" lon="4.21071">
        <ele>1028.75</ele>
        <time>2023-03-18T15:40:33Z</time>
      </trkpt>
      <trkpt lat="45.07559" lon="4.21082">
        <ele>1027.79</ele>
        <time>2023-03-18T15:40:39Z</time>
      </trkpt>
      <trkpt lat="45.07563" lon="4.21113">
        <ele>1030.19</ele>
        <time>2023-03-18T15:40:59Z</time>
      </trkpt>
      <trkpt lat="45.07562" lon="4.21119">
        <ele>1030.67</ele>
        <time>2023-03-18T15:41:17Z</time>
      </trkpt>
      <trkpt lat="45.07564" lon="4.21143">
        <ele>1032.59</ele>
        <time>2023-03-18T15:41:35Z</time>
      </trkpt>
      <trkpt lat="45.07567" lon="4.21148">
        <ele>1033.07</ele>
        <time>2023-03-18T15:41:44Z</time>
      </trkpt>
      <trkpt lat="45.0757" lon="4.21156">
        <ele>1034.52</ele>
        <time>2023-03-18T15:41:52Z</time>
      </trkpt>
      <trkpt lat="45.07578" lon="4.21166">
        <ele>1035.96</ele>
        <time>2023-03-18T15:42:04Z</time>
      </trkpt>
      <trkpt lat="45.07603" lon="4.21181">
        <ele>1035.48</ele>
        <time>2023-03-18T15:42:21Z</time>
      </trkpt>
      <trkpt lat="45.0762" lon="4.21195">
        <ele>1036.92</ele>
        <time>2023-03-18T15:42:37Z</time>
      </trkpt>
      <trkpt lat="45.07626" lon="4.21216">
        <ele>1037.88</ele>
        <time>2023-03-18T15:42:50Z</time>
      </trkpt>
      <trkpt lat="45.07615" lon="4.21238">
        <ele>1039.32</ele>
        <time>2023-03-18T15:43:06Z</time>
      </trkpt>
      <trkpt lat="45.07607" lon="4.21257">
        <ele>1041.25</ele>
        <time>2023-03-18T15:43:20Z</time>
      </trkpt>
      <trkpt lat="45.07604" lon="4.21269">
        <ele>1041.25</ele>
        <time>2023-03-18T15:43:35Z</time>
      </trkpt>
      <trkpt lat="45.07598" lon="4.2129">
        <ele>1041.25</ele>
        <time>2023-03-18T15:43:53Z</time>
      </trkpt>
      <trkpt lat="45.07596" lon="4.21332">
        <ele>1042.69</ele>
        <time>2023-03-18T15:44:17Z</time>
      </trkpt>
      <trkpt lat="45.07605" lon="4.2136">
        <ele>1042.69</ele>
        <time>2023-03-18T15:44:38Z</time>
      </trkpt>
      <trkpt lat="45.07622" lon="4.21392">
        <ele>1043.65</ele>
        <time>2023-03-18T15:45:02Z</time>
      </trkpt>
      <trkpt lat="45.07638" lon="4.21416">
        <ele>1046.53</ele>
        <time>2023-03-18T15:45:23Z</time>
      </trkpt>
      <trkpt lat="45.07652" lon="4.21435">
        <ele>1047.49</ele>
        <time>2023-03-18T15:45:38Z</time>
      </trkpt>
      <trkpt lat="45.07665" lon="4.21458">
        <ele>1047.01</ele>
        <time>2023-03-18T15:45:56Z</time>
      </trkpt>
      <trkpt lat="45.07681" lon="4.21482">
        <ele>1046.05</ele>
        <time>2023-03-18T15:46:17Z</time>
      </trkpt>
      <trkpt lat="45.07689" lon="4.21498">
        <ele>1045.09</ele>
        <time>2023-03-18T15:46:34Z</time>
      </trkpt>
      <trkpt lat="45.07696" lon="4.21519">
        <ele>1046.05</ele>
        <time>2023-03-18T15:46:51Z</time>
      </trkpt>
      <trkpt lat="45.07697" lon="4.21523">
        <ele>1045.09</ele>
        <time>2023-03-18T15:47:10Z</time>
      </trkpt>
      <trkpt lat="45.07696" lon="4.21522">
        <ele>1045.57</ele>
        <time>2023-03-18T15:47:30Z</time>
      </trkpt>
      <trkpt lat="45.07696" lon="4.21522">
        <ele>1045.09</ele>
        <time>2023-03-18T15:47:35Z</time>
      </trkpt>
      <trkpt lat="45.07698" lon="4.21523">
        <ele>1044.61</ele>
        <time>2023-03-18T15:47:44Z</time>
      </trkpt>
      <trkpt lat="45.07698" lon="4.21525">
        <ele>1044.13</ele>
        <time>2023-03-18T15:47:58Z</time>
      </trkpt>
      <trkpt lat="45.07698" lon="4.21527">
        <ele>1044.13</ele>
        <time>2023-03-18T15:48:00Z</time>
      </trkpt>
      <trkpt lat="45.07702" lon="4.21542">
        <ele>1043.65</ele>
        <time>2023-03-18T15:48:14Z</time>
      </trkpt>
      <trkpt lat="45.07703" lon="4.2155">
        <ele>1045.09</ele>
        <time>2023-03-18T15:48:19Z</time>
      </trkpt>
      <trkpt lat="45.07707" lon="4.21565">
        <ele>1047.97</ele>
        <time>2023-03-18T15:48:30Z</time>
      </trkpt>
      <trkpt lat="45.07713" lon="4.21581">
        <ele>1047.97</ele>
        <time>2023-03-18T15:48:43Z</time>
      </trkpt>
      <trkpt lat="45.07716" lon="4.21592">
        <ele>1047.01</ele>
        <time>2023-03-18T15:48:49Z</time>
      </trkpt>
      <trkpt lat="45.07713" lon="4.21605">
        <ele>1047.49</ele>
        <time>2023-03-18T15:49:01Z</time>
      </trkpt>
      <trkpt lat="45.07711" lon="4.21609">
        <ele>1047.01</ele>
        <time>2023-03-18T15:49:17Z</time>
      </trkpt>
      <trkpt lat="45.07711" lon="4.21606">
        <ele>1047.01</ele>
        <time>2023-03-18T15:49:43Z</time>
      </trkpt>
      <trkpt lat="45.07715" lon="4.21607">
        <ele>1047.49</ele>
        <time>2023-03-18T15:49:51Z</time>
      </trkpt>
      <trkpt lat="45.07725" lon="4.21613">
        <ele>1048.94</ele>
        <time>2023-03-18T15:50:06Z</time>
      </trkpt>
      <trkpt lat="45.07722" lon="4.21622">
        <ele>1049.42</ele>
        <time>2023-03-18T15:50:17Z</time>
      </trkpt>
      <trkpt lat="45.07721" lon="4.21639">
        <ele>1048.45</ele>
        <time>2023-03-18T15:50:34Z</time>
      </trkpt>
      <trkpt lat="45.07722" lon="4.2165">
        <ele>1046.53</ele>
        <time>2023-03-18T15:50:44Z</time>
      </trkpt>
      <trkpt lat="45.07734" lon="4.21657">
        <ele>1045.09</ele>
        <time>2023-03-18T15:50:57Z</time>
      </trkpt>
      <trkpt lat="45.07752" lon="4.21666">
        <ele>1044.61</ele>
        <time>2023-03-18T15:51:20Z</time>
      </trkpt>
      <trkpt lat="45.07765" lon="4.21663">
        <ele>1043.65</ele>
        <time>2023-03-18T15:51:38Z</time>
      </trkpt>
      <trkpt lat="45.07782" lon="4.21662">
        <ele>1043.65</ele>
        <time>2023-03-18T15:51:53Z</time>
      </trkpt>
      <trkpt lat="45.07809" lon="4.21675">
        <ele>1042.21</ele>
        <time>2023-03-18T15:52:14Z</time>
      </trkpt>
      <trkpt lat="45.0782" lon="4.21683">
        <ele>1040.76</ele>
        <time>2023-03-18T15:52:34Z</time>
      </trkpt>
      <trkpt lat="45.07829" lon="4.21686">
        <ele>1040.76</ele>
        <time>2023-03-18T15:52:57Z</time>
      </trkpt>
      <trkpt lat="45.07835" lon="4.21711">
        <ele>1041.25</ele>
        <time>2023-03-18T15:53:17Z</time>
      </trkpt>
      <trkpt lat="45.07848" lon="4.21728">
        <ele>1042.21</ele>
        <time>2023-03-18T15:53:32Z</time>
      </trkpt>
      <trkpt lat="45.0787" lon="4.21734">
        <ele>1040.28</ele>
        <time>2023-03-18T15:53:52Z</time>
      </trkpt>
      <trkpt lat="45.07878" lon="4.21747">
        <ele>1040.28</ele>
        <time>2023-03-18T15:54:06Z</time>
      </trkpt>
      <trkpt lat="45.07899" lon="4.21774">
        <ele>1039.32</ele>
        <time>2023-03-18T15:54:31Z</time>
      </trkpt>
      <trkpt lat="45.07906" lon="4.21784">
        <ele>1036.44</ele>
        <time>2023-03-18T15:54:41Z</time>
      </trkpt>
      <trkpt lat="45.07885" lon="4.21808">
        <ele>1032.59</ele>
        <time>2023-03-18T15:55:02Z</time>
      </trkpt>
      <trkpt lat="45.0787" lon="4.21843">
        <ele>1029.71</ele>
        <time>2023-03-18T15:55:24Z</time>
      </trkpt>
      <trkpt lat="45.07869" lon="4.21844">
        <ele>1029.71</ele>
        <time>2023-03-18T15:55:25Z</time>
      </trkpt>
      <trkpt lat="45.07861" lon="4.21847">
        <ele>1028.75</ele>
        <time>2023-03-18T15:55:30Z</time>
      </trkpt>
      <trkpt lat="45.07849" lon="4.21845">
        <ele>1030.67</ele>
        <time>2023-03-18T15:55:42Z</time>
      </trkpt>
    </trkseg>
  </trk>
</gpx>